Home Taping Is Killing Music

PRE DATA

Datetime Category Release
2022-11-29 00:03:54 TV-HD NFL.2022.11.27.Chiefs.Vs.Rams.720p.WEB.h264-SPORTSNET
2022-11-29 00:08:59 TV-HD The.White.Lotus.S02E04.GERMAN.DL.1080P.WEB.H264-WAYNE
2022-11-29 00:13:05 XXX EdgeQueens.22.11.22.Lana.Blade.XXX.1080p.MP4-WRB
2022-11-29 00:13:33 TV-HD NFL.2022.11.27.Chiefs.Vs.Rams.1080p.WEB.h264-SPORTSNET
2022-11-29 00:14:21 XXX Petite18.22.11.22.Madi.Collins.XXX.1080p.MP4-WRB
2022-11-29 00:15:33 XXX ShadySpa.22.11.22.Jade.Kimiko.XXX.1080p.MP4-WRB
2022-11-29 00:16:43 XXX Petite18.22.11.23.Jade.Kimiko.XXX.1080p.MP4-WRB
2022-11-29 00:18:09 XXX MassageRooms.22.11.29.Alexis.Crystal.And.Sofi.Vega.XXX.1080p.MP4-WRB
2022-11-29 00:19:28 XXX RKPrime.22.11.29.Bianca.Bangs.Check.Your.History.XXX.1080p.MP4-WRB
2022-11-29 00:20:57 XXX BrazzersExxtra.22.11.29.Mina.Luxx.Nylon-Clad.Tits.XXX.1080p.MP4-WRB
2022-11-29 00:22:44 XXX BrazzersExxtra.22.11.29.Mina.Luxx.Nylon-Clad.Tits.XXX.2160p.MP4-WRB
2022-11-29 00:24:22 XXX ZZSeries.22.11.29.MILF.U.Part.1.XXX.1080p.MP4-WRB
2022-11-29 00:26:31 XXX ZZSeries.22.11.29.MILF.U.Part.1.XXX.2160p.MP4-WRB
2022-11-29 00:44:03 XXX PrettyDirtyTeens.22.11.29.Kaira.Love.Sexting.And.Fucking.XXX.1080p.MP4-WRB
2022-11-29 00:46:06 TV-HD The.White.Lotus.S02E05.GERMAN.DL.1080P.WEB.X264-WAYNE
2022-11-29 00:46:09 XXX Bang.Surprise.22.11.29.Candy.Alexa.XXX.1080p.MP4-WRB
2022-11-29 00:47:12 TV-HD Icons.Unearthed.S01E01.720p.WEB.h264-OPUS
2022-11-29 00:48:13 TV-HD Icons.Unearthed.S01E01.iNTERNAL.1080p.WEB.h264-OPUS
2022-11-29 00:49:15 TV-HD Icons.Unearthed.S01E02.720p.WEB.h264-OPUS
2022-11-29 00:49:31 XXX Bang.Surprise.22.11.29.Candy.Alexa.XXX.2160p.MP4-WRB
2022-11-29 00:50:16 TV-HD Icons.Unearthed.S01E02.iNTERNAL.1080p.WEB.h264-OPUS
2022-11-29 00:51:10 MP3 Kaese_Kochen-Eternal__Digital-(BSSEP047)-WEB-2022-PTC
2022-11-29 00:51:18 TV-HD Icons.Unearthed.S01E03.720p.WEB.h264-OPUS
2022-11-29 00:52:20 TV-HD Icons.Unearthed.S01E03.iNTERNAL.1080p.WEB.h264-OPUS
2022-11-29 00:53:22 TV-HD Icons.Unearthed.S01E04.720p.WEB.h264-OPUS
2022-11-29 00:54:17 X264 Ticket.to.Paradise.2022.1080p.BluRay.x264-KNiVES
2022-11-29 00:54:24 TV-HD Icons.Unearthed.S01E04.iNTERNAL.1080p.WEB.h264-OPUS
2022-11-29 00:55:25 TV-HD Icons.Unearthed.S01E05.720p.WEB.h264-OPUS
2022-11-29 00:55:47 XXX PornWorld.22.11.29.Rebecca.Volpetti.XXX.1080p.MP4-WRB
2022-11-29 00:56:27 TV-HD Icons.Unearthed.S01E05.iNTERNAL.1080p.WEB.h264-OPUS
2022-11-29 00:57:30 TV-HD Icons.Unearthed.S01E06.720p.WEB.h264-OPUS
2022-11-29 00:58:31 TV-HD Icons.Unearthed.S01E06.iNTERNAL.1080p.WEB.h264-OPUS
2022-11-29 00:59:11 X264 Ticket.to.Paradise.2022.720p.BluRay.x264-KNiVES
2022-11-29 00:59:34 TV-HD The.Center.Seat.55.Years.of.Star.Trek.S01E01.1080p.WEB.h264-OPUS
2022-11-29 01:00:25 TV-HD The.Good.Doctor.S06E07.720p.HDTV.x264-SYNCOPY
2022-11-29 01:00:36 TV-HD The.Center.Seat.55.Years.of.Star.Trek.S01E01.iNTERNAL.720p.WEB.h264-OPUS
2022-11-29 01:01:07 XXX PornWorld.22.11.29.Rebecca.Volpetti.XXX.2160p.MP4-WRB
2022-11-29 01:01:39 TV-HD The.Center.Seat.55.Years.of.Star.Trek.S01E02.1080p.WEB.h264-OPUS
2022-11-29 01:02:40 TV-HD The.Center.Seat.55.Years.of.Star.Trek.S01E02.iNTERNAL.720p.WEB.h264-OPUS
2022-11-29 01:03:43 TV-HD The.Center.Seat.55.Years.of.Star.Trek.S01E03.1080p.WEB.h264-OPUS
2022-11-29 01:04:24 TV-HD Expeditionen.S02E08.SWEDiSH.720p.WEB.h264-NORUSH
2022-11-29 01:04:45 TV-HD The.Center.Seat.55.Years.of.Star.Trek.S01E03.iNTERNAL.720p.WEB.h264-OPUS
2022-11-29 01:05:11 TV-HD Robinson.S22E38.SWEDiSH.720p.WEB.h264-NORUSH
2022-11-29 01:05:27 TV-HD Robinson.S22E38.SWEDiSH.1080p.WEB.h264-NORUSH
2022-11-29 01:05:42 TV-HD 9-1-1.S06E09.1080p.WEB.H264-CAKES
2022-11-29 01:05:43 TV-HD Expeditionen.S02E08.SWEDiSH.1080p.WEB.h264-NORUSH
2022-11-29 01:05:44 TV-HD 9-1-1.S06E09.720p.WEB.H264-CAKES
2022-11-29 01:05:47 TV-HD The.Center.Seat.55.Years.of.Star.Trek.S01E04.1080p.WEB.h264-OPUS
2022-11-29 01:06:49 TV-HD The.Center.Seat.55.Years.of.Star.Trek.S01E04.iNTERNAL.720p.WEB.h264-OPUS
2022-11-29 01:07:13 TV-HD Hart.Vader.S01E05.SWEDiSH.720p.WEB.h264-NORUSH
2022-11-29 01:07:51 TV-HD The.Center.Seat.55.Years.of.Star.Trek.S01E05.1080p.WEB.h264-OPUS
2022-11-29 01:08:04 TV-HD Hart.Vader.S01E05.SWEDiSH.1080p.WEB.h264-NORUSH
2022-11-29 01:08:53 TV-HD The.Center.Seat.55.Years.of.Star.Trek.S01E05.720p.WEB.h264-OPUS
2022-11-29 01:09:56 TV-HD The.Center.Seat.55.Years.of.Star.Trek.S01E06.1080p.WEB.h264-OPUS
2022-11-29 01:10:58 TV-HD The.Center.Seat.55.Years.of.Star.Trek.S01E06.720p.WEB.h264-OPUS
2022-11-29 01:11:15 MP3 A373-Generation_EP-(AFR013)-WEB-2020-PTC
2022-11-29 01:11:39 MP3 Ado_(Col)-Sprono_EP-(AFR011)-WEB-2020-PTC
2022-11-29 01:12:00 XXX AbuseMe.22.11.28.Violet.Gems.XXX.2160p.MP4-WRB
2022-11-29 01:12:00 TV-HD The.Center.Seat.55.Years.of.Star.Trek.S01E07.1080p.WEB.h264-OPUS
2022-11-29 01:12:23 MP3 AVV-Geek_EP-(AFR027)-WEB-2022-PTC
2022-11-29 01:12:35 MP3 Azogiar-Reven_EP-(AFR008)-WEB-2020-PTC
2022-11-29 01:12:43 MP3 Badpact-Occiso_EP-(AFR016)-WEB-2021-PTC
2022-11-29 01:12:52 MP3 Cristian_Glitch-Subconcience_EP-(AFR020)-WEB-2021-PTC
2022-11-29 01:13:01 MP3 Dartkrait-Escultura_De_Craneo_EP-(AFR006)-WEB-2020-PTC
2022-11-29 01:13:01 TV-HD The.Center.Seat.55.Years.of.Star.Trek.S01E07.720p.WEB.h264-OPUS
2022-11-29 01:13:10 MP3 Dartkrait-Sparrow_EP-(AFR021)-WEB-2021-PTC
2022-11-29 01:13:18 MP3 Ekin_Music-Psycho_Minds_EP-(AFR030)-WEB-2022-PTC_INT
2022-11-29 01:13:28 MP3 F411-Strange_EP-(AFR018)-WEB-2021-PTC
2022-11-29 01:13:52 MP3 Felipe_Brmudz-Alien_Skin_EP-(AFR007)-WEB-2020-PTC
2022-11-29 01:14:00 MP3 Gallego_and_Mr._Shady-Apacible_EP-(AFR001)-WEB-2020-PTC
2022-11-29 01:14:03 TV-HD The.Center.Seat.55.Years.of.Star.Trek.S01E08.1080p.WEB.h264-OPUS
2022-11-29 01:14:09 MP3 Gino_Moceton-XT3402_EP-(AFR023)-WEB-2021-PTC
2022-11-29 01:14:17 MP3 Hate_Society-Cavia_Porcellus_EP-(AFR004)-WEB-2020-PTC
2022-11-29 01:14:25 MP3 Jom_and_Mau-Mentale_EP-(AFR034)-WEB-2022-PTC
2022-11-29 01:14:32 MP3 JulianBo-Political_Rats_EP-(AFR036)-WEB-2022-PTC
2022-11-29 01:14:42 MP3 Keah-Even_Deeper_EP-(AFR015)-WEB-2021-PTC
2022-11-29 01:14:50 MP3 Kinetic_KNTC-Obscure_EP-(AFR009)-WEB-2020-PTC
2022-11-29 01:14:57 MP3 Lec_Saint-Dimensions_EP-(AFR038)-WEB-2022-PTC
2022-11-29 01:14:58 X264 Lake.Tanganyika.Africas.Blue.Heart.2022.1080p.HDTV.H264-CBFM
2022-11-29 01:15:06 MP3 Lec_Saint-Revolution_EP-(AFR033)-WEB-2022-PTC
2022-11-29 01:15:06 TV-HD The.Center.Seat.55.Years.of.Star.Trek.S01E08.720p.WEB.h264-OPUS
2022-11-29 01:15:13 MP3 Luis_Odem-Lost_Voice_EP-(AFR019)-WEB-2021-PTC
2022-11-29 01:15:22 MP3 Mr._Shady-Estrafalario-(AFR012)-WEB-2020-PTC
2022-11-29 01:15:29 XXX AssParade.22.11.28.Richh.Des.XXX.2160p.MP4-WRB
2022-11-29 01:15:29 MP3 Pablo_Caballero_and_Tankhamun-Akenaton_EP-(AFR014)-WEB-2020-PTC
2022-11-29 01:15:36 MP3 Pau_Ewan-Inward_EP-(AFR026)-WEB-2022-PTC
2022-11-29 01:15:44 MP3 Paul_Basshell-Mithomane_EP-(AFR017)-WEB-2021-PTC
2022-11-29 01:15:53 MP3 Phyrgian_and_Nollie-Deja_Vu_EP-(AFR002)-WEB-2020-PTC
2022-11-29 01:16:00 MP3 R66-No_Rikther_EP-(AFR035)-WEB-2022-PTC
2022-11-29 01:16:07 TV-HD The.Center.Seat.55.Years.of.Star.Trek.S01E09.1080p.WEB.h264-OPUS
2022-11-29 01:16:08 MP3 R66-R_Conection_EP-(AFR029)-WEB-2022-PTC
2022-11-29 01:16:15 MP3 Sarias-XX_EP-(AFR005)-WEB-2020-PTC
2022-11-29 01:16:22 MP3 SXNCT-L40XX-(AFR010)-WEB-2020-PTC
2022-11-29 01:16:30 MP3 T.K.N.Z-Instrument_Of_Control_EP-(AFR003)-WEB-2020-PTC
2022-11-29 01:16:38 MP3 Venedetty-Orbital_Stage-(AFR028)-WEB-2022-PTC
2022-11-29 01:16:51 MP3 Virus_D.D.D-Signal_EP-(AFR024)-WEB-2021-PTC
2022-11-29 01:16:59 MP3 Yuuta-Kasekage_EP-(AFR031)-WEB-2022-PTC
2022-11-29 01:17:06 MP3 Zwick-Cosmic_Heroes_EP-(AFR025)-WEB-2022-PTC
2022-11-29 01:17:10 TV-HD The.Center.Seat.55.Years.of.Star.Trek.S01E09.720p.WEB.h264-OPUS
2022-11-29 01:18:10 TV-HD Stuck.S01E01.Cat.1080p.WEBRip.x264-CBFM
2022-11-29 01:18:11 TV-HD The.Center.Seat.55.Years.of.Star.Trek.S01E10.1080p.WEB.h264-OPUS
2022-11-29 01:18:13 TV-HD Stuck.S01E02.The.Other.Guy.1080p.WEBRip.x264-CBFM
2022-11-29 01:18:53 TV-HD Stuck.S01E03.Cucumbenaires.1080p.WEBRip.x264-CBFM
2022-11-29 01:18:57 TV-HD Stuck.S01E04.Cookies.1080p.WEBRip.x264-CBFM
2022-11-29 01:19:04 TV-HD Stuck.S01E05.The.Party.1080p.WEBRip.x264-CBFM
2022-11-29 01:19:14 TV-HD The.Center.Seat.55.Years.of.Star.Trek.S01E10.720p.WEB.h264-OPUS
2022-11-29 01:19:17 XXX HotwifeXXX.22.11.28.Destiny.Cruz.XXX.2160p.MP4-WRB
2022-11-29 01:20:16 TV-HD The.Center.Seat.55.Years.of.Star.Trek.S01E11.1080p.WEB.h264-OPUS
2022-11-29 01:21:18 TV-HD The.Center.Seat.55.Years.of.Star.Trek.S01E11.720p.WEB.h264-OPUS
2022-11-29 01:22:22 MP3 Mauricio_Brigante-An_Elephant_Called_Oshun-(B068)-WEB-2022-PTC
2022-11-29 01:23:19 XXX Private.22.11.28.Zaawaadi.And.The.Ranger.XXX.2160p.MP4-WRB
2022-11-29 01:24:29 MP3 Coffee_Shop_Jungle-Catalyst-(CSJ019B)-WEB-2022-PTC
2022-11-29 01:25:34 MP3 Byzantine-Black_Sea_Codex-EP-WEB-2022-BLEEDiNG
2022-11-29 01:26:20 MP3 Wretched_Inferno-Cacophony_of_Filth-WEB-2022-BLEEDiNG
2022-11-29 01:27:10 MP3 Birch-Pray_For_You-(NCS1184)-SINGLE-WEB-2022-PTC
2022-11-29 01:31:00 MP3 Orion-Control_Symmetry-(ATNM020)-WEB-2022-PTC
2022-11-29 01:31:03 TV-HD Children.Ruin.Everything.S02E09.720p.HDTV.x264-SYNCOPY
2022-11-29 01:33:13 XXX AlexLegend.22.11.20.Abigail.Morris.BTS.XXX.1080p.MP4-WRB
2022-11-29 01:35:12 XXX AlexLegend.22.11.22.Lyra.Lockhart.POV.XXX.1080p.MP4-WRB
2022-11-29 01:36:29 MP3 Mauro_Pierotti-Euphoria-(AR098)-WEB-2022-PTC
2022-11-29 01:36:40 MP3 Rill-Passionate_Kisses-(DR023)-WEB-2022-PTC
2022-11-29 01:37:37 XXX BrandNewAmateurs.22.11.23.Mature.Maddie.Happy.Anal.Ending.XXX.1080p.MP4-WRB
2022-11-29 01:40:55 MP3 Sigabort-Blood_Bomb-(WLMH085)-WEB-2022-PTC
2022-11-29 01:41:35 XXX WildOnCam.22.11.23.Numi.Zarah.Hardcore.XXX.1080p.MP4-WRB
2022-11-29 01:41:59 TV-HD Disco.Paraiso.Das.Geheimnis.von.Almanzora.S02E03.German.DL.720p.WEB.h264-WvF
2022-11-29 01:42:51 TV-HD Disco.Paraiso.Das.Geheimnis.von.Almanzora.S02E04.German.DL.720p.WEB.h264-WvF
2022-11-29 01:44:00 TV-HD The.Good.Doctor.S06E01.German.DL.720p.WEB.h264.INTERNAL-WvF
2022-11-29 01:44:28 MP3 Joda-No_One_Walks_Away_(PROFF_Remix)-(ANJ858D)-WEB-2022-PTC_INT
2022-11-29 01:44:59 TV-HD Step.Up.High.Water.S03E07.German.DL.720p.WEB.h264-WvF
2022-11-29 01:45:53 TV-HD Gefaehrliche.Liebschaften.S01E04.German.DL.720p.WEB.h264-WvF
2022-11-29 01:46:49 TV-HD The.White.Lotus.S02E05.German.DL.720p.WEB.x264-WvF
2022-11-29 01:47:45 XXX BlowBangGirls.22.11.20.Mila.Milkshak.Smoking.Hot.Latina.Goes.Balls.Deep.XXX.2160p.MP4-WRB
2022-11-29 01:47:46 TV-HD Murdoch.Mysteries.Auf.den.Spuren.mysterioeser.Mordfaelle.S03E11.German.DL.1080p.WEB.x264-WvF
2022-11-29 01:49:34 XXX BlowBangGirls.22.11.23.Cum.Cum.Cum.And.More.Cum.Compilation.XXX.1080p.MP4-WRB
2022-11-29 01:49:49 MP3 DJ_Shufflemaster-Imageforum-(TRESOR167S1)-SINGLE-WEB-2022-PTC
2022-11-29 01:51:57 XXX CherryPimps.Taboo.22.11.23.Aubree.Valentine.XXX.1080p.MP4-WRB
2022-11-29 01:59:10 MP3 Pablo_Moriego-Nevermore-(ADR539)-SINGLE-WEB-2022-PTC
2022-11-29 01:59:21 MP3 Sunroof-January_2-(I1PSST6)-SINGLE-WEB-2022-PTC
2022-11-29 02:00:02 XXX Lustery.E785.Eden.And.Riley.Just.Us.XXX.1080p.MP4-WRB
2022-11-29 02:00:54 XXX Lustery.E786.Mitch.And.Sally.Sallys.Mo.Nut.XXX.1080p.MP4-WRB
2022-11-29 02:02:02 XXX Lustery.E787.Jon.And.Redangeell.Desire.On.Display.XXX.1080p.MP4-WRB
2022-11-29 02:03:30 XXX Lustery.E788.Ant.And.Stephanie.A.Thanksgiving.Stuffing.XXX.1080p.MP4-WRB
2022-11-29 02:04:15 XXX Lustery.E789.Miro.And.Mona.Distracted.Reading.XXX.VERTICAL.1080p.MP4-WRB
2022-11-29 02:04:32 TV-HD The.Cleaning.Lady.S02E09.1080p.WEB.H264-CAKES
2022-11-29 02:04:32 TV-HD The.Cleaning.Lady.S02E09.720p.WEB.H264-CAKES
2022-11-29 02:05:15 XXX VickyAtHome.22.11.18.Devilish.Blowjob.XXX.VERTICAL.1080p.MP4-WRB
2022-11-29 02:07:14 XXX NinaKayy.22.11.22.Four.Babes.One.Cock.XXX.1080p.MP4-WRB
2022-11-29 02:11:05 MP3 VA-Deep_Structures_EP_XII-(KOSMOS152DGTL)-WEB-2022-PTC
2022-11-29 02:11:36 MP3 VA-VA_2_Universos-(TWVA004)-WEB-2022-PTC
2022-11-29 02:12:09 TV-HD Reddet.S01E08.NORWEGiAN.1080p.WEB.h264-BAKFYLLA
2022-11-29 02:12:52 TV-HD Reddet.S01E08.NORWEGiAN.720p.WEB.h264-BAKFYLLA
2022-11-29 02:14:16 TV-HD Alle.Elsker.David.S03E08.NORWEGiAN.1080p.WEB.h264-BAKFYLLA
2022-11-29 02:14:54 TV-HD Alle.Elsker.David.S03E08.NORWEGiAN.720p.WEB.h264-BAKFYLLA
2022-11-29 02:23:20 XXX YesGirlz.22.04.15.Sera.Ryder.XXX.720p.MP4-WRB
2022-11-29 02:24:44 XXX YesGirlz.22.04.22.Charly.Summer.XXX.720p.MP4-WRB
2022-11-29 02:26:35 XXX YesGirlz.22.04.27.Rebel.Rhyder.XXX.720p.MP4-WRB
2022-11-29 03:00:10 TV-HD Highway.Thru.Hell.S11E10.720p.HDTV.x264-SYNCOPY
2022-11-29 03:00:19 TV-HD Avenue.5.S02E08.720p.WEB.H264-GGWP
2022-11-29 03:00:22 TV-HD Avenue.5.S02E08.1080p.WEB.H264-GGWP
2022-11-29 03:04:21 XXX ClaudiaMarie.22.11.23.Big.Tit.Film.Director.2.XXX.720p.MP4-WRB
2022-11-29 03:05:40 XXX CzechStreets.E139.Luxurious.MILF.Fucked.In.A.Public.Bus.XXX.1080p.MP4-WRB
2022-11-29 03:07:22 XXX CzechStreets.E139.Luxurious.MILF.Fucked.In.A.Public.Bus.XXX.2160p.MP4-WRB
2022-11-29 03:09:36 XXX FrolicMe.22.11.18.Alexis.Crystal.Laid.Bare.XXX.1080p.MP4-WRB
2022-11-29 03:11:06 TV-HD American.Dad.S18E19.1080p.WEBRip.x264-CAKES
2022-11-29 03:12:19 XXX HussiePass.22.11.23.Freya.Kennedy.19-Year-Old.Attention.Whore.XXX.1080p.MP4-WRB
2022-11-29 03:24:10 XXX ALSAngels.22.11.22.Monika.May.Photoshoot.XXX.1080p.MP4-WRB
2022-11-29 03:26:47 XXX ALSAngels.22.11.22.Monika.May.Photoshoot.XXX.2160p.MP4-WRB
2022-11-29 03:27:21 TV-HD Dan.Browns.The.Lost.Symbol.S01E07.Noogenesis.720p.WEBRip.X264.CZ-SDTV
2022-11-29 03:29:19 XXX RomeMajor.22.11.23.Venice.Escape.XXX.2160p.MP4-WRB
2022-11-29 03:35:05 XXX Philavise.22.11.16.Beverly.Snow.Up.Close.And.Personal.XXX.1080p.MP4-WRB
2022-11-29 03:36:41 XXX Philavise.22.11.16.Beverly.Snow.Up.Close.And.Personal.XXX.2160p.MP4-WRB
2022-11-29 03:38:44 XXX SheSeducedMe.22.11.21.Alina.Lopez.And.Kenna.James.XXX.1080p.MP4-WRB
2022-11-29 03:40:42 TV-HD Pripady.1.oddeleni.S03E13.Trik.1080p.WEB.H264.CZ-SDTV
2022-11-29 03:47:15 MVID Amyl_And_The_Sniffers-Guided_By_Angels_(2022_ARIA_Awards)-720p-x264-2022-SRPx
2022-11-29 03:47:49 MVID Baker_Boy-Meditjin_(2022_ARIA_Awards)-720p-x264-2022-SRPx
2022-11-29 03:48:21 MVID Casey_Donovan_And_Dami_Im-The_Seekers_Tribute_(2022_ARIA_Awards)-720p-x264-2022-SRPx
2022-11-29 03:48:54 MVID Charlie_Puth-Loser_(The_Graham_Norton_Show_2022-11-25)-DDC-1080p-h264-2022-SRPx
2022-11-29 03:49:28 MVID Flume_ft_May-A-Say_Nothing_(2022_ARIA_Awards)-720p-x264-2022-SRPx
2022-11-29 03:50:01 MVID Fontaines_D.C.-Echoes_with_Jehnny_Beth_(2020)-1080p-x264-2020-SRP
2022-11-29 03:50:36 MVID Jessica_Mauboy_ft_VA-One_Song_(2022_ARIA_Awards)-720p-x264-2022-SRPx
2022-11-29 03:51:09 MVID Natalie_Imbruglia_And_Tones_And_I-Olivia_Newton-John_Tribute_(2022_ARIA_Awards)-720p-x264-2022-SRPx
2022-11-29 03:51:43 MVID Rufus_Du_Sol-On_My_Knees_(2022_ARIA_Awards)-720p-x264-2022-SRPx
2022-11-29 03:52:16 MVID Vance_Joy-Clarity_(2022_ARIA_Awards)-720p-x264-2022-SRPx
2022-11-29 03:55:46 TV-HD Eastenders.2022.11.28.Part.One.1080p.WEB.h264-FaiLED
2022-11-29 03:56:08 TV-HD Eastenders.2022.11.28.Part.One.720p.WEB.h264-FaiLED
2022-11-29 03:56:30 TV-HD Eastenders.2022.11.28.Part.Two.1080p.WEB.h264-FaiLED
2022-11-29 03:56:53 TV-HD Eastenders.2022.11.28.Part.Two.720p.WEB.h264-FaiLED
2022-11-29 03:57:21 XXX Fitting-Room.22.11.21.Candie.Luciani.Jeune.Tres.Excite.XXX.1080p.MP4-WRB
2022-11-29 03:59:23 XXX Fitting-Room.22.11.21.Candie.Luciani.Jeune.Tres.Excite.XXX.2160p.MP4-WRB
2022-11-29 04:00:07 TV-HD Mud.Mountain.Haulers.S02E05.720p.HDTV.x264-SYNCOPY
2022-11-29 04:02:05 XXX LANewGirl.22.11.22.Breezy.Bri.Modeling.Audition.XXX.1080p.MP4-WRB
2022-11-29 04:09:06 XXX ProducersFun.22.11.22.Anna.Claire.Clouds.A.Fucking.Conversation.XXX.1080p.MP4-WRB
2022-11-29 04:10:25 XXX FreakMobMedia.22.11.25.Busted.A.Nut.On.Paris.Banks.Feet.XXX.1080p.MP4-WRB
2022-11-29 04:12:03 XXX FreakMobMedia.22.11.25.Monica.Santhiago.Super.Baddie.Anal.Creampie.XXX.1080p.MP4-WRB
2022-11-29 04:18:58 XXX CzechStreets.E138.Part.1.Horny.PE.Teacher.XXX.1080p.MP4-WRB
2022-11-29 04:20:50 XXX CzechStreets.E138.Part.1.Horny.PE.Teacher.XXX.2160p.MP4-WRB
2022-11-29 04:26:27 XXX WankItNow.22.11.29.Roxy.Mendez.Lady.In.Red.XXX.1080p.MP4-WRB
2022-11-29 04:27:37 XXX SexMex.22.11.29.Sara.Blonde.Naive.And.Beautiful.Niece.XXX.1080p.MP4-WRB
2022-11-29 04:29:27 XXX Watch4Beauty.22.11.29.Dulce.Dream.Dick.Fuck.Machine.XXX.1080p.MP4-WRB
2022-11-29 04:32:14 XXX SexMex.22.11.29.Sara.Blonde.Naive.And.Beautiful.Niece.XXX.2160p.MP4-WRB
2022-11-29 04:35:33 XXX Watch4Beauty.22.11.29.Dulce.Dream.Dick.Fuck.Machine.XXX.2160p.MP4-WRB
2022-11-29 04:35:45 XXX PerVRt.22.11.09.Pris.Angel.Shinny.Diamonds.Fishnet.2.XXX.VR180.3072p.MP4-GUSH
2022-11-29 04:46:42 XXX AbbyWinters.22.11.28.Wendy.T.And.Dee.V.Embarrassed.Peeks.XXX.1080p.MP4-WRB
2022-11-29 04:48:52 XXX AbbyWinters.22.11.28.Wendy.T.And.Dee.V.Embarrassed.Peeks.XXX.2160p.MP4-WRB
2022-11-29 04:49:43 TV-HD The.Daily.Show.2022.11.28.Will.Smith.EXTENDED.720p.WEB.h264-KOGi
2022-11-29 04:49:50 TV-HD The.Daily.Show.2022.11.28.Will.Smith.EXTENDED.1080p.WEB.h264-KOGi
2022-11-29 04:53:20 TV-HD American.Dad.S18E19.720p.WEBRip.x264-BAE
2022-11-29 04:53:33 XXX ATKGalleria.22.11.29.Ava.Davis.XXX.1080p.MP4-WRB
2022-11-29 04:55:23 XXX ATKGirlfriends.22.11.29.Maria.Kazi.Wax.Museum.1.XXX.1080p.MP4-WRB
2022-11-29 04:58:07 XXX ATKGirlfriends.22.11.29.Maria.Kazi.Wax.Museum.1.XXX.2160p.MP4-WRB
2022-11-29 05:00:18 TV-HD Welcome.to.Chippendales.S01E03.1080p.WEB.H264-CAKES
2022-11-29 05:00:38 TV-HD Welcome.to.Chippendales.S01E03.2160p.WEB.H265-CAKES
2022-11-29 05:00:51 TV-HD Fanget.Paa.Politiets.Kamera.S06E06.DANiSH.720p.WEB.h264-HYGGE
2022-11-29 05:01:10 TV-HD Welcome.to.Chippendales.S01E03.720p.WEB.H264-CAKES
2022-11-29 05:01:27 TV-HD All.American.S05E07.720p.WEB.H264-CAKES
2022-11-29 05:01:28 TV-HD All.American.S05E07.1080p.WEB.H264-CAKES
2022-11-29 05:01:50 TV-HD Fanget.Paa.Politiets.Kamera.S06E06.DANiSH.1080p.WEB.h264-HYGGE
2022-11-29 05:06:09 XXX EvilAngel.22.11.29.Five-Girl.Lesbian.Gaping.Party.XXX.1080p.MP4-WRB
2022-11-29 05:07:32 TV-HD Welcome.to.Chippendales.S01E03.DV.2160p.WEB.H265-CAKES
2022-11-29 05:09:12 XXX PureTaboo.22.11.29.Spencer.Bradley.And.Mona.Azar.XXX.1080p.MP4-WRB
2022-11-29 05:12:03 XXX BangBrosClips.22.11.29.Violet.Gems.XXX.1080p.MP4-WRB
2022-11-29 05:20:33 XXX MessyJessy.22.11.29.Ryan.Reid.The.Best.Ride.Of.Her.Life.XXX.1080p.MP4-WRB
2022-11-29 05:24:42 XXX EvilAngel.22.11.29.Five-Girl.Lesbian.Gaping.Party.XXX.2160p.MP4-WRB
2022-11-29 05:28:12 XXX PureTaboo.22.11.29.Spencer.Bradley.And.Mona.Azar.XXX.2160p.MP4-WRB
2022-11-29 05:28:37 XXX PerVRt.22.11.11.Anabella.Lee.Sleepover.To.Get.Dick.Photoshoot.BTS.XXX.VR180.3072p.MP4-GUSH
2022-11-29 05:30:58 TV-HD Fem.Fede.Kokke.S03E06.Vinterbadning.Skal.Braende.I.Helvede.DANiSH.720p.WEB.h264-HiVE
2022-11-29 05:32:07 XXX KarupsPC.20.08.26.Angie.Lynx.Desperate.For.A.Drilling.XXX.1080p.MP4-2FA
2022-11-29 05:34:09 XXX KarupsHA.20.08.27.Riley.Jean.Rileys.Rumbling.Muff.XXX.1080p.MP4-2FA
2022-11-29 05:36:11 XXX KarupsOW.20.08.28.Vanessa.Hell.Cum.Hungry.Momma.XXX.1080p.MP4-2FA
2022-11-29 05:38:13 XXX KarupsPC.20.08.29.Matty.Tiny.Teen.XXX.1080p.MP4-2FA
2022-11-29 05:40:15 XXX KarupsOW.20.08.30.Jane.Fox.BBW.Baker.XXX.1080p.MP4-2FA
2022-11-29 05:42:17 XXX KarupsHA.20.08.31.Karah.Brook.Hot.N.Ready.XXX.1080p.MP4-2FA
2022-11-29 05:44:23 XXX KarupsPC.20.08.31.Jenny.Wild.Wheelchair.Bound.Cuckold.XXX.1080p.MP4-2FA
2022-11-29 05:48:37 TV-HD Monster.The.Jeffrey.Dahmer.Story.S01E01.HDR.2160p.WEB.H265-DONUTS
2022-11-29 05:49:02 TV-HD Monster.The.Jeffrey.Dahmer.Story.S01E02.HDR.2160p.WEB.H265-DONUTS
2022-11-29 05:49:37 TV-HD Monster.The.Jeffrey.Dahmer.Story.S01E03.HDR.2160p.WEB.H265-DONUTS
2022-11-29 05:50:04 TV-HD Monster.The.Jeffrey.Dahmer.Story.S01E04.HDR.2160p.WEB.H265-DONUTS
2022-11-29 05:50:40 TV-HD Monster.The.Jeffrey.Dahmer.Story.S01E05.HDR.2160p.WEB.H265-DONUTS
2022-11-29 05:50:52 XXX Blacked.22.11.26.Rae.Lil.Black.And.Vicki.Chase.XXX.1080p.MP4-NBQ
2022-11-29 05:51:12 TV-HD Monster.The.Jeffrey.Dahmer.Story.S01E06.HDR.2160p.WEB.H265-DONUTS
2022-11-29 05:51:39 TV-HD Monster.The.Jeffrey.Dahmer.Story.S01E07.HDR.2160p.WEB.H265-DONUTS
2022-11-29 05:52:01 TV-HD Monster.The.Jeffrey.Dahmer.Story.S01E08.HDR.2160p.WEB.H265-DONUTS
2022-11-29 05:52:30 TV-HD Monster.The.Jeffrey.Dahmer.Story.S01E09.HDR.2160p.WEB.H265-DONUTS
2022-11-29 05:52:50 TV-HD Monster.The.Jeffrey.Dahmer.Story.S01E10.HDR.2160p.WEB.H265-DONUTS
2022-11-29 05:53:24 XXX POVMasters.22.11.28.Daisy.Bean.XXX.1080p.MP4-NBQ
2022-11-29 05:55:57 XXX POVMasters.22.11.28.Daisy.Bean.XXX.2160p.MP4-NBQ
2022-11-29 05:56:53 TV-HD Wild.Wonders.with.Brooke.S02E05.1080p.HDTV.H264-CBFM
2022-11-29 05:58:29 XXX SexyModernBull.22.07.01.Rebecca.Vanguard.XXX.1080p.MP4-NBQ
2022-11-29 06:01:04 XXX SpankMonster.22.01.19.Payton.Avery.XXX.1080p.MP4-NBQ
2022-11-29 06:03:37 XXX SpankMonster.22.01.19.Payton.Avery.XXX.2160p.MP4-NBQ
2022-11-29 06:03:41 TV-HD Guillermo.del.Toros.Cabinet.of.Curiosities.S01E01.HDR.2160p.WEB.H265-DONUTS
2022-11-29 06:04:27 TV-HD Guillermo.del.Toros.Cabinet.of.Curiosities.S01E02.HDR.2160p.WEB.H265-DONUTS
2022-11-29 06:04:42 TV-HD Guillermo.del.Toros.Cabinet.of.Curiosities.S01E03.HDR.2160p.WEB.H265-DONUTS
2022-11-29 06:04:59 TV-HD Guillermo.del.Toros.Cabinet.of.Curiosities.S01E04.HDR.2160p.WEB.H265-DONUTS
2022-11-29 06:05:16 TV-HD Guillermo.del.Toros.Cabinet.of.Curiosities.S01E05.HDR.2160p.WEB.H265-DONUTS
2022-11-29 06:05:33 TV-HD Guillermo.del.Toros.Cabinet.of.Curiosities.S01E06.HDR.2160p.WEB.H265-DONUTS
2022-11-29 06:05:45 TV-HD Guillermo.del.Toros.Cabinet.of.Curiosities.S01E07.HDR.2160p.WEB.H265-DONUTS
2022-11-29 06:06:05 TV-HD Guillermo.del.Toros.Cabinet.of.Curiosities.S01E08.HDR.2160p.WEB.H265-DONUTS
2022-11-29 06:06:09 XXX WoodmanCastingX.22.11.06.Candie.Luciani.Anal.Sex.At.The.Library.XXX.1080p.MP4-NBQ
2022-11-29 06:08:18 TV-HD 1899.S01E01.HDR.2160p.WEB.H265-DONUTS
2022-11-29 06:08:38 TV-HD 1899.S01E02.HDR.2160p.WEB.H265-DONUTS
2022-11-29 06:08:41 XXX WoodmanCastingX.22.11.06.Candie.Luciani.Anal.Sex.At.The.Library.XXX.2160p.MP4-NBQ
2022-11-29 06:08:50 TV-HD 1899.S01E03.HDR.2160p.WEB.H265-DONUTS
2022-11-29 06:09:57 TV-HD 1899.S01E04.HDR.2160p.WEB.H265-DONUTS
2022-11-29 06:10:07 TV-HD 1899.S01E05.HDR.2160p.WEB.H265-DONUTS
2022-11-29 06:10:17 TV-HD 1899.S01E06.HDR.2160p.WEB.H265-DONUTS
2022-11-29 06:10:26 TV-HD 1899.S01E07.HDR.2160p.WEB.H265-DONUTS
2022-11-29 06:10:36 TV-HD 1899.S01E08.HDR.2160p.WEB.H265-DONUTS
2022-11-29 06:12:21 EBOOK Il.Corriere.Della.Sera.11.29.2022.iTALiAN.RETAiL.eBook-DiVER
2022-11-29 06:13:13 TV-HD Wednesday.S01E01.2160p.WEB.H265-DONUTS
2022-11-29 06:13:40 TV-HD Wednesday.S01E02.2160p.WEB.H265-DONUTS
2022-11-29 06:13:54 TV-HD Wednesday.S01E03.2160p.WEB.H265-DONUTS
2022-11-29 06:14:50 TV-HD Wednesday.S01E04.2160p.WEB.H265-DONUTS
2022-11-29 06:15:00 TV-HD Wednesday.S01E05.2160p.WEB.H265-DONUTS
2022-11-29 06:15:10 TV-HD Wednesday.S01E06.2160p.WEB.H265-DONUTS
2022-11-29 06:15:26 TV-HD Wednesday.S01E07.2160p.WEB.H265-DONUTS
2022-11-29 06:15:36 TV-HD Wednesday.S01E08.2160p.WEB.H265-DONUTS
2022-11-29 06:22:53 X264 Meine.Stunden.mit.Leo.2022.German.720p.BluRay.x264-DETAiLS
2022-11-29 06:23:36 X264 Meine.Stunden.mit.Leo.2022.German.BDRip.x264-DETAiLS
2022-11-29 06:23:56 X264 Meine.Stunden.mit.Leo.2022.German.DL.1080p.BluRay.x264-DETAiLS
2022-11-29 06:24:37 BLURAY Good.Luck.to.You.Leo.Grande.2022.MULTi.COMPLETE.BLURAY-MONUMENT
2022-11-29 06:25:17 TV-HD Wednesday.S01E01.HDR.2160p.WEB.H265-DONUTS
2022-11-29 06:25:45 TV-HD FIFA.World.Cup.2022.Group.Stage.Brazil.Vs.Switzerland.720p.WEB.H264-SPORTSNET
2022-11-29 06:27:32 X264 Night.of.the.Living.Dead.1968.MULTi.2160p.UHD.BluRay.x265-SESKAPiLE
2022-11-29 06:27:50 XXX MyLifeInMiami.22.11.23.Armani.Black.Is.All.That.XXX.1080p.MP4-WRB
2022-11-29 06:28:08 TV-HD Wednesday.S01E02.HDR.2160p.WEB.H265-DONUTS
2022-11-29 06:29:18 TV-HD Wednesday.S01E03.HDR.2160p.WEB.H265-DONUTS
2022-11-29 06:29:28 TV-HD Wednesday.S01E04.HDR.2160p.WEB.H265-DONUTS
2022-11-29 06:29:38 TV-HD Wednesday.S01E05.HDR.2160p.WEB.H265-DONUTS
2022-11-29 06:30:05 XXX MyLifeInMiami.22.11.23.Armani.Black.Is.All.That.XXX.2160p.MP4-WRB
2022-11-29 06:30:57 TV-HD Wednesday.S01E06.HDR.2160p.WEB.H265-DONUTS
2022-11-29 06:31:06 TV-HD Wednesday.S01E07.HDR.2160p.WEB.H265-DONUTS
2022-11-29 06:31:17 TV-HD Wednesday.S01E08.HDR.2160p.WEB.H265-DONUTS
2022-11-29 06:32:29 XXX DadCrush.22.11.29.Macy.Meadows.And.Krissy.Knight.The.Negotiation.XXX.1080p.MP4-WRB
2022-11-29 06:38:42 XXX OldGoesYoung.22.11.23.Nika.XXX.1080p.MP4-WRB
2022-11-29 06:40:31 TV-HD FIFA.World.Cup.2022.Group.Stage.Portugal.Vs.Uruguay.720p.WEB.H264-SPORTSNET
2022-11-29 06:41:23 XXX OldGoesYoung.22.11.23.Nika.XXX.2160p.MP4-WRB
2022-11-29 06:42:19 EBOOK La.Gazzetta.Dello.Sport.11.29.2022.iTALiAN.RETAiL.eBook-DiVER
2022-11-29 06:43:03 BLURAY Meine.Stunden.mit.Leo.2022.German.DL.1080p.BluRay.AVC-UNTAVC
2022-11-29 06:43:36 TV-HD Helvetesresan.S01E01.SWEDiSH.720p.WEB.h264-NORUSH
2022-11-29 06:43:52 TV-HD Helvetesresan.S01E01.SWEDiSH.1080p.WEB.h264-NORUSH
2022-11-29 06:44:28 TV-HD Helvetesresan.S01E02.SWEDiSH.720p.WEB.h264-NORUSH
2022-11-29 06:44:39 TV-HD Helvetesresan.S01E02.SWEDiSH.1080p.WEB.h264-NORUSH
2022-11-29 06:45:15 TV-HD Helvetesresan.S01E03.SWEDiSH.720p.WEB.h264-NORUSH
2022-11-29 06:45:30 TV-HD Helvetesresan.S01E03.SWEDiSH.1080p.WEB.h264-NORUSH
2022-11-29 06:46:57 MP3 EMBRZ-Something_To_Say-(TNH145D)-SINGLE-WEB-2022-AFO
2022-11-29 06:48:53 XXX PrimeLesbian.22.11.29.Talia.Mint.And.Luna.Corazon.XXX.1080p.MP4-WRB
2022-11-29 06:50:47 XXX VIPissy.22.11.29.Bella.And.Melani.Mendes.XXX.1080p.MP4-WRB
2022-11-29 06:52:25 XXX WetAndPissy.22.11.29.Serenya.Gomez.XXX.1080p.MP4-WRB
2022-11-29 06:56:27 XXX TeenFidelity.E547.Victoria.Nyx.XXX.1080p.MP4-WRB
2022-11-29 06:57:50 BLURAY Two.Undercover.Angels.1969.Kiss.Me.Monster.1969.COMPLETE.BLURAY-FULLBRUTALiTY
2022-11-29 07:00:27 TV-HD Ex.On.The.Beach.Norge.S06E16.NORWEGiAN.720p.WEB.h264-LUSEKOFTA
2022-11-29 07:01:08 TV-SD Abrakadabra.titokzatos.buveszettortenet.S01E05.CZECH.HDTV.x264-iCZi
2022-11-29 07:01:10 TV-SD Abrakadabra.titokzatos.buveszettortenet.S01E06.CZECH.HDTV.x264-iCZi
2022-11-29 07:01:13 TV-SD Comedy.Club.S07E13.CZECH.HDTV.x264-iCZi
2022-11-29 07:01:15 TV-SD Superman.and.Lois.S02E08.Into.Oblivion.CZECH.HDTV.x264-iCZi
2022-11-29 07:01:24 TV-HD Ex.On.The.Beach.Norge.S06E16.NORWEGiAN.1080p.WEB.h264-LUSEKOFTA
2022-11-29 07:01:27 TV-HD Abrakadabra.titokzatos.buveszettortenet.S01E05.CZECH.1080p.HDTV.x265-iCZi
2022-11-29 07:01:29 TV-HD Abrakadabra.titokzatos.buveszettortenet.S01E05.CZECH.720p.HDTV.x264-iCZi
2022-11-29 07:01:31 TV-HD Abrakadabra.titokzatos.buveszettortenet.S01E06.CZECH.1080p.HDTV.x265-iCZi
2022-11-29 07:01:32 TV-HD Abrakadabra.titokzatos.buveszettortenet.S01E06.CZECH.720p.HDTV.x264-iCZi
2022-11-29 07:01:35 TV-HD Comedy.Club.S07E13.CZECH.1080p.HDTV.x265-iCZi
2022-11-29 07:01:36 TV-HD Comedy.Club.S07E13.CZECH.720p.HDTV.x264-iCZi
2022-11-29 07:01:39 TV-HD Superman.and.Lois.S02E08.Into.Oblivion.CZECH.1080p.HDTV.x265-iCZi
2022-11-29 07:01:41 TV-HD Superman.and.Lois.S02E08.Into.Oblivion.CZECH.720p.HDTV.x264-iCZi
2022-11-29 07:01:44 TV-HD Below.Deck.S10E02.720p.WEB.H264-RAGEQUIT
2022-11-29 07:01:44 TV-HD Below.Deck.S10E02.1080p.WEB.H264-RAGEQUIT
2022-11-29 07:01:56 X264 Planes.Trains.and.Automobiles.1987.iNTERNAL.CZECH.DUAL.2160p.UHD.BluRay.h265-iCZi
2022-11-29 07:01:59 X264 Planes.Trains.and.Automobiles.1987.iNTERNAL.CZECH.DUAL.2160p.UHD.BluRay.x265-iCZi
2022-11-29 07:02:01 X264 Planes.Trains.and.Automobiles.1987.iNTERNAL.SLOVAK.DUAL.2160p.UHD.BluRay.h265-iCZi
2022-11-29 07:02:04 X264 Planes.Trains.and.Automobiles.1987.iNTERNAL.SLOVAK.DUAL.2160p.UHD.BluRay.x265-iCZi
2022-11-29 07:02:14 XXX MomsTeachSex.22.11.29.Leana.Lovings.And.Odetta.Fox.Stepmom.Goes.Alpha.XXX.1080p.MP4-WRB
2022-11-29 07:02:26 TV-HD Martine.S01E04.NORWEGiAN.720p.WEB.h264-LUSEKOFTA
2022-11-29 07:02:58 TV-HD Martine.S01E04.NORWEGiAN.1080p.WEB.h264-LUSEKOFTA
2022-11-29 07:13:16 XXX ATKHairy.22.11.29.Wookie.Princess.XXX.1080p.MP4-WRB
2022-11-29 07:14:40 XXX Nubiles.22.11.29.Alexa.Mills.Wet.Brunette.XXX.1080p.MP4-WRB
2022-11-29 07:14:50 TV-HD Kanadas.bewegte.Geschichte.E04.Natur.und.Koexistenz.GERMAN.DOKU.1080p.HDTV.x264-SKYSD
2022-11-29 07:15:01 BLURAY Ticket.ins.Paradies.2022.German.DL.1080p.BluRay.AVC-UNTAVC
2022-11-29 07:15:28 TV-HD Kanadas.bewegte.Geschichte.E04.Natur.und.Koexistenz.GERMAN.DOKU.720p.HDTV.x264-SKYSD
2022-11-29 07:16:02 TV-SD Quantum.Leap.S05E20.iNTERNAL.BDRip.x264-PEGASUS
2022-11-29 07:16:10 TV-SD Kanadas.bewegte.Geschichte.E04.Natur.und.Koexistenz.GERMAN.DOKU.HDTVRip.x264-SKYSD
2022-11-29 07:16:11 XXX Nubiles.22.11.29.Milka.Vi.Too.Hot.XXX.1080p.MP4-WRB
2022-11-29 07:17:17 TV-HD Quantum.Leap.S05E20.iNTERNAL.720p.BluRay.x264-PEGASUS
2022-11-29 07:17:37 XXX Nubiles.22.11.29.Minnie.Myles.Cute.Stripes.XXX.1080p.MP4-WRB
2022-11-29 07:18:02 TV-HD Quantum.Leap.S05E20.iNTERNAL.1080p.BluRay.x264-PEGASUS
2022-11-29 07:18:55 XXX POVCentralVR.22.11.12.Megan.Venturi.Nurse.XXX.VR180.4096p.MP4-GUSH
2022-11-29 07:19:29 XXX Anilos.22.11.29.Boniy.Working.It.XXX.1080p.MP4-WRB
2022-11-29 07:21:35 FLAC Tedeschi_Trucks_Band-I_Am_The_Moon_I._Crescent-24-192-WEB-FLAC-2022-OBZEN
2022-11-29 07:22:06 FLAC Tedeschi_Trucks_Band-I_Am_The_Moon_II._Ascension-24-192-WEB-FLAC-2022-OBZEN
2022-11-29 07:22:37 FLAC Tedeschi_Trucks_Band-I_Am_The_Moon_III._The_Fall-24-192-WEB-FLAC-2022-OBZEN
2022-11-29 07:23:08 FLAC Tedeschi_Trucks_Band-I_Am_The_Moon_IV._Farewell-24-192-WEB-FLAC-2022-OBZEN
2022-11-29 07:26:37 X264 Kiss.Me.Monster.1969.1080P.BLURAY.H264-UNDERTAKERS
2022-11-29 07:26:44 X264 Two.Undercover.Angels.1969.1080P.BLURAY.H264-UNDERTAKERS
2022-11-29 07:27:50 BLURAY Kuess.Mich.Monster.1969.GERMAN.1080P.BLURAY.AVC-UNDERTAKERS
2022-11-29 07:28:31 BLURAY Rote.Lippen.Sadisterotica.1969.GERMAN.1080P.BLURAY.AVC-UNDERTAKERS
2022-11-29 07:33:37 BLURAY The.Climbers.2019.DUAL.COMPLETE.BLURAY-WDC
2022-11-29 07:34:37 XXX Nubiles.22.11.29.Alexa.Mills.Wet.Brunette.XXX.2160p.MP4-WRB
2022-11-29 07:34:55 BLURAY The.Climbers.2019.German.DL.1080p.BluRay.AVC-WDC
2022-11-29 07:35:28 TV-HD Das.Universum.Eine.Reise.durch.Raum.und.Zeit.S10E01.Das.kosmische.Netz.GERMAN.DL.DOKU.1080p.HDTV.x264-EUROPIPE
2022-11-29 07:36:45 TV-HD Das.Universum.Eine.Reise.durch.Raum.und.Zeit.S10E01.Das.kosmische.Netz.GERMAN.DL.DOKU.720p.HDTV.x264-EUROPIPE
2022-11-29 07:37:52 XXX Nubiles.22.11.29.Milka.Vi.Too.Hot.XXX.2160p.MP4-WRB
2022-11-29 07:38:01 TV-SD Das.Universum.Eine.Reise.durch.Raum.und.Zeit.S10E01.Das.kosmische.Netz.GERMAN.DOKU.HDTVRiP.x264-EUROPIPE
2022-11-29 07:40:31 XXX Nubiles.22.11.29.Minnie.Myles.Cute.Stripes.XXX.2160p.MP4-WRB
2022-11-29 07:44:05 XXX Anilos.22.11.29.Boniy.Working.It.XXX.2160p.MP4-WRB
2022-11-29 07:47:14 XXX MomsTeachSex.22.11.29.Leana.Lovings.And.Odetta.Fox.Stepmom.Goes.Alpha.XXX.2160p.MP4-WRB
2022-11-29 07:49:39 X264 The.Challenge.AU.S01E05E06.1080p.HDTV.H264-CBFM
2022-11-29 07:51:05 TV-HD Sharp.Objects.2018.S01E05.POLISH.720p.WEB.H264-A4O
2022-11-29 07:56:33 TV-HD Hudson.and.Rex.S04E07.GERMAN.720P.WEB.X264-WAYNE
2022-11-29 07:57:17 TV-HD Hudson.and.Rex.S04E08.GERMAN.720P.WEB.X264-WAYNE
2022-11-29 08:00:18 TV-HD Crime.Scene.The.Texas.Killing.Fields.S01E01.1080p.WEB.H264-BIGDOC
2022-11-29 08:00:23 TV-HD Crime.Scene.The.Texas.Killing.Fields.S01E03.1080p.WEB.H264-BIGDOC
2022-11-29 08:00:34 TV-HD Romesh.Ranganathan.The.Cynic.2022.1080p.WEB.h264-TRUFFLE
2022-11-29 08:01:48 XXX MetArt.22.11.29.Li.Moon.Naked.View.XXX.1080p.MP4-WRB
2022-11-29 08:02:06 MP3 Jacob_Van_Hage_And_Asino-Amsterdam_Is_On_Fire_(Extended_Mix)-(FLASH261)-SINGLE-WEB-2022-AOV
2022-11-29 08:03:11 XXX MetArtX.22.11.29.Sonya.Blaze.Wet.Pleasure.XXX.1080p.MP4-WRB
2022-11-29 08:04:03 TV-HD Crime.Scene.The.Texas.Killing.Fields.S01E02.1080p.WEB.H264-BIGDOC
2022-11-29 08:06:04 MP3 Contour-Onwards-WEB-2022-ENRiCH
2022-11-29 08:06:20 XXX NaughtyAmerica.22.11.29.Harmony.Rivers.XXX.1080p.MP4-WRB
2022-11-29 08:06:36 MP3 Ulla-Foam-WEB-2022-ENRiCH
2022-11-29 08:07:08 MP3 isomonstrosity-isomonstrosity-WEB-2022-ENRiCH
2022-11-29 08:14:12 XXX MetArt.22.11.29.Li.Moon.Naked.View.XXX.2160p.MP4-WRB
2022-11-29 08:17:42 XXX MetArtX.22.11.29.Sonya.Blaze.Wet.Pleasure.XXX.2160p.MP4-WRB
2022-11-29 08:20:05 IMGSET SexArt.com_22.11.29.Oxana.Chic.Brainiac.XXX.IMAGESET-FuGLi
2022-11-29 08:21:20 XXX NaughtyAmerica.22.11.29.Harmony.Rivers.XXX.2160p.MP4-WRB
2022-11-29 08:23:41 XXX PS-Porn.22.11.10.Selena.Gomez.Gorgeous.Car.Repairman.Selena.Gomez.XXX.VR180.4096p.MP4-GUSH
2022-11-29 08:36:22 TV-HD Indiana.Jones.Jaeger.des.verlorenen.Schatzes.1981.German.DUBBED.DL.DV.2160P.WEB.H265-MRW
2022-11-29 08:39:03 TV-HD Grand.Designs.New.Zealand.S07E07.720p.WEB.H264-ROPATA
2022-11-29 08:41:11 MP3 Young_Hu-Brief_Encounter-(TITL022)-WEB-2022-wAx
2022-11-29 08:41:25 TV-HD Indiana.Jones.und.der.Tempel.des.Todes.1984.German.DUBBED.DL.DV.2160P.WEB.H265-MRW
2022-11-29 08:43:44 TV-HD Stephen.Colbert.2022.11.28.Don.Lemon.1080p.WEB.H264-JEBAITED
2022-11-29 08:43:52 TV-HD Stephen.Colbert.2022.11.28.Don.Lemon.720p.WEB.H264-JEBAITED
2022-11-29 08:48:55 TV-HD Il.Capitano.1991.SWEDiSH.720p.WEB.H264-CLASSiC
2022-11-29 08:48:57 TV-HD Il.Capitano.1991.SWEDiSH.1080p.WEB.H264-CLASSiC
2022-11-29 08:50:25 IMGSET MetArt.com_22.11.29.Jessica.Blank.Infatuation.XXX.IMAGESET-FuGLi
2022-11-29 08:50:41 XXX FuckStudies.22.11.29.Sasha.Xray.XXX.1080p.MP4-WRB
2022-11-29 08:51:15 MP3 Metronomy-Small_World-Special_Edition-WEB-2022-MARR
2022-11-29 08:52:03 IMGSET MetArt.com_22.11.29.Cira.Nerri.Glistening.XXX.IMAGESET-FuGLi
2022-11-29 08:53:44 XXX FuckStudies.22.11.29.Sasha.Xray.XXX.2160p.MP4-WRB
2022-11-29 08:54:43 MP3 Venom-In_Nomine_Satanas__40_Years_In_Sodom-(BMGCAT666CDBOX)-REMASTERED_BOXSET-6CD-2022-FERiCE
2022-11-29 08:55:57 MP3 Modern_Studies-Cassandra-WEB-2022-MARR
2022-11-29 08:56:53 IMGSET MetArt.com_22.11.29.Julia.Rain.Satin.Touch.XXX.IMAGESET-FuGLi
2022-11-29 08:57:26 MP3 Armored_Saint-Delirious_Nomad-(3984-15822-2)-REMASTERED-CD-2022-FERiCE
2022-11-29 08:57:58 MP3 Blind_Illusion-Wrath_Of_The_Gods-(HHR_2022-48)-CD-2022-FERiCE
2022-11-29 08:58:29 MP3 Blood_God__Debauchery-Demons_Of_Rocknroll-(MAS_DP1262)-LIMITED_EDITION-2CD-2022-FERiCE
2022-11-29 08:59:00 MP3 Bolverk-Uaar-(WHD344)-CD-2022-FERiCE
2022-11-29 08:59:31 MP3 Killer_Kings-Burn_For_Love-(FR_CD_1258)-CD-2022-FERiCE
2022-11-29 09:00:02 MP3 Lita_Ford-Live_and_Deadly-(CLO2632)-REMASTERED-CD-2022-FERiCE
2022-11-29 09:00:33 MP3 Michael_Schenker-Rock_Shock-(MB_61556)-CD-2022-FERiCE
2022-11-29 09:00:44 TV-HD The.Boulet.Brothers.Dragula.Titans.S01E06.720p.WEB.h264-KOGi
2022-11-29 09:01:04 MP3 Nightrage-Abyss_Rising-(DZCD101)-CD-2022-FERiCE
2022-11-29 09:01:07 TV-HD The.Boulet.Brothers.Dragula.Titans.S01E06.1080p.WEB.h264-KOGi
2022-11-29 09:01:35 MP3 Philosophobia-Philosophobia-(SR3090)-CD-2022-FERiCE
2022-11-29 09:02:04 X264 Two.Undercover.Angels.1969.ALTERNATIVE.CUT.BDRIP.X264-WATCHABLE
2022-11-29 09:02:06 MP3 Pure_Wrath-Hymn_To_The_Woeful_Hearts-(DMP0214)-CD-2022-FERiCE
2022-11-29 09:02:37 MP3 Sole_Syndicate-Into_The_Flames-(SC_412-0)-CD-2022-FERiCE
2022-11-29 09:02:55 X264 Kiss.Me.Monster.1969.ALTERNATIVE.CUT.BDRIP.X264-WATCHABLE
2022-11-29 09:03:08 MP3 Spiral_Wounds-Shadows-(GOUDJ118)-CD-2022-FERiCE
2022-11-29 09:03:39 MP3 Stormruler-Sacred_Rites_and_Black_Magick-(NPR1162DP)-CD-2022-FERiCE
2022-11-29 09:04:09 TV-HD Behind.the.Music.S16E09.1080p.WEB.h264-KOGi
2022-11-29 09:04:10 MP3 Tankard-Pavlovs_Dawgz-(REAPER040)-CD-2022-FERiCE
2022-11-29 09:04:29 XXX BrickYates.22.11.22.Elodie.Lee.XXX.1080p.MP4-FETiSH
2022-11-29 09:04:41 MP3 Vanir-Sagas-(PMZ365CD)-CD-2022-FERiCE
2022-11-29 09:04:47 TV-HD Behind.the.Music.S16E09.720p.WEB.h264-KOGi
2022-11-29 09:05:13 MP3 Veonity-Elements_Of_Power-(SC_406-2)-CD-2022-FERiCE
2022-11-29 09:05:25 TV-HD Sharp.Objects.2018.S01E05.POLISH.1080p.WEB.H264-A4O
2022-11-29 09:05:30 TV-HD Behind.the.Music.S16E10.1080p.WEB.h264-KOGi
2022-11-29 09:05:43 MP3 Virtual_Symmetry-Virtual_Symmetry-(SR3091)-CD-2022-FERiCE
2022-11-29 09:06:09 TV-HD Behind.the.Music.S16E10.720p.WEB.h264-KOGi
2022-11-29 09:06:46 MP3 KARA-MOVE_AGAIN-WEB-KR-2022-HUNNiT
2022-11-29 09:06:50 TV-HD Behind.the.Music.S16E11.1080p.WEB.h264-KOGi
2022-11-29 09:07:01 IMGSET Nubiles.net_22.11.29.Maria.Kazi.Suns.Out.Buns.Out.XXX.IMAGESET-FuGLi
2022-11-29 09:07:28 TV-HD Behind.the.Music.S16E11.720p.WEB.h264-KOGi
2022-11-29 09:08:09 TV-HD Behind.the.Music.S16E12.1080p.WEB.h264-KOGi
2022-11-29 09:08:47 TV-HD Behind.the.Music.S16E12.720p.WEB.h264-KOGi
2022-11-29 09:09:21 XXX BrokenLatinaWhores.22.10.29.Elizabeth.XXX.1080p.MP4-FETiSH
2022-11-29 09:09:28 IMGSET Nubiles.net_22.11.29.Keely.Rose.Alabaster.Angel.XXX.IMAGESET-FuGLi
2022-11-29 09:09:30 TV-HD Behind.the.Music.S16E13.1080p.WEB.h264-KOGi
2022-11-29 09:10:08 TV-HD Behind.the.Music.S16E13.720p.WEB.h264-KOGi
2022-11-29 09:10:51 TV-HD Behind.the.Music.S16E14.1080p.WEB.h264-KOGi
2022-11-29 09:11:28 TV-HD Behind.the.Music.S16E14.720p.WEB.h264-KOGi
2022-11-29 09:12:10 TV-HD Behind.the.Music.S16E15.1080p.WEB.h264-KOGi
2022-11-29 09:12:44 IMGSET Nubiles.net_22.11.29.Nika.Murr.Full.Lips.XXX.IMAGESET-FuGLi
2022-11-29 09:12:51 TV-HD Behind.the.Music.S16E15.720p.WEB.h264-KOGi
2022-11-29 09:13:35 TV-HD Behind.the.Music.S16E16.1080p.WEB.h264-KOGi
2022-11-29 09:14:13 TV-HD Behind.the.Music.S16E16.720p.WEB.h264-KOGi
2022-11-29 09:14:26 XXX BrokenLatinaWhores.22.11.05.Sarina.XXX.1080p.MP4-FETiSH
2022-11-29 09:14:56 TV-HD Behind.the.Music.S16E17.1080p.WEB.h264-KOGi
2022-11-29 09:15:34 TV-HD Behind.the.Music.S16E17.720p.WEB.h264-KOGi
2022-11-29 09:17:21 TV-HD Behind.the.Music.S16E18.1080p.WEB.h264-KOGi
2022-11-29 09:17:35 XXX DickDrainers.22.11.25.Callie.Black.XXX.720p.MP4-FETiSH
2022-11-29 09:17:59 TV-HD Behind.the.Music.S16E18.720p.WEB.h264-KOGi
2022-11-29 09:18:42 TV-HD Behind.the.Music.S16E19.1080p.WEB.h264-KOGi
2022-11-29 09:18:53 X264 The.Red.Lips.Diaries.2022.BDRIP.X264-WATCHABLE
2022-11-29 09:19:20 TV-HD Behind.the.Music.S16E19.720p.WEB.h264-KOGi
2022-11-29 09:19:53 XXX EvolvedFightsLez.22.11.23.Daisy.Ducati.Vs.Jupiter.Jetson.Orgasm.Challenge.XXX.1080p.MP4-FETiSH
2022-11-29 09:20:06 TV-HD Behind.the.Music.S16E20.1080p.WEB.h264-KOGi
2022-11-29 09:20:45 TV-HD Behind.the.Music.S16E20.720p.WEB.h264-KOGi
2022-11-29 09:21:28 TV-HD Behind.the.Music.S16E21.1080p.WEB.h264-KOGi
2022-11-29 09:22:06 TV-HD Behind.the.Music.S16E21.720p.WEB.h264-KOGi
2022-11-29 09:22:48 TV-HD Behind.the.Music.S16E22.1080p.WEB.h264-KOGi
2022-11-29 09:22:49 XXX EvolvedFights.22.11.25.Kaiia.Eve.Vs.Link.Ryan.XXX.1080p.MP4-FETiSH
2022-11-29 09:23:26 TV-HD Behind.the.Music.S16E22.720p.WEB.h264-KOGi
2022-11-29 09:24:07 TV-HD Behind.the.Music.S16E23.1080p.WEB.h264-KOGi
2022-11-29 09:24:14 BLURAY Two.Undercover.Angels.1969.Kiss.Me.Monster.1969.BONUS.COMPLETE.BLURAY-FULLBRUTALiTY
2022-11-29 09:24:44 TV-HD Behind.the.Music.S16E23.720p.WEB.h264-KOGi
2022-11-29 09:25:23 MP3 I_Micronauti-Daitarn_III-(TRS_1005)-VINYL-1979-B2A_INT
2022-11-29 09:25:29 TV-HD Behind.the.Music.S16E24.1080p.WEB.h264-KOGi
2022-11-29 09:25:35 XXX RealHotVR.22.11.14.Penelope.Woods.Finally.Fucked.My.Latina.Stepsister.XXX.VR180.2880p.MP4-GUSH
2022-11-29 09:26:08 TV-HD Behind.the.Music.S16E24.720p.WEB.h264-KOGi
2022-11-29 09:27:01 TV-HD Behind.the.Music.S16E26.1080p.WEB.h264-KOGi
2022-11-29 09:27:29 XXX FacialAbuse.E885.Teacher.Gets.A.Breeding.Lesson.XXX.1080p.MP4-FETiSH
2022-11-29 09:27:38 TV-HD Behind.the.Music.S16E26.720p.WEB.h264-KOGi
2022-11-29 09:28:25 TV-HD Behind.the.Music.S16E27.1080p.WEB.h264-KOGi
2022-11-29 09:28:32 TV-HD Indiana.Jones.und.der.letzte.Kreuzzug.1989.German.DUBBED.DL.DV.2160P.WEB.H265-MRW
2022-11-29 09:29:02 TV-HD Behind.the.Music.S16E27.720p.WEB.h264-KOGi
2022-11-29 09:29:15 XXX HotGuysFuck.22.11.21.Allen.Cole.And.Brianna.Moore.XXX.1080p.MP4-FETiSH
2022-11-29 09:29:18 X264 The.Red.Lips.Diaries.2022.720P.BLURAY.X264-WATCHABLE
2022-11-29 09:29:48 TV-HD Behind.the.Music.S16E28.1080p.WEB.h264-KOGi
2022-11-29 09:30:26 TV-HD Behind.the.Music.S16E28.720p.WEB.h264-KOGi
2022-11-29 09:30:48 XXX HotGuysFuck.22.11.23.Break.The.Rules.And.Fail.XXX.1080p.MP4-FETiSH
2022-11-29 09:31:13 TV-HD Behind.the.Music.S16E29.1080p.WEB.h264-KOGi
2022-11-29 09:31:52 TV-HD Behind.the.Music.S16E29.720p.WEB.h264-KOGi
2022-11-29 09:32:22 XXX HotGuysFuck.22.11.25.JJ.Smith.And.Violet.Gains.XXX.1080p.MP4-FETiSH
2022-11-29 09:32:55 X264 The.Red.Lips.Diaries.2022.1080P.BLURAY.X264-WATCHABLE
2022-11-29 09:34:37 XXX HuCows.22.11.19.Lina.Roselina.Tiny.Hucow.Big.Bell.XXX.1080p.MP4-FETiSH
2022-11-29 09:35:19 GAMES Soccer_Story-Razor1911
2022-11-29 09:36:08 XXX HuCows.22.11.26.Alice.Maze.Compact.Cow.Milker.XXX.1080p.MP4-FETiSH
2022-11-29 09:36:22 X264 The.Red.Lips.Diaries.2022.1080P.BLURAY.H264-UNDERTAKERS
2022-11-29 09:40:32 XXX SeeHimFuck.22.11.25.Cee.Jayy.And.Chloe.Temple.XXX.1080p.MP4-FETiSH
2022-11-29 09:42:11 XXX TransAngels.22.11.23.Mckenzie.Lee.And.Izzy.Wilde.Horny.Camper.Girls.XXX.1080p.MP4-FETiSH
2022-11-29 09:43:57 XXX TransAngels.22.11.25.Emma.Rose.And.Alexa.Flexy.Pride.And.Orifice.Part.1.XXX.1080p.MP4-FETiSH
2022-11-29 09:44:01 TV-HD NBA.2022.11.28.Atlanta.Hawks.Vs.Philadelphia.76ers.720p.WEB.h264-SPORTSNET
2022-11-29 09:45:45 XXX TransAngels.22.11.28.Emma.Rose.And.Alexa.Flexy.Pride.And.Orifice.Part.2.XXX.1080p.MP4-FETiSH
2022-11-29 09:48:46 TV-HD Indiana.Jones.und.das.Koenigreich.des.Kristallschaedels.2008.German.DUBBED.DL.DV.2160P.WEB.H265-MRW
2022-11-29 09:49:03 XXX PutaLocura.22.11.29.Kia.SPANISH.XXX.720p.MP4-WRB
2022-11-29 09:49:22 TV-HD Sharp.Objects.2018.S01E06.POLISH.720p.WEB.H264-A4O
2022-11-29 09:51:32 TV-HD NBA.2022.11.28.Atlanta.Hawks.Vs.Philadelphia.76ers.1080p.WEB.h264-SPORTSNET
2022-11-29 09:57:28 X264 Vanishing.The.Killing.Room.2021.German.720p.BluRay.x264-LizardSquad
2022-11-29 09:58:20 BLURAY Vanishing.2021.MULTi.COMPLETE.BLURAY-MONUMENT
2022-11-29 09:58:31 BLURAY Vanishing.The.Killing.Room.2021.German.DL.1080p.BluRay.AVC-UNTAVC
2022-11-29 09:59:18 X264 Vanishing.The.Killing.Room.2021.German.BDRip.x264-LizardSquad
2022-11-29 09:59:24 X264 Vanishing.The.Killing.Room.2021.German.DL.1080p.BluRay.x264-LizardSquad
2022-11-29 09:59:53 TV-HD Alle.Elsker.David.S03E07.NORWEGiAN.720p.HDTV.x264-SKRiTT
2022-11-29 10:00:13 TV-HD The.Good.Doctor.S06E07.1080p.WEB.H264-PLZPROPER
2022-11-29 10:00:16 NSW Finding_Paradise_Update_v1.0.5_NSW-VENOM
2022-11-29 10:00:47 NSW Lunistice_Update_v1.03_NSW-VENOM
2022-11-29 10:01:10 TV-HD The.Good.Doctor.S06E07.720p.WEB.H264-PLZPROPER
2022-11-29 10:05:29 TV-HD Jimmy.Kimmel.2022.11.28.Kathryn.Hahn.720p.WEB.H264-JEBAITED
2022-11-29 10:07:09 TV-HD NBA.2022.11.28.Minnesota.Timberwolves.Vs.Washington.Wizards.720p.WEB.h264-SPORTSNET
2022-11-29 10:12:31 TV-HD The.Voice.S22E20.720p.WEB.h264-KOGi
2022-11-29 10:12:33 TV-HD The.Voice.S22E20.1080p.WEB.h264-KOGi
2022-11-29 10:12:54 NSW Gerda_A_Flame_in_Winter-a4a45_Update_v1.3.8-c8dd7_NSW-SUXXORS
2022-11-29 10:13:26 EBOOK Baumeister.-.Das.Architektur-Magazin.No.12.2022.GERMAN.HYBRID.MAGAZINE.eBook-LORENZ
2022-11-29 10:13:45 EBOOK epd.Film.No.12.2022.GERMAN.HYBRID.MAGAZINE.eBook-LORENZ
2022-11-29 10:14:02 EBOOK fotoMAGAZIN.No.13.2022.GERMAN.HYBRID.MAGAZINE.eBook-LORENZ
2022-11-29 10:14:05 NSW Golf_With_Your_Friends_Update_v1.0.7_NSW-SUXXORS
2022-11-29 10:15:15 NSW Guardian_Tales_Update_v2.52.0_INTERNAL_NSW-SUXXORS
2022-11-29 10:16:26 NSW Nintendo_Switch_Sports_Update_v1.3.0_NSW-SUXXORS
2022-11-29 10:17:28 TV-HD NBA.2022.11.28.Minnesota.Timberwolves.Vs.Washington.Wizards.1080p.WEB.h264-SPORTSNET
2022-11-29 10:17:36 NSW Pokemon_Cafe_Mix_Update_v3.60.0_INTERNAL_NSW-SUXXORS
2022-11-29 10:18:52 NSW Time_on_Frog_Island_Update_v1.0.5_NSW-SUXXORS
2022-11-29 10:26:19 EBOOK Disney.Duck.Tales.No.04.2022.HYBRiD.COMiC.eBook-LiBRiCiDE
2022-11-29 10:26:36 EBOOK GQ.N165.2022.FRENCH.HYBRiD.MAGAZiNE.eBook-LiBRiCiDE
2022-11-29 10:28:11 TV-HD 24.Hours.in.Police.Custody.S14E01.Two.Wrongs.1080p.HDTV.H264-DARKFLiX
2022-11-29 10:29:00 TV-HD Casualty.24.7.Every.Second.Counts.S06E15.1080p.HDTV.H264-DARKFLiX
2022-11-29 10:29:47 X264 FA.Cup.2022.11.28.3rd.Round.Draw.1080p.HDTV.H264-DARKSPORT
2022-11-29 10:30:34 X264 FIFA.World.Cup.2022.Group.G.Brazil.Vs.Switzerland.1080p.HDTV.H264-DARKSPORT
2022-11-29 10:31:22 X264 FIFA.World.Cup.2022.Group.H.Portugal.Vs.Uruguay.1080p.HDTV.H264-DARKSPORT
2022-11-29 10:32:03 EBOOK GQ.N165.2022.FRENCH.HYBRiD.MAGAZiNE.iNTERNAL.eBook-TONER
2022-11-29 10:32:23 EBOOK L.Equipe.29.Novembre.2022.FRENCH.HYBRiD.eBook-TONER
2022-11-29 10:32:33 TV-HD MasterChef.The.Professionals.S15E13.1080p.HDTV.H264-DARKFLiX
2022-11-29 10:32:43 EBOOK Le.Figaro.29.Novembre.2022.FRENCH.HYBRiD.eBook-TONER
2022-11-29 10:33:03 EBOOK Le.Monde.29.Novembre.2022.FRENCH.HYBRiD.eBook-TONER
2022-11-29 10:33:24 EBOOK Le.Parisien.29.Novembre.2022.FRENCH.HYBRiD.eBook-TONER
2022-11-29 10:33:39 TV-HD Motorway.Cops.Catching.Britains.Speeders.S03E10.1080p.HDTV.H264-DARKFLiX
2022-11-29 10:33:44 EBOOK Les.Echos.29.Novembre.2022.FRENCH.HYBRiD.eBook-TONER
2022-11-29 10:34:04 EBOOK Liberation.29.Novembre.2022.FRENCH.HYBRiD.eBook-TONER
2022-11-29 10:34:24 EBOOK Marmiton.N60.2021.FRENCH.HYBRiD.MAGAZiNE.eBook-TONER
2022-11-29 10:34:30 TV-HD Secrets.of.the.Middle.Aisle.S01E01.1080p.HDTV.H264-DARKFLiX
2022-11-29 10:34:44 EBOOK Marmiton.N61.2021.FRENCH.HYBRiD.MAGAZiNE.eBook-TONER
2022-11-29 10:35:04 EBOOK Marmiton.N62.2021.FRENCH.HYBRiD.MAGAZiNE.eBook-TONER
2022-11-29 10:35:21 TV-HD Trailblazers.A.Rocky.Mountain.Road.Trip.S01E01.1080p.HDTV.H264-DARKFLiX
2022-11-29 10:35:24 EBOOK Marmiton.N63.2022.FRENCH.HYBRiD.MAGAZiNE.eBook-TONER
2022-11-29 10:35:44 EBOOK Marmiton.N64.2022.FRENCH.HYBRiD.MAGAZiNE.eBook-TONER
2022-11-29 10:36:04 EBOOK Marmiton.N65.2022.FRENCH.HYBRiD.MAGAZiNE.eBook-TONER
2022-11-29 10:36:24 EBOOK Marmiton.N66.2022.FRENCH.HYBRiD.MAGAZiNE.eBook-TONER
2022-11-29 10:36:44 EBOOK Marmiton.N67.2022.FRENCH.HYBRiD.MAGAZiNE.eBook-TONER
2022-11-29 10:37:04 EBOOK Marmiton.N68.2022.FRENCH.HYBRiD.MAGAZiNE.eBook-TONER
2022-11-29 10:39:06 EBOOK ELLE.a.table.N136.2021.FRENCH.HYBRiD.MAGAZiNE.eBook-TONER
2022-11-29 10:39:26 EBOOK ELLE.a.table.N137.2021.FRENCH.HYBRiD.MAGAZiNE.eBook-TONER
2022-11-29 10:39:46 EBOOK ELLE.a.table.N138.2021.FRENCH.HYBRiD.MAGAZiNE.eBook-TONER
2022-11-29 10:40:06 EBOOK ELLE.a.table.N139.2021.FRENCH.HYBRiD.MAGAZiNE.eBook-TONER
2022-11-29 10:40:26 EBOOK ELLE.a.table.N140.2022.FRENCH.HYBRiD.MAGAZiNE.eBook-TONER
2022-11-29 10:40:47 EBOOK ELLE.a.table.N141.2022.FRENCH.HYBRiD.MAGAZiNE.eBook-TONER
2022-11-29 10:41:07 EBOOK ELLE.a.table.N142.2022.FRENCH.HYBRiD.MAGAZiNE.eBook-TONER
2022-11-29 10:41:27 EBOOK ELLE.a.table.N143.2022.FRENCH.HYBRiD.MAGAZiNE.eBook-TONER
2022-11-29 10:41:47 EBOOK ELLE.a.table.N144.2022.FRENCH.HYBRiD.MAGAZiNE.eBook-TONER
2022-11-29 10:45:28 TV-HD Sharp.Objects.2018.S01E06.POLISH.1080p.WEB.H264-A4O
2022-11-29 10:52:22 TV-HD NBA.2022.11.28.Orlando.Magic.Vs.Brooklyn.Nets.720p.WEB.h264-SPORTSNET
2022-11-29 10:59:10 X264 La.Scuola.In.TV.Spagnolo.La.Salud.Es.Lo.Primero.La.Salute.E.La.Prima.Cosa.iTALiAN.720p.HDTV.x264-iDiB
2022-11-29 10:59:10 X264 La.Scuola.In.TV.Spagnolo.El.Amor.Ayer.Y.Ahora.L.Amore.Ieri.E.Oggi.iTALiAN.720p.HDTV.x264-iDiB
2022-11-29 10:59:11 X264 La.Scuola.In.TV.Spagnolo.Usemos.Bien.Las.Redes.Sociales.I.Social.Network.E.Il.Loro.Uso.Corretto.iTALiAN.720p.HDTV.x264-iDiB
2022-11-29 10:59:11 X264 La.Scuola.In.TV.Spagnolo.Salimos.O.Nos.Quedamos.En.Casa.El.Tiempo.Libre.Usciamo.O.Restiamo.A.Casa.Il.Tempo.Libero.iTALiAN.720p.HDTV.x264-iDiB
2022-11-29 10:59:11 X264 La.Scuola.In.TV.Spagnolo.Mujeres.En.El.Arte.Y.En.La.Sociedad.La.Donna.Nell.Arte.E.Nella.Societa.iTALiAN.720p.HDTV.x264-iDiB
2022-11-29 11:00:21 TV-HD All.American.Homecoming.S02E07.1080p.WEB.H264-CAKES
2022-11-29 11:00:52 MP3 Saporta-To_Beyond-(PLTL162)-WEB-2022-AFO
2022-11-29 11:01:07 MP3 Shahin_Shantiaei-Higher_Than_Love__Abandoned_In_The_Rain-(ENCOLOR391)-WEB-2022-AFO
2022-11-29 11:01:22 MP3 Emanuil_Hristov-Brand_New_Day__Black_Hole-(SVR036)-WEB-2022-AFO
2022-11-29 11:02:29 MP3 F4T4L3RR0R-Respawn_(Remixes)-(ASR442)-WEB-2022-AFO
2022-11-29 11:03:13 MP3 Husa_and_Zeyada-Long_Way_Home-(IAMHERX076)-WEB-2022-AFO
2022-11-29 11:03:30 MP3 Shane_54_and_London_Thor-Kingdom_(Remixes)-(ENPROG485R)-WEB-2022-AFO
2022-11-29 11:03:44 MP3 Arthaum-Gammalog-(BTLCK070)-WEB-2022-AFO
2022-11-29 11:04:21 MP3 InFusco-We_Need_Acid-(VR108)-WEB-2022-AFO
2022-11-29 11:05:04 MP3 Mauro_Masi_and_Nicolas_Soria-Is_the_Truth-(DRM056)-WEB-2022-AFO
2022-11-29 11:05:32 MP3 Lax_and_Lokesh-Let_Hearts_Open-(HER080)-WEB-2022-AFO
2022-11-29 11:06:13 MP3 VA-Submission_Recordings_November_2022_Releases-(SUBMISSION349)-WEB-2022-AFO
2022-11-29 11:07:42 EBOOK KEYS.No.12.2022.GERMAN.HYBRID.MAGAZINE.eBook-LORENZ
2022-11-29 11:07:58 EBOOK MacGamer.No.04.2022.GERMAN.HYBRID.MAGAZINE.eBook-LORENZ
2022-11-29 11:08:15 EBOOK YOGA.Das.Magazin.No.02.2022.GERMAN.HYBRID.MAGAZINE.eBook-LORENZ
2022-11-29 11:08:28 TV-HD NBA.2022.11.28.Orlando.Magic.Vs.Brooklyn.Nets.1080p.WEB.h264-SPORTSNET
2022-11-29 11:13:36 MP3 Defying_Plague-Leviathan_of_Rot-WEB-2022-BLEEDiNG
2022-11-29 11:14:07 MP3 Among_Them_in_Trenches-Drifter_in_the_Woods-EP-WEB-2022-BLEEDiNG
2022-11-29 11:14:48 MP3 Fvrfvr-The_Tower_of_Doom-WEB-2022-BLEEDiNG
2022-11-29 11:14:49 XXX BlacksOnBlondes.22.11.29.Hazel.Moore.XXX.1080p.MP4-WRB
2022-11-29 11:15:27 MP3 Manipulated_Slaves-The_Bloody_Cross-EP-WEB-2022-BLEEDiNG
2022-11-29 11:16:04 MP3 Mnima-Disciples_of_Excremental_Liturgies-WEB-2022-BLEEDiNG
2022-11-29 11:17:00 MP3 Price_of_Apathy-Thousands_Die-WEB-2022-BLEEDiNG
2022-11-29 11:17:27 MP3 The_Frozen_Heads-Five_Minutes-EP-WEB-2022-BLEEDiNG
2022-11-29 11:18:32 MP3 VA-Brahma_Purana-(KOSA100)-WEB-2022-AFO
2022-11-29 11:19:04 MP3 No_StraiN-Collision-(MIRM126)-WEB-2022-AFO
2022-11-29 11:20:10 MP3 Echoplays-Mental_Stain-(FIGURA332)-SINGLE-WEB-2022-AFO
2022-11-29 11:26:24 XXX SexBabesVR.22.11.10.Charlie.Nice.Only.The.Lonely.XXX.VR180.2700p.MP4-GUSH
2022-11-29 11:26:40 TV-HD Celebrity.IOU.S05E03.1080p.WEB.h264-REALiTYTV
2022-11-29 11:27:14 TV-HD Holiday.Baking.Championship.Gingerbread.Showdown.S02E04.1080p.WEB.h264-REALiTYTV
2022-11-29 11:27:49 TV-HD Holiday.Baking.Championship.S09E04.1080p.WEB.h264-REALiTYTV
2022-11-29 11:28:22 TV-HD Kids.Baking.Championship.S11E03.1080p.WEB.h264-REALiTYTV
2022-11-29 11:28:56 TV-HD Street.Outlaws.No.Prep.Kings.S05E11.1080p.WEB.h264-REALiTYTV
2022-11-29 11:29:31 TV-HD Street.Outlaws.No.Prep.Kings.The.Great.8.S01E10.1080p.WEB.h264-REALiTYTV
2022-11-29 11:30:05 TV-HD The.Big.Bake.S03E11.1080p.WEB.h264-REALiTYTV
2022-11-29 11:30:39 TV-HD The.Culpo.Sisters.S01E04.1080p.WEB.h264-REALiTYTV
2022-11-29 11:35:22 TV-HD Jimmy.Fallon.2022.11.28.Zoe.Saldana.720p.WEB.H264-GLHF
2022-11-29 11:35:22 TV-HD Jimmy.Fallon.2022.11.28.Zoe.Saldana.1080p.WEB.H264-GLHF
2022-11-29 11:37:17 PS4 Need.for.Speed.Payback.MULTi.PS4-AUGETY
2022-11-29 11:37:29 PS4 Need.for.Speed.Payback.MULTi.Update.v1.10.PS4-AUGETY
2022-11-29 11:38:35 TV-HD NFL.2022.11.27.49ers.Vs.Saints.720p.WEB.h264-SPORTSNET
2022-11-29 11:40:26 MP3 Sun_Progress-Marcell-(SFR052)-WEB-2022-AFO
2022-11-29 11:43:42 TV-HD Sharp.Objects.2018.S01E07.POLISH.720p.WEB.H264-A4O
2022-11-29 11:52:26 TV-HD NFL.2022.11.27.49ers.Vs.Saints.1080p.WEB.h264-SPORTSNET
2022-11-29 11:55:49 MP3 VA-FG_Top_10_November_2022-(FC098)-WEB-2022-AFO
2022-11-29 12:04:29 TV-HD NBA.2022.11.28.Cleveland.Cavaliers.Vs.Toronto.Raptors.720p.WEB.h264-SPORTSNET
2022-11-29 12:06:04 TV-SD Sbagliata.Ascendente.Leone.2022.iTALiAN.WEB.h264-ENCRyPTED
2022-11-29 12:06:05 TV-HD Sbagliata.Ascendente.Leone.2022.iTALiAN.720p.WEB.h264-ENCRyPTED
2022-11-29 12:06:06 TV-HD Sbagliata.Ascendente.Leone.2022.iTALiAN.1080p.WEB.h264-ENCRyPTED
2022-11-29 12:10:10 EBOOK Cosmopolitan.N554.2020.FRENCH.HYBRiD.MAGAZiNE.eBook-LiBRiCiDE
2022-11-29 12:10:31 EBOOK Cosmopolitan.N555.2020.FRENCH.HYBRiD.MAGAZiNE.eBook-LiBRiCiDE
2022-11-29 12:10:53 EBOOK Cosmopolitan.N556.2020.FRENCH.HYBRiD.MAGAZiNE.eBook-LiBRiCiDE
2022-11-29 12:11:15 EBOOK Cosmopolitan.N558.2020.FRENCH.HYBRiD.MAGAZiNE.eBook-LiBRiCiDE
2022-11-29 12:11:37 EBOOK Cosmopolitan.N559.2020.FRENCH.HYBRiD.MAGAZiNE.eBook-LiBRiCiDE
2022-11-29 12:11:41 TV-HD Watch.What.Happens.Live.2022.11.28.720p.WEB.h264-KOGi
2022-11-29 12:11:45 TV-HD Watch.What.Happens.Live.2022.11.28.1080p.WEB.h264-KOGi
2022-11-29 12:11:59 EBOOK Cosmopolitan.N560.2020.FRENCH.HYBRiD.MAGAZiNE.eBook-LiBRiCiDE
2022-11-29 12:12:21 EBOOK Cosmopolitan.N561.2020.FRENCH.HYBRiD.MAGAZiNE.eBook-LiBRiCiDE
2022-11-29 12:12:42 EBOOK Cosmopolitan.N562.2020.FRENCH.HYBRiD.MAGAZiNE.eBook-LiBRiCiDE
2022-11-29 12:13:04 EBOOK Cosmopolitan.N563.2021.FRENCH.HYBRiD.MAGAZiNE.eBook-LiBRiCiDE
2022-11-29 12:13:26 EBOOK Cosmopolitan.N564.2021.FRENCH.HYBRiD.MAGAZiNE.eBook-LiBRiCiDE
2022-11-29 12:13:47 EBOOK Cosmopolitan.N565.2021.FRENCH.HYBRiD.MAGAZiNE.eBook-LiBRiCiDE
2022-11-29 12:14:09 EBOOK Cosmopolitan.N566.2021.FRENCH.HYBRiD.MAGAZiNE.eBook-LiBRiCiDE
2022-11-29 12:14:32 EBOOK Cosmopolitan.N567.2021.FRENCH.HYBRiD.MAGAZiNE.eBook-LiBRiCiDE
2022-11-29 12:14:54 EBOOK Cosmopolitan.N568.2021.FRENCH.HYBRiD.MAGAZiNE.eBook-LiBRiCiDE
2022-11-29 12:15:16 EBOOK Cosmopolitan.N569.2021.FRENCH.HYBRiD.MAGAZiNE.eBook-LiBRiCiDE
2022-11-29 12:15:23 MP3 Behead-Choose_Your_Death-WEB-2022-BLEEDiNG
2022-11-29 12:15:38 EBOOK Cosmopolitan.N570.2021.FRENCH.HYBRiD.MAGAZiNE.eBook-LiBRiCiDE
2022-11-29 12:15:59 EBOOK Cosmopolitan.N571.2021.FRENCH.HYBRiD.MAGAZiNE.eBook-LiBRiCiDE
2022-11-29 12:16:10 MP3 Critical_Fear-A_Real_Danger-WEB-2022-BLEEDiNG
2022-11-29 12:16:20 EBOOK Cosmopolitan.N572.2021.FRENCH.HYBRiD.MAGAZiNE.eBook-LiBRiCiDE
2022-11-29 12:16:42 EBOOK Cosmopolitan.N573.2021.FRENCH.HYBRiD.MAGAZiNE.eBook-LiBRiCiDE
2022-11-29 12:16:42 MP3 Fatal_Punishment-Age_of_Madness-WEB-2022-BLEEDiNG
2022-11-29 12:17:04 EBOOK Cosmopolitan.N574.2022.FRENCH.HYBRiD.MAGAZiNE.eBook-LiBRiCiDE
2022-11-29 12:17:22 MP3 Heat_Affected_Zone-Roulette-WEB-2022-BLEEDiNG
2022-11-29 12:17:26 EBOOK Cosmopolitan.N575.2022.FRENCH.HYBRiD.MAGAZiNE.eBook-LiBRiCiDE
2022-11-29 12:17:47 EBOOK Cosmopolitan.N576.2022.FRENCH.HYBRiD.MAGAZiNE.eBook-LiBRiCiDE
2022-11-29 12:18:09 EBOOK Cosmopolitan.N577.2022.FRENCH.HYBRiD.MAGAZiNE.eBook-LiBRiCiDE
2022-11-29 12:18:13 MP3 Riotor-Recrudescence_of_Darkness-WEB-2022-BLEEDiNG
2022-11-29 12:18:31 EBOOK Cosmopolitan.N578.2022.FRENCH.HYBRiD.MAGAZiNE.eBook-LiBRiCiDE
2022-11-29 12:18:53 EBOOK Cosmopolitan.N579.2022.FRENCH.HYBRiD.MAGAZiNE.eBook-LiBRiCiDE
2022-11-29 12:19:15 EBOOK Cosmopolitan.N580.2022.FRENCH.HYBRiD.MAGAZiNE.eBook-LiBRiCiDE
2022-11-29 12:19:36 EBOOK Cosmopolitan.N581.2022.FRENCH.HYBRiD.MAGAZiNE.eBook-LiBRiCiDE
2022-11-29 12:19:58 EBOOK Cosmopolitan.N582.2022.FRENCH.HYBRiD.MAGAZiNE.eBook-LiBRiCiDE
2022-11-29 12:20:20 EBOOK Cosmopolitan.N583.2022.FRENCH.HYBRiD.MAGAZiNE.eBook-LiBRiCiDE
2022-11-29 12:20:41 EBOOK Cosmopolitan.N584.2022.FRENCH.HYBRiD.MAGAZiNE.eBook-LiBRiCiDE
2022-11-29 12:21:03 EBOOK GQ.N138.2020.FRENCH.HYBRiD.MAGAZiNE.eBook-LiBRiCiDE
2022-11-29 12:21:25 EBOOK GQ.N139.2020.FRENCH.HYBRiD.MAGAZiNE.eBook-LiBRiCiDE
2022-11-29 12:21:47 EBOOK GQ.N140.2020.FRENCH.HYBRiD.MAGAZiNE.eBook-LiBRiCiDE
2022-11-29 12:22:09 EBOOK GQ.N142.2020.FRENCH.HYBRiD.MAGAZiNE.eBook-LiBRiCiDE
2022-11-29 12:22:31 EBOOK GQ.N148.2021.FRENCH.HYBRiD.MAGAZiNE.eBook-LiBRiCiDE
2022-11-29 12:22:53 EBOOK GQ.N149.2021.FRENCH.HYBRiD.MAGAZiNE.eBook-LiBRiCiDE
2022-11-29 12:23:08 TV-HD NBA.2022.11.28.Cleveland.Cavaliers.Vs.Toronto.Raptors.1080p.WEB.h264-SPORTSNET
2022-11-29 12:23:15 EBOOK GQ.N150.2021.FRENCH.HYBRiD.MAGAZiNE.eBook-LiBRiCiDE
2022-11-29 12:23:37 EBOOK GQ.N151.2021.FRENCH.HYBRiD.MAGAZiNE.eBook-LiBRiCiDE
2022-11-29 12:23:58 EBOOK GQ.N152.2021.FRENCH.HYBRiD.MAGAZiNE.eBook-LiBRiCiDE
2022-11-29 12:24:20 EBOOK GQ.N153.2021.FRENCH.HYBRiD.MAGAZiNE.eBook-LiBRiCiDE
2022-11-29 12:24:42 EBOOK GQ.N154.2021.FRENCH.HYBRiD.MAGAZiNE.eBook-LiBRiCiDE
2022-11-29 12:25:06 EBOOK GQ.N155.2021.FRENCH.HYBRiD.MAGAZiNE.eBook-LiBRiCiDE
2022-11-29 12:25:27 EBOOK GQ.N156.2022.FRENCH.HYBRiD.MAGAZiNE.eBook-LiBRiCiDE
2022-11-29 12:31:40 TV-HD NFL.2022.11.27.Eagles.Vs.Packers.720p.WEB.h264-SPORTSNET
2022-11-29 12:33:43 XXX SexBabesVR.22.11.15.Maddy.Black.And.Sereyna.Gomez.Best.Laid.Plans.XXX.VR180.2700p.MP4-GUSH
2022-11-29 12:36:09 MP3 Becca_Sorana-Eyes_Control-(PHM018)-WEB-2022-PTC
2022-11-29 12:36:41 MP3 Benjamin_Torino-Superbia-(RBL469)-WEB-2022-PTC
2022-11-29 12:36:59 MP3 Broder-Skog_EP-(MR010)-WEB-2022-PTC
2022-11-29 12:37:35 MP3 Egryegor-Herbarium-(DM273)-WEB-2022-PTC
2022-11-29 12:37:49 MP3 GarryG-Circumstances-(UMR182)-WEB-2022-PTC
2022-11-29 12:39:02 MP3 UMA_Soundsystem-Coleccionista-(DRSS498)-WEB-2022-PTC
2022-11-29 12:41:12 TV-HD Sharp.Objects.2018.S01E07.POLISH.1080p.WEB.H264-A4O
2022-11-29 12:42:51 TV-HD NFL.2022.11.27.Eagles.Vs.Packers.1080p.WEB.h264-SPORTSNET
2022-11-29 12:44:31 MP3 Divided_Souls--Bodikela_Lounge_(Planet_Radio)-DVBS-11-27-2022-OMA
2022-11-29 12:47:48 MP3 Chaser_and_Malstrom-Space_Quest-(NRPNK026)-WEB-2022-PTC
2022-11-29 12:47:53 EBOOK Velo.Magazine.N596.2021.FRENCH.HYBRiD.MAGAZiNE.eBook-TONER
2022-11-29 12:48:09 MP3 MudLark-Truth_Seeker-(RAW053)-WEB-2022-PTC
2022-11-29 12:48:13 EBOOK Velo.Magazine.N597.2021.FRENCH.HYBRiD.MAGAZiNE.eBook-TONER
2022-11-29 12:48:25 MP3 Shotik_and_Mesos-Lunar-(SFR036)-WEB-2022-PTC
2022-11-29 12:48:33 EBOOK Velo.Magazine.N598.2021.FRENCH.HYBRiD.MAGAZiNE.eBook-TONER
2022-11-29 12:48:53 EBOOK Velo.Magazine.N599.2021.FRENCH.HYBRiD.MAGAZiNE.eBook-TONER
2022-11-29 12:49:13 EBOOK Velo.Magazine.N600.2021.FRENCH.HYBRiD.MAGAZiNE.eBook-TONER
2022-11-29 12:49:33 EBOOK Velo.Magazine.N601.2021.FRENCH.HYBRiD.MAGAZiNE.eBook-TONER
2022-11-29 12:49:53 EBOOK Velo.Magazine.N602.2021.FRENCH.HYBRiD.MAGAZiNE.eBook-TONER
2022-11-29 12:50:14 EBOOK Velo.Magazine.N603.2022.FRENCH.HYBRiD.MAGAZiNE.eBook-TONER
2022-11-29 12:50:34 EBOOK Velo.Magazine.N604.2022.FRENCH.HYBRiD.MAGAZiNE.eBook-TONER
2022-11-29 12:50:54 TV-HD Crime.Scene.The.Texas.Killing.Fields.S01E01.DOC.MULTi.1080p.WEB.x264-BODIE
2022-11-29 12:50:54 EBOOK Velo.Magazine.N605.2022.FRENCH.HYBRiD.MAGAZiNE.eBook-TONER
2022-11-29 12:50:56 TV-HD Crime.Scene.The.Texas.Killing.Fields.S01E02.DOC.MULTi.1080p.WEB.x264-BODIE
2022-11-29 12:50:59 TV-HD Crime.Scene.The.Texas.Killing.Fields.S01E03.FiNAL.DOC.MULTi.1080p.WEB.x264-BODIE
2022-11-29 12:51:11 TV-HD Crime.Scene.The.Texas.Killing.Fields.S01E02.DOC.FRENCH.720p.WEB.x264-BODIE
2022-11-29 12:51:11 TV-HD Crime.Scene.The.Texas.Killing.Fields.S01E01.DOC.FRENCH.720p.WEB.x264-BODIE
2022-11-29 12:51:14 EBOOK Velo.Magazine.N606.2022.FRENCH.HYBRiD.MAGAZiNE.eBook-TONER
2022-11-29 12:51:16 TV-HD Crime.Scene.The.Texas.Killing.Fields.S01E03.FiNAL.DOC.FRENCH.720p.WEB.x264-BODIE
2022-11-29 12:51:23 TV-SD Crime.Scene.The.Texas.Killing.Fields.S01E01.DOC.FRENCH.WEB.x264-BODIE
2022-11-29 12:51:26 TV-SD Crime.Scene.The.Texas.Killing.Fields.S01E02.DOC.FRENCH.WEB.x264-BODIE
2022-11-29 12:51:30 TV-SD Crime.Scene.The.Texas.Killing.Fields.S01E03.FiNAL.DOC.FRENCH.WEB.x264-BODIE
2022-11-29 12:51:34 EBOOK Velo.Magazine.N607.2022.FRENCH.HYBRiD.MAGAZiNE.eBook-TONER
2022-11-29 12:51:47 TV-SD Romesh.Ranganathan.The.Cynic.S01E01.SUBFRENCH.WEB.x264-PREZ
2022-11-29 12:51:55 EBOOK Velo.Magazine.N608.2022.FRENCH.HYBRiD.MAGAZiNE.eBook-TONER
2022-11-29 12:51:56 TV-HD Romesh.Ranganathan.The.Cynic.S01E01.SUBFRENCH.720p.WEB.x264-PREZ
2022-11-29 12:52:01 TV-HD Romesh.Ranganathan.The.Cynic.S01E01.SUBFRENCH.1080p.WEB.x264-PREZ
2022-11-29 12:52:15 EBOOK Velo.Magazine.N609.2022.FRENCH.HYBRiD.MAGAZiNE.eBook-TONER
2022-11-29 12:52:17 TV-SD Romesh.Ranganathan.The.Cynic.S01E02.FiNAL.SUBFRENCH.WEB.x264-PREZ
2022-11-29 12:52:25 TV-HD Romesh.Ranganathan.The.Cynic.S01E02.FiNAL.SUBFRENCH.720p.WEB.x264-PREZ
2022-11-29 12:52:30 TV-HD Romesh.Ranganathan.The.Cynic.S01E02.FiNAL.SUBFRENCH.1080p.WEB.x264-PREZ
2022-11-29 12:52:35 EBOOK Velo.Magazine.N610.2022.FRENCH.HYBRiD.MAGAZiNE.eBook-TONER
2022-11-29 12:52:40 TV-SD Avenue.5.S02E08.FiNAL.INTERNAL.FRENCH.WEB.H264-SILVIODANTE
2022-11-29 12:52:46 TV-HD Avenue.5.S02E08.FiNAL.INTERNAL.FRENCH.720p.WEB.H264-SILVIODANTE
2022-11-29 12:52:55 EBOOK Velo.Magazine.N611.2022.FRENCH.HYBRiD.MAGAZiNE.eBook-TONER
2022-11-29 12:52:56 TV-HD Avenue.5.S02E08.FiNAL.INTERNAL.MULTi.1080p.WEB.H264-SILVIODANTE
2022-11-29 12:53:02 TV-SD Animal.Kingdom.US.S06E03.FRENCH.WEB.H264-PROPJOE
2022-11-29 12:53:07 TV-HD Animal.Kingdom.US.S06E03.FRENCH.720p.WEB.H264-PROPJOE
2022-11-29 12:53:14 TV-HD Animal.Kingdom.US.S06E03.MULTi.1080p.WEB.H264-PROPJOE
2022-11-29 12:53:15 EBOOK Velo.Magazine.N612.2022.FRENCH.HYBRiD.MAGAZiNE.eBook-TONER
2022-11-29 12:55:07 MP3 Carlito-Passenger-(LV111DD)-SINGLE-WEB-2022-PTC
2022-11-29 12:55:53 MP3 DJ_QT-Hound_Dog_EP-(SHOTTA050)-WEB-2022-PTC
2022-11-29 12:56:47 MP3 Portrait-The_Purplest_Cat__Fiyah-(BOEY029)-WEB-2022-PTC
2022-11-29 12:57:09 MP3 St.Iff-Patterns_Emerge_EP-(SEMEP002)-WEB-2022-PTC
2022-11-29 13:00:53 MP3 Rebel_Culture-Scanners_(Jay_Jay_Remix)__Criminal_(Krucial_Remix)-(SSLD148)-WEB-2022-PTC
2022-11-29 13:01:14 MP3 Seb_Wildblood-Floor_Science-(OATH008S2)-SINGLE-WEB-2022-PTC
2022-11-29 13:08:34 TV-HD NBA.2022.11.28.Oklahoma.City.Thunder.Vs.New.Orleans.Pelicans.720p.WEB.h264-SPORTSNET
2022-11-29 13:10:07 X264 Das.Rueckgrat.Des.Teufels.2001.GERMAN.DL.BDRIP.X264-WATCHABLE
2022-11-29 13:10:20 MP3 Luca_La_Rocca-Orbital_Searches_EP-AFK062-WEB-2022-WAV
2022-11-29 13:11:25 TV-SD Circeo.S01E01.SUBFRENCH.WEB.x264-MORELAND
2022-11-29 13:11:32 TV-HD Circeo.S01E01.SUBFRENCH.720p.WEB.x264-MORELAND
2022-11-29 13:11:35 TV-HD Circeo.S01E01.SUBFRENCH.1080p.WEB.x264-MORELAND
2022-11-29 13:12:19 X264 Das.Rueckgrat.Des.Teufels.2001.GERMAN.DL.720P.BLURAY.X264-WATCHABLE
2022-11-29 13:14:29 X264 Das.Rueckgrat.Des.Teufels.2001.GERMAN.DL.1080P.BLURAY.X264-WATCHABLE
2022-11-29 13:16:52 BLURAY The.Devils.Backbone.2001.MULTI.COMPLETE.BLURAY-FULLBRUTALiTY
2022-11-29 13:16:52 TV-HD NFL.2022.11.28.Colts.Vs.Steelers.720p.WEB.h264-SPORTSNET
2022-11-29 13:18:32 TV-SD Hack.Roots.E01.READNFO.DVDRip.x264-URANiME
2022-11-29 13:18:37 DVDR Das.Rueckgrat.Des.Teufels.2001.GERMAN.DL.COMPLETE.PAL.DVD9-FULLBRUTALiTY
2022-11-29 13:18:57 TV-SD Hack.Roots.E02.DVDRip.x264-URANiME
2022-11-29 13:19:00 MP3 VA-UN_LABEL_CORP_ACT_2-UNVA2-WEB-2022-WAV
2022-11-29 13:19:23 TV-SD Hack.Roots.E03.DVDRip.x264-URANiME
2022-11-29 13:19:49 TV-SD Hack.Roots.E04.DVDRip.x264-URANiME
2022-11-29 13:20:14 TV-SD Hack.Roots.E05.DVDRip.x264-URANiME
2022-11-29 13:20:40 TV-SD Hack.Roots.E06.DVDRip.x264-URANiME
2022-11-29 13:21:06 TV-SD Hack.Roots.E07.DVDRip.x264-URANiME
2022-11-29 13:21:31 TV-SD Hack.Roots.E08.DVDRip.x264-URANiME
2022-11-29 13:21:57 TV-SD Hack.Roots.E09.DVDRip.x264-URANiME
2022-11-29 13:22:23 TV-SD Hack.Roots.E10.DVDRip.x264-URANiME
2022-11-29 13:22:49 TV-SD Hack.Roots.E11.DVDRip.x264-URANiME
2022-11-29 13:23:15 TV-SD Hack.Roots.E12.DVDRip.x264-URANiME
2022-11-29 13:23:21 DVDR Das.Rueckgrat.Des.Teufels.2001.BONUS.GERMAN.SUBBED.COMPLETE.PAL.DVDR-FULLBRUTALiTY
2022-11-29 13:23:40 TV-SD Hack.Roots.E13.DVDRip.x264-URANiME
2022-11-29 13:24:06 TV-SD Hack.Roots.E14.DVDRip.x264-URANiME
2022-11-29 13:24:32 TV-SD Hack.Roots.E15.DVDRip.x264-URANiME
2022-11-29 13:24:58 BLURAY Das.Rueckgrat.Des.Teufels.2001.GERMAN.DL.1080P.BLURAY.AVC-UNDERTAKERS
2022-11-29 13:24:58 TV-SD Hack.Roots.E16.DVDRip.x264-URANiME
2022-11-29 13:25:23 TV-SD Hack.Roots.E17.DVDRip.x264-URANiME
2022-11-29 13:25:49 TV-SD Hack.Roots.E18.DVDRip.x264-URANiME
2022-11-29 13:26:08 X264 The.Devils.Backbone.2001.1080P.BLURAY.H264-UNDERTAKERS
2022-11-29 13:26:15 TV-SD Hack.Roots.E19.DVDRip.x264-URANiME
2022-11-29 13:26:38 TV-HD Sharp.Objects.2018.S01E08.POLISH.720p.WEB.H264-A4O
2022-11-29 13:26:40 TV-SD Hack.Roots.E20.DVDRip.x264-URANiME
2022-11-29 13:27:07 TV-SD Hack.Roots.E21.DVDRip.x264-URANiME
2022-11-29 13:27:32 TV-SD Hack.Roots.E22.DVDRip.x264-URANiME
2022-11-29 13:27:58 TV-SD Hack.Roots.E23.DVDRip.x264-URANiME
2022-11-29 13:28:24 TV-SD Hack.Roots.E24.DVDRip.x264-URANiME
2022-11-29 13:28:50 TV-SD Hack.Roots.E25.DVDRip.x264-URANiME
2022-11-29 13:29:05 TV-HD NFL.2022.11.28.Colts.Vs.Steelers.1080p.WEB.h264-SPORTSNET
2022-11-29 13:29:15 TV-SD Hack.Roots.E26.DVDRip.x264-URANiME
2022-11-29 13:45:44 TV-HD NBA.2022.11.28.Oklahoma.City.Thunder.Vs.New.Orleans.Pelicans.1080p.WEB.h264-SPORTSNET
2022-11-29 13:49:51 EBOOK Jeux.Video.Magazine.N229.2020.FRENCH.HYBRiD.MAGAZiNE.eBook-LiBRiCiDE
2022-11-29 13:50:13 EBOOK Jeux.Video.Magazine.N230.2020.FRENCH.HYBRiD.MAGAZiNE.eBook-LiBRiCiDE
2022-11-29 13:50:35 EBOOK Jeux.Video.Magazine.N231.2020.FRENCH.HYBRiD.MAGAZiNE.eBook-LiBRiCiDE
2022-11-29 13:50:57 EBOOK Jeux.Video.Magazine.N232.2020.FRENCH.HYBRiD.MAGAZiNE.eBook-LiBRiCiDE
2022-11-29 13:51:18 EBOOK Jeux.Video.Magazine.N233.2020.FRENCH.HYBRiD.MAGAZiNE.eBook-LiBRiCiDE
2022-11-29 13:51:30 MP3 Astore-Asok-(SOVEL217)-WEB-2022-PTC
2022-11-29 13:51:40 EBOOK Jeux.Video.Magazine.N234.2020.FRENCH.HYBRiD.MAGAZiNE.eBook-LiBRiCiDE
2022-11-29 13:51:55 MP3 Boy_Funktastic-Cosmic_Depression-(SOVEL218)-WEB-2022-PTC
2022-11-29 13:52:09 EBOOK Jeux.Video.Magazine.N235.2020.FRENCH.HYBRiD.MAGAZiNE.eBook-LiBRiCiDE
2022-11-29 13:52:22 MP3 Boy_Funktastic-Cosmic_Travel-(SOVEL213)-WEB-2022-PTC
2022-11-29 13:52:31 EBOOK Jeux.Video.Magazine.N236.2020.FRENCH.HYBRiD.MAGAZiNE.eBook-LiBRiCiDE
2022-11-29 13:52:53 EBOOK Jeux.Video.Magazine.N237.2020.FRENCH.HYBRiD.MAGAZiNE.eBook-LiBRiCiDE
2022-11-29 13:53:03 MP3 Hoducoma-Synthetic_Dreams-(SOVEL210)-WEB-2022-PTC
2022-11-29 13:53:15 EBOOK Jeux.Video.Magazine.N238.2020.FRENCH.HYBRiD.MAGAZiNE.eBook-LiBRiCiDE
2022-11-29 13:53:22 MP3 Indacity-Ion_Storm-(SOVEL208)-SINGLE-WEB-2022-PTC
2022-11-29 13:53:37 EBOOK Jeux.Video.Magazine.N239.2020.FRENCH.HYBRiD.MAGAZiNE.eBook-LiBRiCiDE
2022-11-29 13:53:38 MP3 Miows-Out_of_Memory-(SOVEL206)-WEB-2022-PTC
2022-11-29 13:53:58 EBOOK Jeux.Video.Magazine.N240.2021.FRENCH.HYBRiD.MAGAZiNE.eBook-LiBRiCiDE
2022-11-29 13:54:07 MP3 Shadow_Recruit-Commotion-(SOVEL223)-SINGLE-WEB-2022-PTC
2022-11-29 13:54:20 EBOOK Jeux.Video.Magazine.N241.2021.FRENCH.HYBRiD.MAGAZiNE.eBook-LiBRiCiDE
2022-11-29 13:54:27 MP3 Soul_Divers-Oceans-(SOVEL222)-WEB-2022-PTC
2022-11-29 13:54:42 EBOOK Jeux.Video.Magazine.N242.2021.FRENCH.HYBRiD.MAGAZiNE.eBook-LiBRiCiDE
2022-11-29 13:54:46 MP3 Stanishevsky-Points-(SOVEL215)-SINGLE-WEB-2022-PTC
2022-11-29 13:54:57 MP3 Welkins--Vice_Night-(SOVEL211)-SINGLE-WEB-2022-PTC
2022-11-29 13:55:06 EBOOK Jeux.Video.Magazine.N243.2021.FRENCH.HYBRiD.MAGAZiNE.eBook-LiBRiCiDE
2022-11-29 13:55:28 EBOOK Jeux.Video.Magazine.N244.2021.FRENCH.HYBRiD.MAGAZiNE.eBook-LiBRiCiDE
2022-11-29 13:55:38 XXX SexLikeReal.22.11.12.Nika.Venon.The.Edge.Of.Submission.XXX.VR200.4000p.MP4-GUSH
2022-11-29 13:55:49 EBOOK Jeux.Video.Magazine.N245.2021.FRENCH.HYBRiD.MAGAZiNE.eBook-LiBRiCiDE
2022-11-29 13:56:11 EBOOK Jeux.Video.Magazine.N246.2021.FRENCH.HYBRiD.MAGAZiNE.eBook-LiBRiCiDE
2022-11-29 13:56:33 EBOOK Jeux.Video.Magazine.N247.2021.FRENCH.HYBRiD.MAGAZiNE.eBook-LiBRiCiDE
2022-11-29 13:56:55 EBOOK Jeux.Video.Magazine.N248.2021.FRENCH.HYBRiD.MAGAZiNE.eBook-LiBRiCiDE
2022-11-29 13:57:09 TV-SD L.Echappee.S07E11.FRENCH.WEB.x264-BAWLS
2022-11-29 13:57:16 EBOOK Jeux.Video.Magazine.N249.2021.FRENCH.HYBRiD.MAGAZiNE.eBook-LiBRiCiDE
2022-11-29 13:57:27 TV-HD L.Echappee.S07E11.FRENCH.720p.WEB.x264-BAWLS
2022-11-29 13:57:38 EBOOK Jeux.Video.Magazine.N250.2021.FRENCH.HYBRiD.MAGAZiNE.eBook-LiBRiCiDE
2022-11-29 13:58:00 EBOOK Jeux.Video.Magazine.N251.2021.FRENCH.HYBRiD.MAGAZiNE.eBook-LiBRiCiDE
2022-11-29 13:58:21 EBOOK Jeux.Video.Magazine.N252.2021.FRENCH.HYBRiD.MAGAZiNE.eBook-LiBRiCiDE
2022-11-29 13:58:43 EBOOK Jeux.Video.Magazine.N253.2022.FRENCH.HYBRiD.MAGAZiNE.eBook-LiBRiCiDE
2022-11-29 13:58:45 TV-HD L.Echappee.S07E11.FRENCH.1080p.WEB.x264-BAWLS
2022-11-29 13:59:05 EBOOK Jeux.Video.Magazine.N254.2022.FRENCH.HYBRiD.MAGAZiNE.eBook-LiBRiCiDE
2022-11-29 13:59:26 EBOOK Jeux.Video.Magazine.N255.2022.FRENCH.HYBRiD.MAGAZiNE.eBook-LiBRiCiDE
2022-11-29 13:59:48 EBOOK Jeux.Video.Magazine.N256.2022.FRENCH.HYBRiD.MAGAZiNE.eBook-LiBRiCiDE
2022-11-29 14:00:10 EBOOK Jeux.Video.Magazine.N257.2022.FRENCH.HYBRiD.MAGAZiNE.eBook-LiBRiCiDE
2022-11-29 14:00:31 EBOOK Jeux.Video.Magazine.N258.2022.FRENCH.HYBRiD.MAGAZiNE.eBook-LiBRiCiDE
2022-11-29 14:00:54 EBOOK Jeux.Video.Magazine.N259.2022.FRENCH.HYBRiD.MAGAZiNE.eBook-LiBRiCiDE
2022-11-29 14:01:17 EBOOK Jeux.Video.Magazine.N260.2022.FRENCH.HYBRiD.MAGAZiNE.eBook-LiBRiCiDE
2022-11-29 14:01:38 EBOOK Jeux.Video.Magazine.N261.2022.FRENCH.HYBRiD.MAGAZiNE.eBook-LiBRiCiDE
2022-11-29 14:01:49 TV-HD Sharp.Objects.2018.S01E08.POLISH.1080p.WEB.H264-A4O
2022-11-29 14:02:01 EBOOK Jeux.Video.Magazine.N262.2022.FRENCH.HYBRiD.MAGAZiNE.eBook-LiBRiCiDE
2022-11-29 14:02:23 EBOOK Jeux.Video.Magazine.N263.2022.FRENCH.HYBRiD.MAGAZiNE.eBook-LiBRiCiDE
2022-11-29 14:02:24 TV-SD Indefendable.S01E45.FRENCH.WEB.x264-BAWLS
2022-11-29 14:02:37 TV-HD Indefendable.S01E45.FRENCH.720p.WEB.x264-BAWLS
2022-11-29 14:02:45 EBOOK Total.Jeux.Video.N01.2020.FRENCH.HYBRiD.MAGAZiNE.eBook-LiBRiCiDE
2022-11-29 14:03:07 EBOOK Total.Jeux.Video.N02.2020.FRENCH.HYBRiD.MAGAZiNE.eBook-LiBRiCiDE
2022-11-29 14:03:28 EBOOK Total.Jeux.Video.N03.2020.FRENCH.HYBRiD.MAGAZiNE.eBook-LiBRiCiDE
2022-11-29 14:03:50 EBOOK Total.Jeux.Video.N04.2020.FRENCH.HYBRiD.MAGAZiNE.eBook-LiBRiCiDE
2022-11-29 14:04:11 EBOOK Total.Jeux.Video.N05.2021.FRENCH.HYBRiD.MAGAZiNE.eBook-LiBRiCiDE
2022-11-29 14:04:33 EBOOK Total.Jeux.Video.N06.2021.FRENCH.HYBRiD.MAGAZiNE.eBook-LiBRiCiDE
2022-11-29 14:04:55 EBOOK Total.Jeux.Video.N07.2021.FRENCH.HYBRiD.MAGAZiNE.eBook-LiBRiCiDE
2022-11-29 14:05:16 EBOOK Total.Jeux.Video.N08.2021.FRENCH.HYBRiD.MAGAZiNE.eBook-LiBRiCiDE
2022-11-29 14:05:38 EBOOK Total.Jeux.Video.N09.2021.FRENCH.HYBRiD.MAGAZiNE.eBook-LiBRiCiDE
2022-11-29 14:06:00 EBOOK Total.Jeux.Video.N10.2021.FRENCH.HYBRiD.MAGAZiNE.eBook-LiBRiCiDE
2022-11-29 14:06:22 EBOOK Total.Jeux.Video.N11.2022.FRENCH.HYBRiD.MAGAZiNE.eBook-LiBRiCiDE
2022-11-29 14:06:43 EBOOK Total.Jeux.Video.N12.2022.FRENCH.HYBRiD.MAGAZiNE.eBook-LiBRiCiDE
2022-11-29 14:07:06 EBOOK Total.Jeux.Video.N13.2022.FRENCH.HYBRiD.MAGAZiNE.eBook-LiBRiCiDE
2022-11-29 14:07:28 EBOOK Total.Jeux.Video.N14.2022.FRENCH.HYBRiD.MAGAZiNE.eBook-LiBRiCiDE
2022-11-29 14:07:49 EBOOK Total.Jeux.Video.N15.2022.FRENCH.HYBRiD.MAGAZiNE.eBook-LiBRiCiDE
2022-11-29 14:08:11 EBOOK Total.Jeux.Video.N16.2022.FRENCH.HYBRiD.MAGAZiNE.eBook-LiBRiCiDE
2022-11-29 14:09:23 TV-HD Indefendable.S01E45.FRENCH.1080p.WEB.x264-BAWLS
2022-11-29 14:13:59 MP3 365days-Amorphous_World-(SOVEL197)-WEB-2022-PTC
2022-11-29 14:14:30 MP3 Astore-Cartel-(SOVEL199)-WEB-2022-PTC
2022-11-29 14:14:44 MP3 Born_in_82-Italo_80-(SOVEL198)-SINGLE-WEB-2022-PTC
2022-11-29 14:14:56 MP3 Cableguy_Tommy-Star_Fleet-(SOVEL200)-WEB-2022-PTC
2022-11-29 14:15:20 MP3 Daytonite-Music-(SOVEL194)-WEB-2022-PTC
2022-11-29 14:15:28 TV-SD Alertes.S02E23.FRENCH.WEB.x264-BAWLS
2022-11-29 14:15:33 MP3 Napavtal-On_the_Air_at_Night-(SOVEL196)-WEB-2022-PTC
2022-11-29 14:15:43 TV-HD Alertes.S02E23.FRENCH.720p.WEB.x264-BAWLS
2022-11-29 14:15:49 MP3 Orbita_84_and_Born_in_82-Energy-(SOVEL205)-SINGLE-WEB-2022-PTC
2022-11-29 14:16:03 MP3 Orbita_84-Invisible_Death_(Chernobyl_1986)-(SOVEL201)-SINGLE-WEB-2022-PTC
2022-11-29 14:16:36 MP3 Stanishevsky-Crystal_Elements-(SOVEL193)-SINGLE-WEB-2022-PTC
2022-11-29 14:16:54 MP3 Welkins--Summer_Hotel_1988-(SOVEL202)-WEB-2022-PTC
2022-11-29 14:17:17 TV-HD Alertes.S02E23.FRENCH.1080p.WEB.x264-BAWLS
2022-11-29 14:22:48 MP3 Cableguy_Tommy-Love_of_Yesterday-(SOVEL187)-SINGLE-WEB-2022-PTC
2022-11-29 14:23:14 MP3 Cableguy_Tommy-Sandstorm_in_La-(SOVEL191)-WEB-2022-PTC
2022-11-29 14:23:24 MP3 CJ_Cyclone_and_Born_in_82-Dangerous-(SOVEL190)-SINGLE-WEB-2022-PTC
2022-11-29 14:24:38 TV-HD Just.Jillian.S01E01.1080p.WEB.h264-DiRT
2022-11-29 14:26:04 TV-HD Vier.Freunde.und.die.Geisterhand.S03E06.GERMAN.DUBBED.DL.HDR.2160p.WEB.h265-WiSHTV
2022-11-29 14:26:33 TV-HD NBA.2022.11.28.Houston.Rockets.Vs.Denver.Nuggets.720p.WEB.h264-SPORTSNET
2022-11-29 14:26:57 TV-HD Just.Jillian.S01E01.720p.WEB.h264-DiRT
2022-11-29 14:27:42 TV-HD Just.Jillian.S01E02.1080p.WEB.h264-DiRT
2022-11-29 14:28:06 TV-HD Vier.Freunde.und.die.Geisterhand.S03E07.GERMAN.DUBBED.DL.HDR.2160p.WEB.h265-WiSHTV
2022-11-29 14:28:26 TV-HD Just.Jillian.S01E02.720p.WEB.h264-DiRT
2022-11-29 14:28:30 MP3 Miows-Retrigger-(SOVEL186)-WEB-2022-PTC
2022-11-29 14:28:41 MP3 Telegimnastika-Space_Mouse-(SOVEL185)-WEB-2022-PTC
2022-11-29 14:29:11 TV-HD Just.Jillian.S01E03.1080p.WEB.h264-DiRT
2022-11-29 14:29:56 TV-HD Just.Jillian.S01E03.720p.WEB.h264-DiRT
2022-11-29 14:30:06 TV-HD Vier.Freunde.und.die.Geisterhand.S03E08.GERMAN.DUBBED.DL.HDR.2160p.WEB.h265-WiSHTV
2022-11-29 14:30:42 TV-HD Just.Jillian.S01E04.1080p.WEB.h264-DiRT
2022-11-29 14:31:28 TV-HD Just.Jillian.S01E04.720p.WEB.h264-DiRT
2022-11-29 14:31:37 TV-HD Casey.Anthony.Where.the.Truth.Lies.S01E01.1080p.WEB.h264-KOGi
2022-11-29 14:32:01 TV-HD Casey.Anthony.Where.the.Truth.Lies.S01E01.720p.WEB.h264-KOGi
2022-11-29 14:32:07 TV-HD Vier.Freunde.und.die.Geisterhand.S03E09.GERMAN.DUBBED.DL.HDR.2160p.WEB.h265-WiSHTV
2022-11-29 14:32:12 TV-HD Just.Jillian.S01E05.1080p.WEB.h264-DiRT
2022-11-29 14:32:33 TV-HD Casey.Anthony.Where.the.Truth.Lies.S01E02.1080p.WEB.h264-KOGi
2022-11-29 14:32:57 TV-HD Just.Jillian.S01E05.720p.WEB.h264-DiRT
2022-11-29 14:33:00 TV-HD Casey.Anthony.Where.the.Truth.Lies.S01E02.720p.WEB.h264-KOGi
2022-11-29 14:33:32 TV-HD Casey.Anthony.Where.the.Truth.Lies.S01E03.1080p.WEB.h264-KOGi
2022-11-29 14:33:42 TV-HD Just.Jillian.S01E06.1080p.WEB.h264-DiRT
2022-11-29 14:33:59 TV-HD Casey.Anthony.Where.the.Truth.Lies.S01E03.720p.WEB.h264-KOGi
2022-11-29 14:34:11 TV-HD Vier.Freunde.und.die.Geisterhand.S03E10.GERMAN.DUBBED.DL.HDR.2160p.WEB.h265-WiSHTV
2022-11-29 14:34:27 TV-HD Just.Jillian.S01E06.720p.WEB.h264-DiRT
2022-11-29 14:35:11 TV-HD Just.Jillian.S01E07.1080p.WEB.h264-DiRT
2022-11-29 14:35:57 XXX Interracial.Experience.XXX.DVDRiP.X264-LOVEXXX
2022-11-29 14:35:57 TV-HD Just.Jillian.S01E07.720p.WEB.h264-DiRT
2022-11-29 14:36:12 TV-HD Vier.Freunde.und.die.Geisterhand.S03E11.GERMAN.DUBBED.DL.HDR.2160p.WEB.h265-WiSHTV
2022-11-29 14:36:41 TV-HD Just.Jillian.S01E08.1080p.WEB.h264-DiRT
2022-11-29 14:37:24 XXX Interracial.Experience.XXX.COMPLETE.PAL.DVDR-LOVEXXX
2022-11-29 14:37:26 TV-HD Just.Jillian.S01E08.720p.WEB.h264-DiRT
2022-11-29 14:38:13 TV-HD Vier.Freunde.und.die.Geisterhand.S03E12.GERMAN.DUBBED.DL.HDR.2160p.WEB.h265-WiSHTV
2022-11-29 14:39:36 TV-HD NBA.2022.11.28.Houston.Rockets.Vs.Denver.Nuggets.1080p.WEB.h264-SPORTSNET
2022-11-29 14:40:14 TV-HD Vier.Freunde.und.die.Geisterhand.S03E13.GERMAN.DUBBED.DL.HDR.2160p.WEB.h265-WiSHTV
2022-11-29 14:46:30 TV-HD Alle.meine.Frauen.S02E01.German.1080p.WEB.h264-TVNATiON
2022-11-29 14:47:07 TV-HD Alle.meine.Frauen.S02E01.German.720p.WEB.h264-TVNATiON
2022-11-29 14:47:43 TV-HD Alle.meine.Frauen.S03E01.German.1080p.WEB.h264-TVNATiON
2022-11-29 14:48:20 TV-HD Alle.meine.Frauen.S03E01.German.720p.WEB.h264-TVNATiON
2022-11-29 14:48:43 MP3 Alexander_Gepindiker-Space_Cat_Groove-(SOVEL181)-WEB-2021-PTC
2022-11-29 14:48:53 MP3 Born_in_82-Resisted-(SOVEL179)-SINGLE-WEB-2021-PTC
2022-11-29 14:48:57 TV-HD Alle.meine.Frauen.S04E01.German.1080p.WEB.h264-TVNATiON
2022-11-29 14:49:18 MP3 Cyrcone-Leave_Me_at_Night-(SOVEL182)-WEB-2021-PTC
2022-11-29 14:49:34 MP3 Josslenn-Synthetica-(SOVEL174)-WEB-2021-PTC
2022-11-29 14:49:34 TV-HD Alle.meine.Frauen.S04E01.German.720p.WEB.h264-TVNATiON
2022-11-29 14:49:49 MP3 KVN-Home_After_Home-(SOVEL178)-WEB-2021-PTC
2022-11-29 14:50:10 TV-HD Alle.meine.Frauen.S05E01.German.1080p.WEB.h264-TVNATiON
2022-11-29 14:50:18 MP3 NecroDetector-Tokyo_-_Yakohama-(SOVEL175)-WEB-2021-PTC
2022-11-29 14:50:35 MP3 Telegimnastika-Komarov-(SOVEL180)-WEB-2021-PTC
2022-11-29 14:50:45 MP3 ZRZCZN-Leave_It-(SOVEL173)-WEB-2021-PTC
2022-11-29 14:50:47 TV-HD Alle.meine.Frauen.S05E01.German.720p.WEB.h264-TVNATiON
2022-11-29 14:51:23 TV-HD Alle.meine.Frauen.S06E01.German.1080p.WEB.h264-TVNATiON
2022-11-29 14:51:47 TV-SD American.Dad.S18E18.FRENCH.WEB.H264-AVON
2022-11-29 14:51:54 TV-HD American.Dad.S18E18.FRENCH.720p.WEB.H264-AVON
2022-11-29 14:52:00 TV-HD American.Dad.S18E18.MULTi.1080p.WEB.H264-AVON
2022-11-29 14:52:00 TV-HD Alle.meine.Frauen.S06E01.German.720p.WEB.h264-TVNATiON
2022-11-29 14:52:36 TV-HD Alle.meine.Frauen.S07E01.German.1080p.WEB.h264-TVNATiON
2022-11-29 14:53:09 TV-HD NHL.2022.11.28.Tampa.Bay.Lightning.vs.Buffalo.Sabres.720p.WEB.h264-SPORTSNET
2022-11-29 14:53:12 TV-HD Alle.meine.Frauen.S07E01.German.720p.WEB.h264-TVNATiON
2022-11-29 14:53:38 0DAY TEKLA.STRUCTURES.V2020.SR14-MAGNiTUDE
2022-11-29 14:53:49 TV-HD Alle.meine.Frauen.S08E01.German.1080p.WEB.h264-TVNATiON
2022-11-29 14:54:25 TV-HD Alle.meine.Frauen.S08E01.German.720p.WEB.h264-TVNATiON
2022-11-29 14:54:57 0DAY TEKLA.STRUCTURES.V2021.SR11-MAGNiTUDE
2022-11-29 14:55:01 TV-HD Alle.meine.Frauen.S09E01.German.1080p.WEB.h264-TVNATiON
2022-11-29 14:55:38 TV-HD Alle.meine.Frauen.S09E01.German.720p.WEB.h264-TVNATiON
2022-11-29 14:56:10 0DAY TEKLA.STRUCTURES.V2022.SR5-MAGNiTUDE
2022-11-29 14:56:14 TV-HD Alle.meine.Frauen.S10E01.German.1080p.WEB.h264-TVNATiON
2022-11-29 14:56:50 TV-HD Alle.meine.Frauen.S10E01.German.720p.WEB.h264-TVNATiON
2022-11-29 14:57:39 TV-HD Alle.meine.Frauen.S11E01.German.1080p.WEB.h264-TVNATiON
2022-11-29 14:58:34 TV-HD Alle.meine.Frauen.S11E01.German.720p.WEB.h264-TVNATiON
2022-11-29 14:59:10 TV-HD Alle.meine.Frauen.S12E01.German.1080p.WEB.h264-TVNATiON
2022-11-29 14:59:46 TV-HD Alle.meine.Frauen.S12E01.German.720p.WEB.h264-TVNATiON
2022-11-29 15:00:21 TV-HD Alle.meine.Frauen.S13E01.German.1080p.WEB.h264-TVNATiON
2022-11-29 15:00:59 TV-HD Alle.meine.Frauen.S13E01.German.720p.WEB.h264-TVNATiON
2022-11-29 15:01:34 TV-HD Alle.meine.Frauen.S14E01.German.1080p.WEB.h264-TVNATiON
2022-11-29 15:02:10 TV-HD Alle.meine.Frauen.S14E01.German.720p.WEB.h264-TVNATiON
2022-11-29 15:02:45 TV-HD Alle.meine.Frauen.S15E01.German.1080p.WEB.h264-TVNATiON
2022-11-29 15:03:21 TV-HD Alle.meine.Frauen.S15E01.German.720p.WEB.h264-TVNATiON
2022-11-29 15:04:53 TV-HD NHL.2022.11.28.Toronto.Maple.Leafs.vs.Detroit.Red.Wings.720p.WEB.h264-SPORTSNET
2022-11-29 15:05:29 TV-HD Paradise.S02E09.DANiSH.720p.WEB.h264-HYGGE
2022-11-29 15:05:44 TV-HD Paradise.S02E09.DANiSH.1080p.WEB.h264-HYGGE
2022-11-29 15:06:29 TV-HD Alle.meine.Frauen.S01E02.German.1080p.WEB.h264-TVNATiON
2022-11-29 15:07:05 TV-HD Alle.meine.Frauen.S01E02.German.720p.WEB.h264-TVNATiON
2022-11-29 15:07:36 MP3 Douibyorthst-Synthetic_Acid-(SOVEL163)-WEB-2021-PTC
2022-11-29 15:07:40 TV-HD Alle.meine.Frauen.S01E03.German.1080p.WEB.h264-TVNATiON
2022-11-29 15:07:51 MP3 Ildar_Bik-Bell_Time-(SOVEL169)-WEB-2021-PTC
2022-11-29 15:08:07 MP3 Ildar_Bik-The_Pieces_of_the_Soul-(SOVEL165)-WEB-2021-PTC
2022-11-29 15:08:15 TV-HD Alle.meine.Frauen.S01E03.German.720p.WEB.h264-TVNATiON
2022-11-29 15:08:21 MP3 Revius-Black_Winter-(SOVEL162)-WEB-2021-PTC
2022-11-29 15:08:32 MP3 Vladimir_Bol-Memory-(SOVEL166)-WEB-2021-PTC
2022-11-29 15:08:50 TV-HD Alle.meine.Frauen.S01E04.German.1080p.WEB.h264-TVNATiON
2022-11-29 15:09:25 TV-HD Alle.meine.Frauen.S01E04.German.720p.WEB.h264-TVNATiON
2022-11-29 15:10:00 TV-HD Alle.meine.Frauen.S01E05.German.1080p.WEB.h264-TVNATiON
2022-11-29 15:10:35 TV-HD Alle.meine.Frauen.S01E05.German.720p.WEB.h264-TVNATiON
2022-11-29 15:11:09 TV-HD Alle.meine.Frauen.S01E06.German.1080p.WEB.h264-TVNATiON
2022-11-29 15:11:44 TV-HD Alle.meine.Frauen.S01E06.German.720p.WEB.h264-TVNATiON
2022-11-29 15:12:19 TV-HD Alle.meine.Frauen.S01E07.German.1080p.WEB.h264-TVNATiON
2022-11-29 15:12:54 TV-HD Alle.meine.Frauen.S01E07.German.720p.WEB.h264-TVNATiON
2022-11-29 15:13:28 TV-HD Alle.meine.Frauen.S02E02.German.1080p.WEB.h264-TVNATiON
2022-11-29 15:13:59 TV-HD Little.Demon.S01E01.GERMAN.DL.1080P.WEB.H264-WAYNE
2022-11-29 15:14:04 TV-HD Alle.meine.Frauen.S02E02.German.720p.WEB.h264-TVNATiON
2022-11-29 15:14:12 TV-HD Little.Demon.S01E01.German.DL.720p.WEB.h264-WvF
2022-11-29 15:14:39 TV-HD Alle.meine.Frauen.S02E03.German.1080p.WEB.h264-TVNATiON
2022-11-29 15:15:11 TV-HD Shinobi.no.Ittoki.E09.SUBFRENCH.1080p.WEB.x264-AMB3R
2022-11-29 15:15:13 TV-HD Alle.meine.Frauen.S02E03.German.720p.WEB.h264-TVNATiON
2022-11-29 15:15:31 TV-HD Paradise.S01E17.SWEDiSH.720p.WEB.h264-NORUSH
2022-11-29 15:15:48 TV-HD Alle.meine.Frauen.S02E04.German.1080p.WEB.h264-TVNATiON
2022-11-29 15:15:58 TV-HD Paradise.S01E17.SWEDiSH.1080p.WEB.h264-NORUSH
2022-11-29 15:16:17 TV-HD The.Good.Doctor.S06E02.GERMAN.DL.1080P.WEB.H264-WAYNE
2022-11-29 15:16:23 TV-HD Alle.meine.Frauen.S02E04.German.720p.WEB.h264-TVNATiON
2022-11-29 15:16:58 TV-HD Alle.meine.Frauen.S02E05.German.1080p.WEB.h264-TVNATiON
2022-11-29 15:17:32 TV-HD Alle.meine.Frauen.S02E05.German.720p.WEB.h264-TVNATiON
2022-11-29 15:18:07 TV-HD Alle.meine.Frauen.S02E06.German.1080p.WEB.h264-TVNATiON
2022-11-29 15:18:41 TV-HD Alle.meine.Frauen.S02E06.German.720p.WEB.h264-TVNATiON
2022-11-29 15:19:16 TV-HD Alle.meine.Frauen.S02E07.German.1080p.WEB.h264-TVNATiON
2022-11-29 15:19:51 TV-HD Alle.meine.Frauen.S02E07.German.720p.WEB.h264-TVNATiON
2022-11-29 15:20:14 TV-HD Little.Demon.S01E02.GERMAN.DL.1080P.WEB.H264-WAYNE
2022-11-29 15:20:25 TV-HD Alle.meine.Frauen.S02E08.German.1080p.WEB.h264-TVNATiON
2022-11-29 15:21:00 TV-HD Alle.meine.Frauen.S02E08.German.720p.WEB.h264-TVNATiON
2022-11-29 15:21:35 TV-HD Alle.meine.Frauen.S02E09.German.1080p.WEB.h264-TVNATiON
2022-11-29 15:22:09 TV-HD Alle.meine.Frauen.S02E09.German.720p.WEB.h264-TVNATiON
2022-11-29 15:22:44 TV-HD Alle.meine.Frauen.S02E10.German.1080p.WEB.h264-TVNATiON
2022-11-29 15:23:19 TV-HD Alle.meine.Frauen.S02E10.German.720p.WEB.h264-TVNATiON
2022-11-29 15:23:53 TV-HD Alle.meine.Frauen.S02E11.German.1080p.WEB.h264-TVNATiON
2022-11-29 15:24:28 TV-HD Alle.meine.Frauen.S02E11.German.720p.WEB.h264-TVNATiON
2022-11-29 15:25:02 TV-HD Alle.meine.Frauen.S03E02.German.1080p.WEB.h264-TVNATiON
2022-11-29 15:25:20 TV-HD Little.Demon.S01E02.German.DL.720p.WEB.h264-WvF
2022-11-29 15:25:37 TV-HD Alle.meine.Frauen.S03E02.German.720p.WEB.h264-TVNATiON
2022-11-29 15:25:57 TV-SD Animal.Kingdom.US.S06E04.FRENCH.WEB.H264-SHEEEIT
2022-11-29 15:26:04 TV-HD Animal.Kingdom.US.S06E04.FRENCH.720p.WEB.H264-SHEEEIT
2022-11-29 15:26:08 TV-HD Animal.Kingdom.US.S06E04.FRENCH.1080p.WEB.H264-SHEEEIT
2022-11-29 15:26:11 TV-HD Alle.meine.Frauen.S03E03.German.1080p.WEB.h264-TVNATiON
2022-11-29 15:26:13 TV-SD Animal.Kingdom.US.S06E05.FRENCH.WEB.H264-SHEEEIT
2022-11-29 15:26:18 TV-HD The.Good.Doctor.S06E02.German.DL.720p.WEB.h264-WvF
2022-11-29 15:26:19 TV-HD Animal.Kingdom.US.S06E05.FRENCH.720p.WEB.H264-SHEEEIT
2022-11-29 15:26:46 TV-HD Animal.Kingdom.US.S06E05.FRENCH.1080p.WEB.H264-SHEEEIT
2022-11-29 15:26:46 TV-HD Alle.meine.Frauen.S03E03.German.720p.WEB.h264-TVNATiON
2022-11-29 15:27:03 TV-SD Animal.Kingdom.US.S06E06.FRENCH.WEB.H264-SHEEEIT
2022-11-29 15:27:09 TV-HD Animal.Kingdom.US.S06E06.FRENCH.720p.WEB.H264-SHEEEIT
2022-11-29 15:27:15 TV-HD Gefaehrliche.Liebschaften.S01E02.German.DUBBED.DL.2160p.WEB.h265-W4K
2022-11-29 15:27:21 TV-HD Alle.meine.Frauen.S03E04.German.1080p.WEB.h264-TVNATiON
2022-11-29 15:27:51 TV-HD Animal.Kingdom.US.S06E06.FRENCH.1080p.WEB.H264-SHEEEIT
2022-11-29 15:27:55 TV-HD Alle.meine.Frauen.S03E04.German.720p.WEB.h264-TVNATiON
2022-11-29 15:27:58 TV-SD Animal.Kingdom.US.S06E07.FRENCH.WEB.H264-SHEEEIT
2022-11-29 15:28:01 TV-HD Gefaehrliche.Liebschaften.S01E03.German.DUBBED.DL.2160p.WEB.h265-W4K
2022-11-29 15:28:13 TV-HD Animal.Kingdom.US.S06E07.FRENCH.720p.WEB.H264-SHEEEIT
2022-11-29 15:28:30 TV-HD Alle.meine.Frauen.S03E05.German.1080p.WEB.h264-TVNATiON
2022-11-29 15:28:46 TV-HD Gefaehrliche.Liebschaften.S01E04.German.DUBBED.DL.2160p.WEB.h265-W4K
2022-11-29 15:29:01 TV-HD Animal.Kingdom.US.S06E07.FRENCH.1080p.WEB.H264-SHEEEIT
2022-11-29 15:29:07 TV-SD Animal.Kingdom.US.S06E08.FRENCH.WEB.H264-SHEEEIT
2022-11-29 15:29:08 TV-HD Alle.meine.Frauen.S03E05.German.720p.WEB.h264-TVNATiON
2022-11-29 15:29:14 TV-HD Animal.Kingdom.US.S06E08.FRENCH.720p.WEB.H264-SHEEEIT
2022-11-29 15:29:45 TV-HD Alle.meine.Frauen.S03E06.German.1080p.WEB.h264-TVNATiON
2022-11-29 15:29:56 TV-HD Animal.Kingdom.US.S06E08.FRENCH.1080p.WEB.H264-SHEEEIT
2022-11-29 15:30:03 TV-SD Animal.Kingdom.US.S06E10.FRENCH.WEB.H264-SHEEEIT
2022-11-29 15:30:19 TV-HD Alle.meine.Frauen.S03E06.German.720p.WEB.h264-TVNATiON
2022-11-29 15:30:43 TV-HD Animal.Kingdom.US.S06E10.FRENCH.720p.WEB.H264-SHEEEIT
2022-11-29 15:30:54 TV-HD Animal.Kingdom.US.S06E10.FRENCH.1080p.WEB.H264-SHEEEIT
2022-11-29 15:30:57 TV-HD Alle.meine.Frauen.S03E07.German.1080p.WEB.h264-TVNATiON
2022-11-29 15:31:40 TV-HD Alle.meine.Frauen.S03E07.German.720p.WEB.h264-TVNATiON
2022-11-29 15:31:56 TV-SD Animal.Kingdom.US.S06E11.FRENCH.WEB.H264-SHEEEIT
2022-11-29 15:32:02 TV-HD Animal.Kingdom.US.S06E11.FRENCH.720p.WEB.H264-SHEEEIT
2022-11-29 15:32:06 TV-HD Animal.Kingdom.US.S06E11.FRENCH.1080p.WEB.H264-SHEEEIT
2022-11-29 15:32:11 TV-SD Animal.Kingdom.US.S06E12.FRENCH.WEB.H264-SHEEEIT
2022-11-29 15:32:18 TV-HD Animal.Kingdom.US.S06E12.FRENCH.720p.WEB.H264-SHEEEIT
2022-11-29 15:32:21 TV-HD Alle.meine.Frauen.S03E08.German.1080p.WEB.h264-TVNATiON
2022-11-29 15:33:08 TV-HD Alle.meine.Frauen.S03E08.German.720p.WEB.h264-TVNATiON
2022-11-29 15:33:24 TV-HD Animal.Kingdom.US.S06E12.FRENCH.1080p.WEB.H264-SHEEEIT
2022-11-29 15:33:31 TV-SD Avenue.5.S02E08.FiNAL.FRENCH.WEB.H264-SHEEEIT
2022-11-29 15:33:37 TV-HD Avenue.5.S02E08.FiNAL.FRENCH.720p.WEB.H264-SHEEEIT
2022-11-29 15:33:43 TV-HD Avenue.5.S02E08.FiNAL.MULTi.1080p.WEB.H264-SHEEEIT
2022-11-29 15:33:43 TV-HD Alle.meine.Frauen.S03E09.German.1080p.WEB.h264-TVNATiON
2022-11-29 15:34:17 TV-HD Alle.meine.Frauen.S03E09.German.720p.WEB.h264-TVNATiON
2022-11-29 15:34:51 TV-HD Alle.meine.Frauen.S03E10.German.1080p.WEB.h264-TVNATiON
2022-11-29 15:35:26 TV-HD Alle.meine.Frauen.S03E10.German.720p.WEB.h264-TVNATiON
2022-11-29 15:36:00 TV-HD Alle.meine.Frauen.S03E11.German.1080p.WEB.h264-TVNATiON
2022-11-29 15:36:34 TV-HD Alle.meine.Frauen.S03E11.German.720p.WEB.h264-TVNATiON
2022-11-29 15:37:08 TV-HD Alle.meine.Frauen.S03E12.German.1080p.WEB.h264-TVNATiON
2022-11-29 15:37:43 TV-HD Alle.meine.Frauen.S03E12.German.720p.WEB.h264-TVNATiON
2022-11-29 15:38:17 TV-HD Alle.meine.Frauen.S04E02.German.1080p.WEB.h264-TVNATiON
2022-11-29 15:38:33 MP3 Q-Kidz_of_Hypnos-(K007)-WEB-2022-PTC
2022-11-29 15:38:51 TV-HD Alle.meine.Frauen.S04E02.German.720p.WEB.h264-TVNATiON
2022-11-29 15:39:06 MP3 Paul_Traeumer-Reverb_Psychedelics_Remixes-(K008)-WEB-2022-PTC
2022-11-29 15:39:25 TV-HD Alle.meine.Frauen.S04E03.German.1080p.WEB.h264-TVNATiON
2022-11-29 15:39:59 TV-HD Alle.meine.Frauen.S04E03.German.720p.WEB.h264-TVNATiON
2022-11-29 15:40:33 TV-HD Alle.meine.Frauen.S04E04.German.1080p.WEB.h264-TVNATiON
2022-11-29 15:41:07 TV-HD Alle.meine.Frauen.S04E04.German.720p.WEB.h264-TVNATiON
2022-11-29 15:41:41 TV-HD Alle.meine.Frauen.S04E05.German.1080p.WEB.h264-TVNATiON
2022-11-29 15:42:15 TV-HD Alle.meine.Frauen.S04E05.German.720p.WEB.h264-TVNATiON
2022-11-29 15:42:49 TV-HD Alle.meine.Frauen.S04E06.German.1080p.WEB.h264-TVNATiON
2022-11-29 15:43:23 TV-HD Alle.meine.Frauen.S04E06.German.720p.WEB.h264-TVNATiON
2022-11-29 15:43:35 MP3 Technoseeders-Kara-(K002)-WEB-2021-PTC
2022-11-29 15:43:59 TV-HD Alle.meine.Frauen.S04E07.German.1080p.WEB.h264-TVNATiON
2022-11-29 15:44:33 TV-HD Alle.meine.Frauen.S04E07.German.720p.WEB.h264-TVNATiON
2022-11-29 15:45:07 TV-HD Alle.meine.Frauen.S04E08.German.1080p.WEB.h264-TVNATiON
2022-11-29 15:45:41 TV-HD Alle.meine.Frauen.S04E08.German.720p.WEB.h264-TVNATiON
2022-11-29 15:46:14 TV-HD Alle.meine.Frauen.S04E09.German.1080p.WEB.h264-TVNATiON
2022-11-29 15:46:48 TV-HD Alle.meine.Frauen.S04E09.German.720p.WEB.h264-TVNATiON
2022-11-29 15:46:50 TV-HD 5e.Rang.S04E21.FRENCH.720p.HDTV.x264-BAWLS
2022-11-29 15:46:55 TV-SD 5e.Rang.S04E21.FRENCH.HDTV.x264-BAWLS
2022-11-29 15:46:59 TV-HD 5e.Rang.S04E22.FRENCH.720p.WEB.x264-BAWLS
2022-11-29 15:47:05 TV-SD 5e.Rang.S04E22.FRENCH.WEB.x264-BAWLS
2022-11-29 15:47:09 TV-HD 5e.Rang.S04E23.FRENCH.720p.WEB.x264-BAWLS
2022-11-29 15:47:14 TV-SD 5e.Rang.S04E23.FRENCH.WEB.x264-BAWLS
2022-11-29 15:47:19 TV-HD 5e.Rang.S04E24.FINAL.FRENCH.720p.WEB.x264-BAWLS
2022-11-29 15:47:22 TV-HD Alle.meine.Frauen.S04E10.German.1080p.WEB.h264-TVNATiON
2022-11-29 15:47:24 TV-SD 5e.Rang.S04E24.FINAL.FRENCH.WEB.x264-BAWLS
2022-11-29 15:47:29 TV-HD Avant.Le.Crash.S01E09.FRENCH.720p.WEB.x264-BAWLS
2022-11-29 15:47:33 TV-SD Avant.Le.Crash.S01E09.FRENCH.WEB.x264-BAWLS
2022-11-29 15:47:38 TV-HD Avant.Le.Crash.S01E10.FINAL.FRENCH.720p.WEB.x264-BAWLS
2022-11-29 15:47:43 TV-SD Avant.Le.Crash.S01E10.FINAL.FRENCH.WEB.x264-BAWLS
2022-11-29 15:47:55 TV-HD Alle.meine.Frauen.S04E10.German.720p.WEB.h264-TVNATiON
2022-11-29 15:48:29 TV-HD Alle.meine.Frauen.S04E11.German.1080p.WEB.h264-TVNATiON
2022-11-29 15:49:03 TV-HD Alle.meine.Frauen.S04E11.German.720p.WEB.h264-TVNATiON
2022-11-29 15:49:37 TV-HD Alle.meine.Frauen.S05E02.German.1080p.WEB.h264-TVNATiON
2022-11-29 15:49:51 TV-HD C.est.Comme.Ca.Que.Je.T.aime.S02E10.FINAL.FRENCH.720p.HDTV.x264-BAWLS
2022-11-29 15:49:56 TV-SD C.est.Comme.Ca.Que.Je.T.aime.S02E10.FINAL.FRENCH.HDTV.x264-BAWLS
2022-11-29 15:50:05 TV-HD Ca.Vaut.Le.Cout.S10E11.DOC.FRENCH.1080p.WEB.H264-BAWLS
2022-11-29 15:50:10 TV-HD Ca.Vaut.Le.Cout.S10E11.DOC.FRENCH.720p.WEB.H264-BAWLS
2022-11-29 15:50:11 TV-HD Alle.meine.Frauen.S05E02.German.720p.WEB.h264-TVNATiON
2022-11-29 15:50:15 TV-SD Ca.Vaut.Le.Cout.S10E11.DOC.FRENCH.WEB.H264-BAWLS
2022-11-29 15:50:21 TV-HD Ca.Vaut.Le.Cout.S10E12.DOC.FRENCH.1080p.WEB.H264-BAWLS
2022-11-29 15:50:25 TV-HD Ca.Vaut.Le.Cout.S10E12.DOC.FRENCH.720p.WEB.H264-BAWLS
2022-11-29 15:50:29 TV-SD Ca.Vaut.Le.Cout.S10E12.DOC.FRENCH.WEB.H264-BAWLS
2022-11-29 15:50:45 TV-HD Alle.meine.Frauen.S05E03.German.1080p.WEB.h264-TVNATiON
2022-11-29 15:51:18 TV-HD Alle.meine.Frauen.S05E03.German.720p.WEB.h264-TVNATiON
2022-11-29 15:51:46 MP3 A_Thousand_Details-Helvete_Sinus-ATD021-WEB-2022-WAV
2022-11-29 15:51:52 TV-HD Alle.meine.Frauen.S05E04.German.1080p.WEB.h264-TVNATiON
2022-11-29 15:52:25 TV-HD Alle.meine.Frauen.S05E04.German.720p.WEB.h264-TVNATiON
2022-11-29 15:52:59 TV-HD Alle.meine.Frauen.S05E05.German.1080p.WEB.h264-TVNATiON
2022-11-29 15:53:32 TV-HD Alle.meine.Frauen.S05E05.German.720p.WEB.h264-TVNATiON
2022-11-29 15:54:06 TV-HD Alle.meine.Frauen.S05E06.German.1080p.WEB.h264-TVNATiON
2022-11-29 15:54:39 TV-HD Alle.meine.Frauen.S05E06.German.720p.WEB.h264-TVNATiON
2022-11-29 15:55:13 TV-HD Alle.meine.Frauen.S05E07.German.1080p.WEB.h264-TVNATiON
2022-11-29 15:55:46 TV-HD Alle.meine.Frauen.S05E07.German.720p.WEB.h264-TVNATiON
2022-11-29 15:55:57 TV-HD Cerebrum.S02E10.FINAL.FRENCH.720p.WEB.x264-BAWLS
2022-11-29 15:56:07 TV-SD Cerebrum.S02E10.FINAL.FRENCH.WEB.x264-BAWLS
2022-11-29 15:56:18 TV-HD De.Garde.24.7.S08E10.FRENCH.1080p.WEB.H264-BAWLS
2022-11-29 15:56:19 TV-HD Alle.meine.Frauen.S05E08.German.1080p.WEB.h264-TVNATiON
2022-11-29 15:56:23 TV-HD De.Garde.24.7.S08E10.FRENCH.720p.WEB.H264-BAWLS
2022-11-29 15:56:27 TV-SD De.Garde.24.7.S08E10.FRENCH.WEB.H264-BAWLS
2022-11-29 15:56:32 TV-HD De.Garde.24.7.S08E11.FRENCH.1080p.WEB.H264-BAWLS
2022-11-29 15:56:36 TV-HD De.Garde.24.7.S08E11.FRENCH.720p.WEB.H264-BAWLS
2022-11-29 15:56:41 TV-SD De.Garde.24.7.S08E11.FRENCH.WEB.H264-BAWLS
2022-11-29 15:56:47 TV-HD Decouverte.S35E10.DOC.FRENCH.1080p.WEB.H264-BAWLS
2022-11-29 15:56:51 TV-HD Decouverte.S35E10.DOC.FRENCH.720p.WEB.H264-BAWLS
2022-11-29 15:56:53 TV-HD Alle.meine.Frauen.S05E08.German.720p.WEB.h264-TVNATiON
2022-11-29 15:56:56 TV-SD Decouverte.S35E10.DOC.FRENCH.WEB.H264-BAWLS
2022-11-29 15:57:27 TV-HD Alle.meine.Frauen.S06E02.German.1080p.WEB.h264-TVNATiON
2022-11-29 15:58:00 TV-HD Alle.meine.Frauen.S06E02.German.720p.WEB.h264-TVNATiON
2022-11-29 15:58:33 TV-HD Alle.meine.Frauen.S06E03.German.1080p.WEB.h264-TVNATiON
2022-11-29 15:59:06 TV-HD Alle.meine.Frauen.S06E03.German.720p.WEB.h264-TVNATiON
2022-11-29 15:59:18 TV-HD Decouverte.S35E11.DOC.FRENCH.1080p.WEB.H264-BAWLS
2022-11-29 15:59:24 TV-HD Decouverte.S35E11.DOC.FRENCH.720p.WEB.H264-BAWLS
2022-11-29 15:59:29 TV-SD Decouverte.S35E11.DOC.FRENCH.WEB.H264-BAWLS
2022-11-29 15:59:40 TV-HD Alle.meine.Frauen.S06E04.German.1080p.WEB.h264-TVNATiON
2022-11-29 15:59:41 TV-HD Decouverte.S35E12.DOC.FRENCH.1080p.WEB.H264-BAWLS
2022-11-29 15:59:46 TV-HD Decouverte.S35E12.DOC.FRENCH.720p.WEB.H264-BAWLS
2022-11-29 15:59:51 TV-SD Decouverte.S35E12.DOC.FRENCH.WEB.H264-BAWLS
2022-11-29 15:59:58 TV-HD Deux.Hommes.En.Or.S10E10.FRENCH.720p.HDTV.x264-BAWLS
2022-11-29 16:00:04 TV-SD Deux.Hommes.En.Or.S10E10.FRENCH.HDTV.x264-BAWLS
2022-11-29 16:00:08 TV-HD Deux.Hommes.En.Or.S10E11.FRENCH.720p.HDTV.x264-BAWLS
2022-11-29 16:00:13 TV-SD Deux.Hommes.En.Or.S10E11.FRENCH.HDTV.x264-BAWLS
2022-11-29 16:00:13 TV-HD Alle.meine.Frauen.S06E04.German.720p.WEB.h264-TVNATiON
2022-11-29 16:00:17 TV-HD Deux.Hommes.En.Or.S10E12.FRENCH.720p.HDTV.x264-BAWLS
2022-11-29 16:00:23 TV-SD Deux.Hommes.En.Or.S10E12.FRENCH.HDTV.x264-BAWLS
2022-11-29 16:00:46 TV-HD Alle.meine.Frauen.S06E05.German.1080p.WEB.h264-TVNATiON
2022-11-29 16:00:48 TV-HD Boligkoeb.I.Blinde.S06E05.DANiSH.720p.WEB.h264-HYGGE
2022-11-29 16:01:06 TV-HD Boligkoeb.I.Blinde.S06E05.DANiSH.1080p.WEB.h264-HYGGE
2022-11-29 16:01:19 TV-HD Alle.meine.Frauen.S06E05.German.720p.WEB.h264-TVNATiON
2022-11-29 16:01:52 TV-HD Alle.meine.Frauen.S06E06.German.1080p.WEB.h264-TVNATiON
2022-11-29 16:02:25 TV-HD Alle.meine.Frauen.S06E06.German.720p.WEB.h264-TVNATiON
2022-11-29 16:02:59 TV-HD Alle.meine.Frauen.S06E07.German.1080p.WEB.h264-TVNATiON
2022-11-29 16:03:32 TV-HD Alle.meine.Frauen.S06E07.German.720p.WEB.h264-TVNATiON
2022-11-29 16:04:05 TV-HD Alle.meine.Frauen.S06E08.German.1080p.WEB.h264-TVNATiON
2022-11-29 16:04:38 TV-HD Alle.meine.Frauen.S06E08.German.720p.WEB.h264-TVNATiON
2022-11-29 16:05:11 TV-HD Alle.meine.Frauen.S06E09.German.1080p.WEB.h264-TVNATiON
2022-11-29 16:05:44 TV-HD Alle.meine.Frauen.S06E09.German.720p.WEB.h264-TVNATiON
2022-11-29 16:06:16 TV-HD Alle.meine.Frauen.S06E10.German.1080p.WEB.h264-TVNATiON
2022-11-29 16:06:49 TV-HD Alle.meine.Frauen.S06E10.German.720p.WEB.h264-TVNATiON
2022-11-29 16:07:22 TV-HD Alle.meine.Frauen.S06E12.German.1080p.WEB.h264-TVNATiON
2022-11-29 16:07:55 TV-HD Alle.meine.Frauen.S06E12.German.720p.WEB.h264-TVNATiON
2022-11-29 16:08:27 TV-HD Alle.meine.Frauen.S06E13.German.1080p.WEB.h264-TVNATiON
2022-11-29 16:09:00 TV-HD Alle.meine.Frauen.S06E13.German.720p.WEB.h264-TVNATiON
2022-11-29 16:09:14 MP3 Scarr._and_Finding_Mero-This_Feeling_That_Never_Ends-(MCEP329)-WEB-2022-PTC
2022-11-29 16:09:32 TV-HD Alle.meine.Frauen.S06E14.German.1080p.WEB.h264-TVNATiON
2022-11-29 16:10:05 TV-HD Alle.meine.Frauen.S06E14.German.720p.WEB.h264-TVNATiON
2022-11-29 16:10:23 TV-HD Discussions.Avec.Mes.Parents.S05E08.FRENCH.720p.WEB.x264-BAWLS
2022-11-29 16:10:28 TV-SD Discussions.Avec.Mes.Parents.S05E08.FRENCH.WEB.x264-BAWLS
2022-11-29 16:10:32 TV-HD Discussions.Avec.Mes.Parents.S05E09.FRENCH.720p.WEB.x264-BAWLS
2022-11-29 16:10:36 TV-SD Discussions.Avec.Mes.Parents.S05E09.FRENCH.WEB.x264-BAWLS
2022-11-29 16:10:37 TV-HD Alle.meine.Frauen.S06E15.German.1080p.WEB.h264-TVNATiON
2022-11-29 16:10:41 TV-HD Discussions.Avec.Mes.Parents.S05E10.FRENCH.720p.WEB.x264-BAWLS
2022-11-29 16:10:45 TV-SD Discussions.Avec.Mes.Parents.S05E10.FRENCH.WEB.x264-BAWLS
2022-11-29 16:10:49 TV-HD Discussions.Avec.Mes.Parents.S05E11.FRENCH.720p.WEB.x264-BAWLS
2022-11-29 16:10:54 TV-SD Discussions.Avec.Mes.Parents.S05E11.FRENCH.WEB.x264-BAWLS
2022-11-29 16:10:59 TV-HD Dolores.La.Malediction.Du.Pull.Over.Rouge.S01E03.DOC.FRENCH.720p.HDTV.x264-BAWLS
2022-11-29 16:11:04 TV-SD Dolores.La.Malediction.Du.Pull.Over.Rouge.S01E03.DOC.FRENCH.HDTV.x264-BAWLS
2022-11-29 16:11:11 TV-HD Alle.meine.Frauen.S06E15.German.720p.WEB.h264-TVNATiON
2022-11-29 16:11:17 TV-HD En.Ligne.S02E11.FRENCH.1080p.WEB.H264-BAWLS
2022-11-29 16:11:22 TV-HD En.Ligne.S02E11.FRENCH.720p.WEB.H264-BAWLS
2022-11-29 16:11:27 TV-SD En.Ligne.S02E11.FRENCH.WEB.H264-BAWLS
2022-11-29 16:11:43 TV-HD Alle.meine.Frauen.S06E16.German.1080p.WEB.h264-TVNATiON
2022-11-29 16:12:16 TV-HD Alle.meine.Frauen.S06E16.German.720p.WEB.h264-TVNATiON
2022-11-29 16:12:49 TV-HD Alle.meine.Frauen.S06E17.German.1080p.WEB.h264-TVNATiON
2022-11-29 16:13:11 MP3 Alvonmars-Dancing_Planet-(SOVEL241)-WEB-2022-PTC
2022-11-29 16:13:22 TV-HD Alle.meine.Frauen.S06E17.German.720p.WEB.h264-TVNATiON
2022-11-29 16:13:54 TV-HD Alle.meine.Frauen.S06E18.German.1080p.WEB.h264-TVNATiON
2022-11-29 16:14:27 TV-HD Alle.meine.Frauen.S06E18.German.720p.WEB.h264-TVNATiON
2022-11-29 16:14:59 TV-HD Alle.meine.Frauen.S06E19.German.1080p.WEB.h264-TVNATiON
2022-11-29 16:15:14 TV-SD Pokemon.S25E21.FRENCH.WEB.H264-D4KiD
2022-11-29 16:15:23 EBOOK Le.magazine.de.L.aviation.N10.2020.FRENCH.HYBRiD.MAGAZiNE.eBook-LiBRiCiDE
2022-11-29 16:15:25 TV-HD En.Ligne.S02E12.FRENCH.1080p.WEB.H264-BAWLS
2022-11-29 16:15:30 TV-HD En.Ligne.S02E12.FRENCH.720p.WEB.H264-BAWLS
2022-11-29 16:15:31 TV-HD Alle.meine.Frauen.S06E19.German.720p.WEB.h264-TVNATiON
2022-11-29 16:15:35 TV-SD En.Ligne.S02E12.FRENCH.WEB.H264-BAWLS
2022-11-29 16:15:40 TV-HD Enquete.S16E09.DOC.FRENCH.1080p.WEB.H264-BAWLS
2022-11-29 16:15:44 EBOOK Le.magazine.de.L.aviation.N11.2020.FRENCH.HYBRiD.MAGAZiNE.eBook-LiBRiCiDE
2022-11-29 16:15:46 TV-HD Enquete.S16E09.DOC.FRENCH.720p.WEB.H264-BAWLS
2022-11-29 16:15:52 TV-SD Enquete.S16E09.DOC.FRENCH.WEB.H264-BAWLS
2022-11-29 16:15:57 TV-HD Enquete.S16E10.DOC.FRENCH.1080p.WEB.H264-BAWLS
2022-11-29 16:16:03 TV-HD Alle.meine.Frauen.S12E02.German.720p.WEB.h264-TVNATiON
2022-11-29 16:16:03 TV-HD Enquete.S16E10.DOC.FRENCH.720p.WEB.H264-BAWLS
2022-11-29 16:16:07 EBOOK Le.magazine.de.L.aviation.N12.2020.FRENCH.HYBRiD.MAGAZiNE.eBook-LiBRiCiDE
2022-11-29 16:16:07 TV-SD Enquete.S16E10.DOC.FRENCH.WEB.H264-BAWLS
2022-11-29 16:16:29 EBOOK Le.magazine.de.L.aviation.N13.2021.FRENCH.HYBRiD.MAGAZiNE.eBook-LiBRiCiDE
2022-11-29 16:16:33 TV-HD Entre.Deux.Draps.S03E10.FRENCH.1080p.HDTV.x264-BAWLS
2022-11-29 16:16:39 TV-HD Entre.Deux.Draps.S03E10.FRENCH.720p.HDTV.x264-BAWLS
2022-11-29 16:16:43 TV-SD Entre.Deux.Draps.S03E10.FRENCH.HDTV.x264-BAWLS
2022-11-29 16:16:48 TV-HD Entre.Deux.Draps.S03E11.FRENCH.1080p.HDTV.x264-BAWLS
2022-11-29 16:16:51 EBOOK Le.magazine.de.L.aviation.N14.2021.FRENCH.HYBRiD.MAGAZiNE.eBook-LiBRiCiDE
2022-11-29 16:16:53 TV-HD Entre.Deux.Draps.S03E11.FRENCH.720p.HDTV.x264-BAWLS
2022-11-29 16:16:57 TV-SD Entre.Deux.Draps.S03E11.FRENCH.HDTV.x264-BAWLS
2022-11-29 16:17:13 EBOOK Le.magazine.de.L.aviation.N15.2021.FRENCH.HYBRiD.MAGAZiNE.eBook-LiBRiCiDE
2022-11-29 16:17:34 EBOOK Le.magazine.de.L.aviation.N16.2021.FRENCH.HYBRiD.MAGAZiNE.eBook-LiBRiCiDE
2022-11-29 16:17:56 EBOOK Le.magazine.de.L.aviation.N17.2022.FRENCH.HYBRiD.MAGAZiNE.eBook-LiBRiCiDE
2022-11-29 16:18:08 TV-HD J.E.S30E10.DOC.FRENCH.1080p.HDTV.x264-BAWLS
2022-11-29 16:18:13 TV-HD J.E.S30E10.DOC.FRENCH.720p.HDTV.x264-BAWLS
2022-11-29 16:18:18 TV-SD J.E.S30E10.DOC.FRENCH.HDTV.x264-BAWLS
2022-11-29 16:18:18 EBOOK Le.magazine.de.L.aviation.N18.2022.FRENCH.HYBRiD.MAGAZiNE.eBook-LiBRiCiDE
2022-11-29 16:18:23 TV-HD J.E.S30E11.DOC.FRENCH.1080p.HDTV.x264-BAWLS
2022-11-29 16:18:28 TV-HD J.E.S30E11.DOC.FRENCH.720p.HDTV.x264-BAWLS
2022-11-29 16:18:32 TV-SD J.E.S30E11.DOC.FRENCH.HDTV.x264-BAWLS
2022-11-29 16:18:38 TV-HD L.Epicerie.S21E09.DOC.FRENCH.1080p.WEB.H264-BAWLS
2022-11-29 16:18:39 EBOOK Le.magazine.de.L.aviation.N19.2022.FRENCH.HYBRiD.MAGAZiNE.eBook-LiBRiCiDE
2022-11-29 16:18:43 TV-HD L.Epicerie.S21E09.DOC.FRENCH.720p.WEB.H264-BAWLS
2022-11-29 16:18:48 TV-SD L.Epicerie.S21E09.DOC.FRENCH.WEB.H264-BAWLS
2022-11-29 16:18:53 TV-HD L.Epicerie.S21E10.DOC.FRENCH.1080p.WEB.H264-BAWLS
2022-11-29 16:18:57 TV-HD L.Epicerie.S21E10.DOC.FRENCH.720p.WEB.H264-BAWLS
2022-11-29 16:19:01 EBOOK Le.magazine.de.L.aviation.N20.2022.FRENCH.HYBRiD.MAGAZiNE.eBook-LiBRiCiDE
2022-11-29 16:19:03 TV-SD L.Epicerie.S21E10.DOC.FRENCH.WEB.H264-BAWLS
2022-11-29 16:20:24 TV-HD L.Indice.Mcsween.S06E11.FRENCH.1080p.WEB.H264-BAWLS
2022-11-29 16:20:30 TV-HD L.Indice.Mcsween.S06E11.FRENCH.720p.WEB.H264-BAWLS
2022-11-29 16:20:34 TV-SD L.Indice.Mcsween.S06E11.FRENCH.WEB.H264-BAWLS
2022-11-29 16:20:40 TV-HD L.Indice.Mcsween.S06E12.FRENCH.1080p.WEB.H264-BAWLS
2022-11-29 16:20:45 TV-HD L.Indice.Mcsween.S06E12.FRENCH.720p.WEB.H264-BAWLS
2022-11-29 16:20:49 TV-SD L.Indice.Mcsween.S06E12.FRENCH.WEB.H264-BAWLS
2022-11-29 16:20:55 TV-HD La.Facture.S28E09.DOC.FRENCH.1080p.WEB.H264-BAWLS
2022-11-29 16:21:03 TV-HD La.Facture.S28E09.DOC.FRENCH.720p.WEB.H264-BAWLS
2022-11-29 16:21:03 TV-HD Inside.Amy.Schumer.S05E01.REPACK.2160p.WEB.H265-CRUCiFiED
2022-11-29 16:21:09 TV-SD La.Facture.S28E09.DOC.FRENCH.WEB.H264-BAWLS
2022-11-29 16:21:15 TV-HD La.Facture.S28E10.DOC.FRENCH.1080p.WEB.H264-BAWLS
2022-11-29 16:21:19 TV-HD La.Facture.S28E10.DOC.FRENCH.720p.WEB.H264-BAWLS
2022-11-29 16:21:24 TV-SD La.Facture.S28E10.DOC.FRENCH.WEB.H264-BAWLS
2022-11-29 16:21:33 TV-HD Inside.Amy.Schumer.S05E02.REPACK.2160p.WEB.H265-CRUCiFiED
2022-11-29 16:22:04 TV-HD Inside.Amy.Schumer.S05E03.REPACK.2160p.WEB.H265-CRUCiFiED
2022-11-29 16:22:34 TV-HD Inside.Amy.Schumer.S05E04.REPACK.2160p.WEB.H265-CRUCiFiED
2022-11-29 16:22:38 TV-HD La.Semaine.Verte.S52E09.DOC.FRENCH.1080p.WEB.H264-BAWLS
2022-11-29 16:22:43 TV-HD La.Semaine.Verte.S52E09.DOC.FRENCH.720p.WEB.H264-BAWLS
2022-11-29 16:22:47 TV-SD La.Semaine.Verte.S52E09.DOC.FRENCH.WEB.H264-BAWLS
2022-11-29 16:22:50 TV-HD La.Semaine.Verte.S52E10.DOC.FRENCH.1080p.WEB.H264-BAWLS
2022-11-29 16:22:55 TV-HD La.Semaine.Verte.S52E10.DOC.FRENCH.720p.WEB.H264-BAWLS
2022-11-29 16:23:00 TV-SD La.Semaine.Verte.S52E10.DOC.FRENCH.WEB.H264-BAWLS
2022-11-29 16:23:04 TV-HD La.Semaine.Verte.S52E11.DOC.FRENCH.1080p.WEB.H264-BAWLS
2022-11-29 16:23:05 TV-HD Inside.Amy.Schumer.S05E05.REPACK.2160p.WEB.H265-CRUCiFiED
2022-11-29 16:23:09 TV-HD La.Semaine.Verte.S52E11.DOC.FRENCH.720p.WEB.H264-BAWLS
2022-11-29 16:23:13 TV-SD La.Semaine.Verte.S52E11.DOC.FRENCH.WEB.H264-BAWLS
2022-11-29 16:23:19 TV-HD Les.Enfants.De.La.Tele.S13E10.FRENCH.720p.HDTV.x264-BAWLS
2022-11-29 16:23:23 TV-SD Les.Enfants.De.La.Tele.S13E10.FRENCH.HDTV.x264-BAWLS
2022-11-29 16:23:28 TV-HD Les.Enfants.De.La.Tele.S13E11.FRENCH.720p.HDTV.x264-BAWLS
2022-11-29 16:23:32 TV-SD Les.Enfants.De.La.Tele.S13E11.FRENCH.HDTV.x264-BAWLS
2022-11-29 16:24:40 TV-HD Pour.Nous.Chez.Nous.2022.DOC.FRENCH.1080p.WEB.H264-BAWLS
2022-11-29 16:24:44 TV-HD Pour.Nous.Chez.Nous.2022.DOC.FRENCH.720p.WEB.H264-BAWLS
2022-11-29 16:24:51 TV-SD Pour.Nous.Chez.Nous.2022.DOC.FRENCH.WEB.H264-BAWLS
2022-11-29 16:24:55 TV-HD Priere.De.Ne.Pas.Envoyer.Des.Fleurs.S12E09.FRENCH.720p.WEB.x264-BAWLS
2022-11-29 16:25:00 TV-SD Priere.De.Ne.Pas.Envoyer.Des.Fleurs.S12E09.FRENCH.WEB.x264-BAWLS
2022-11-29 16:25:05 TV-HD Priere.De.Ne.Pas.Envoyer.Des.Fleurs.S12E10.FRENCH.720p.WEB.x264-BAWLS
2022-11-29 16:25:09 TV-SD Priere.De.Ne.Pas.Envoyer.Des.Fleurs.S12E10.FRENCH.WEB.x264-BAWLS
2022-11-29 16:25:16 TV-HD Revolution.2018.S04E09.FRENCH.1080p.HDTV.x264-BAWLS
2022-11-29 16:25:21 TV-HD Revolution.2018.S04E09.FRENCH.720p.HDTV.x264-BAWLS
2022-11-29 16:25:26 TV-SD Revolution.2018.S04E09.FRENCH.HDTV.x264-BAWLS
2022-11-29 16:25:30 TV-HD Revolution.2018.S04E10.FRENCH.1080p.HDTV.x264-BAWLS
2022-11-29 16:25:35 TV-HD Revolution.2018.S04E10.FRENCH.720p.HDTV.x264-BAWLS
2022-11-29 16:25:40 TV-SD Revolution.2018.S04E10.FRENCH.HDTV.x264-BAWLS
2022-11-29 16:26:30 TV-HD Revolution.2018.S04E11.FRENCH.1080p.HDTV.x264-BAWLS
2022-11-29 16:26:35 TV-HD Revolution.2018.S04E11.FRENCH.720p.HDTV.x264-BAWLS
2022-11-29 16:26:38 TV-SD Revolution.2018.S04E11.FRENCH.HDTV.x264-BAWLS
2022-11-29 16:26:43 TV-HD Stat.QC.S01E37.FRENCH.720p.HDTV.x264-BAWLS
2022-11-29 16:26:47 TV-SD Stat.QC.S01E37.FRENCH.HDTV.x264-BAWLS
2022-11-29 16:26:51 TV-HD Stat.QC.S01E38.FRENCH.720p.HDTV.x264-BAWLS
2022-11-29 16:26:55 TV-SD Stat.QC.S01E38.FRENCH.HDTV.x264-BAWLS
2022-11-29 16:26:59 TV-HD Stat.QC.S01E39.FRENCH.720p.WEB.x264-BAWLS
2022-11-29 16:27:04 TV-SD Stat.QC.S01E39.FRENCH.WEB.x264-BAWLS
2022-11-29 16:27:57 TV-HD Stat.QC.S01E40.FRENCH.720p.WEB.x264-BAWLS
2022-11-29 16:28:02 TV-SD Stat.QC.S01E40.FRENCH.WEB.x264-BAWLS
2022-11-29 16:28:06 TV-HD Stat.QC.S01E41.FRENCH.720p.WEB.x264-BAWLS
2022-11-29 16:28:10 TV-SD Stat.QC.S01E41.FRENCH.WEB.x264-BAWLS
2022-11-29 16:28:15 TV-HD Stat.QC.S01E42.FRENCH.720p.WEB.x264-BAWLS
2022-11-29 16:28:18 TV-SD Stat.QC.S01E42.FRENCH.WEB.x264-BAWLS
2022-11-29 16:28:23 TV-HD Stat.QC.S01E43.FRENCH.720p.WEB.x264-BAWLS
2022-11-29 16:28:29 TV-SD Stat.QC.S01E43.FRENCH.WEB.x264-BAWLS
2022-11-29 16:28:33 TV-HD Stat.QC.S01E44.FRENCH.720p.WEB.x264-BAWLS
2022-11-29 16:28:38 TV-SD Stat.QC.S01E44.FRENCH.WEB.x264-BAWLS
2022-11-29 16:29:51 TV-HD The.Simpsons.QC.S33E08.FRENCH.1080p.HDTV.x264-BAWLS
2022-11-29 16:29:55 TV-HD The.Simpsons.QC.S33E08.FRENCH.720p.HDTV.x264-BAWLS
2022-11-29 16:30:00 TV-SD The.Simpsons.QC.S33E08.FRENCH.HDTV.x264-BAWLS
2022-11-29 16:30:04 TV-HD Tout.Le.Monde.En.Parle.S19E07.FRENCH.1080p.WEB.x264-BAWLS
2022-11-29 16:30:08 TV-HD Tout.Le.Monde.En.Parle.S19E07.FRENCH.720p.WEB.x264-BAWLS
2022-11-29 16:30:14 TV-SD Tout.Le.Monde.En.Parle.S19E07.FRENCH.WEB.x264-BAWLS
2022-11-29 16:30:17 TV-HD NCIS.New.Orleans.S06E03.MULTi.1080p.HDTV.H264-OBSTACLE
2022-11-29 16:30:18 TV-HD Tout.Le.Monde.En.Parle.S19E08.FRENCH.1080p.WEB.x264-BAWLS
2022-11-29 16:30:24 TV-HD Tout.Le.Monde.En.Parle.S19E08.FRENCH.720p.WEB.x264-BAWLS
2022-11-29 16:30:42 TV-SD Tout.Le.Monde.En.Parle.S19E08.FRENCH.WEB.x264-BAWLS
2022-11-29 16:30:48 TV-HD Tout.Le.Monde.En.Parle.S19E09.FRENCH.1080p.WEB.x264-BAWLS
2022-11-29 16:30:52 TV-HD Tout.Le.Monde.En.Parle.S19E09.FRENCH.720p.WEB.x264-BAWLS
2022-11-29 16:30:56 TV-SD Tout.Le.Monde.En.Parle.S19E09.FRENCH.WEB.x264-BAWLS
2022-11-29 16:31:16 NSW Aliisha_The_Oblivion_of_Twin_Goddesses_Update_v1.0.1_NSW-VENOM
2022-11-29 16:36:59 MP3 Blush_Response-Hypermania-(KDC237)-WEB-2022-EBM
2022-11-29 16:45:44 MP3 The_Anix-Revenge-(FXT1025)-WEB-2022-EBM
2022-11-29 16:47:58 MP3 Bob_Marlich-Echauffement-WEB-FR-2017-OND
2022-11-29 16:48:59 MP3 Bob_Marlich-Sans_Filtre-WEB-FR-2021-OND
2022-11-29 16:49:34 BLURAY After.Ever.Happy.2022.MULTi.COMPLETE.BLURAY-AKENATON
2022-11-29 16:50:00 MP3 Bob_Marlich-Triple-double-WEB-FR-2022-OND
2022-11-29 16:50:12 MP3 VA-Two_Years_Part_2-(VRVNL002)-WEB-2022-EBM
2022-11-29 16:50:57 BLURAY DC.League.of.Super-Pets.2022.MULTi.COMPLETE.BLURAY-AKENATON
2022-11-29 16:51:01 MP3 LES_ROYAS-Tu_le_sais-SINGLE-WEB-FR-2022-OND
2022-11-29 16:52:00 TV-HD Frank.Og.Kastaniegaarden.S15E18.Julemirakel.Og.Pay.Back.DANiSH.720p.WEB.h264-JYSK
2022-11-29 16:52:01 MP3 Norsacce_Berlusconi-Baws-SINGLE-WEB-FR-2022-OND
2022-11-29 16:53:03 MP3 SDM-Hier_encore_-_A_COLORS_SHOW-SINGLE-WEB-FR-2022-OND
2022-11-29 16:54:03 MP3 Softo-Automne-SINGLE-WEB-FR-2020-OND
2022-11-29 16:54:54 BLURAY Fortress.Snipers.Eye.2022.MULTi.COMPLETE.BLURAY-AKENATON
2022-11-29 16:55:04 MP3 Softo-Printemps_(Live_Spectre)-SINGLE-WEB-FR-2022-OND
2022-11-29 16:56:05 MP3 Softo-Tomber-SINGLE-WEB-FR-2021-OND
2022-11-29 16:57:05 MP3 Varaine_Ben-KAFRINE-SINGLE-WEB-FR-2022-OND
2022-11-29 16:57:40 X264 Amerika.waehlt.-.wer.wird.der.naechste.Praesident.German.DOKU.WEBRiP.H264-UTOPiA
2022-11-29 16:58:06 MP3 Vj_Awax_Gtnn_Et_Dangerous-Sans_toi-SINGLE-WEB-FR-2022-OND
2022-11-29 17:00:28 TV-HD Leverage.Redemption.S02E05.1080p.WEB.H264-GLHF
2022-11-29 17:01:08 TV-HD Guru.S02E01.T.E.A.M.DANiSH.720p.WEB.h264-JYSK
2022-11-29 17:01:15 TV-HD Guru.S02E01.T.E.A.M.DANiSH.1080p.WEB.h264-JYSK
2022-11-29 17:03:19 TV-HD Discussions.Avec.Mes.Parents.S05E12.FRENCH.720p.WEB.x264-BAWLS
2022-11-29 17:03:24 TV-SD Discussions.Avec.Mes.Parents.S05E12.FRENCH.WEB.x264-BAWLS
2022-11-29 17:03:28 TV-HD Stat.QC.S01E45.FRENCH.720p.WEB.x264-BAWLS
2022-11-29 17:03:33 TV-SD Stat.QC.S01E45.FRENCH.WEB.x264-BAWLS
2022-11-29 17:05:19 TV-HD Guru.S02E02.Gate.Of.Love.DANiSH.720p.WEB.h264-JYSK
2022-11-29 17:06:10 TV-HD Guru.S02E02.Gate.Of.Love.DANiSH.1080p.WEB.h264-JYSK
2022-11-29 17:06:29 TV-HD Leverage.Redemption.S02E05.720p.WEB.h264-KOGi
2022-11-29 17:07:26 TV-HD Guru.S02E03.DeedKeeper.DANiSH.720p.WEB.h264-JYSK
2022-11-29 17:07:40 IMGSET AmKingdom.com_22.11.29.Amateurs.Series.21.Softcore.166.Brandi.Blunt.XXX.IMAGESET-FuGLi
2022-11-29 17:08:26 TV-HD Guru.S02E03.DeedKeeper.DANiSH.1080p.WEB.h264-JYSK
2022-11-29 17:08:27 IMGSET AmKingdom.com_22.11.29.Amateurs.Series.21.Softcore.166.Ava.Davis.XXX.IMAGESET-FuGLi
2022-11-29 17:09:13 TV-HD Guru.S02E04.Lets.Go.Survive.DANiSH.720p.WEB.h264-JYSK
2022-11-29 17:09:15 IMGSET AmKingdom.com_22.11.29.Amateurs.Series.21.Softcore.166.Lindsay.Lee.XXX.IMAGESET-FuGLi
2022-11-29 17:10:06 TV-HD Guru.S02E04.Lets.Go.Survive.DANiSH.1080p.WEB.h264-JYSK
2022-11-29 17:11:01 IMGSET AmKingdom.com_22.11.29.Amateurs.Series.21.Softcore.166.Maria.Kazi.XXX.IMAGESET-FuGLi
2022-11-29 17:11:01 TV-HD Guru.S02E05.Separate.Your.Self.DANiSH.720p.WEB.h264-JYSK
2022-11-29 17:12:04 TV-HD Guru.S02E05.Separate.Your.Self.DANiSH.1080p.WEB.h264-JYSK
2022-11-29 17:12:51 TV-HD Guru.S02E06.Be.The.Miracle.DANiSH.720p.WEB.h264-JYSK
2022-11-29 17:16:59 TV-HD Guru.S02E06.Be.The.Miracle.DANiSH.1080p.WEB.h264-JYSK
2022-11-29 17:20:59 TV-HD Lisa.S04E62.FLEMISH.1080p.WEB.h264-TRIPEL
2022-11-29 17:21:41 TV-HD Le.Late.Avec.Alain.Chabat.S01E06.FRENCH.1080p.WEB.H264-AMB3R
2022-11-29 17:22:17 TV-HD Danske.Mord.S04E01.En.Seriemorders.Signatur.DANiSH.720p.WEB.h264-JYSK
2022-11-29 17:22:49 TV-HD Danske.Mord.S04E01.En.Seriemorders.Signatur.DANiSH.1080p.WEB.h264-JYSK
2022-11-29 17:23:52 TV-HD Danske.Mord.S04E02.Naar.Flokken.Draeber.DANiSH.720p.WEB.h264-JYSK
2022-11-29 17:25:06 TV-HD Danske.Mord.S04E02.Naar.Flokken.Draeber.DANiSH.1080p.WEB.h264-JYSK
2022-11-29 17:26:08 TV-HD Danske.Mord.S04E03.De.Usynlige.Spor.DANiSH.720p.WEB.h264-JYSK
2022-11-29 17:26:53 TV-HD NHL.2022.11.28.Dallas.Stars.vs.St.Louis.Blues.720p.WEB.h264-SPORTSNET
2022-11-29 17:26:56 SUBPACK Robin.Hood.Prince.of.Thieves.EXTENDED.NORDiC.SUBPACK.BluRay-REQ
2022-11-29 17:27:26 TV-HD Danske.Mord.S04E03.De.Usynlige.Spor.DANiSH.1080p.WEB.h264-JYSK
2022-11-29 17:29:01 TV-HD NHL.2022.11.28.Vegas.Golden.Knights.vs.Columbus.Blue.Jackets.720p.WEB.h264-SPORTSNET
2022-11-29 17:31:45 TV-HD Shaunie.and.Keions.Destination.I.Do.S01E01.1080p.WEB.h264-BAE
2022-11-29 17:31:48 TV-HD Shaunie.and.Keions.Destination.I.Do.S01E01.720p.WEB.h264-BAE
2022-11-29 17:31:50 TV-HD VH1.Family.Reunion.Love.and.Hip.Hop.Edition.S03E01.1080p.WEB.h264-BAE
2022-11-29 17:31:52 TV-HD VH1.Family.Reunion.Love.and.Hip.Hop.Edition.S03E01.720p.WEB.h264-BAE
2022-11-29 17:39:49 TV-HD Adam.Adam.2015.iTALiAN.1080p.WEB.H264-CHEOPE
2022-11-29 17:41:10 TV-HD Adam.Adam.2015.iTALiAN.720p.WEB.H264-CHEOPE
2022-11-29 17:41:34 TV-HD NHL.2022.11.28.Florida.Panthers.vs.Edmonton.Oilers.720p.WEB.h264-SPORTSNET
2022-11-29 17:43:38 X264 DC.League.of.Super-Pets.2022.iTALiAN.1080p.BluRay.x264-CHEOPE
2022-11-29 17:44:07 MP3 DDMS--Tintin_EP-(CYN091)-WEB-2016-BABAS
2022-11-29 17:44:30 MP3 Brett_Johnson_x_Dave_Barker--Temptation_And_Lies-The_Cynosure_Remixes-(CYN035)-WEB-2009-BABAS
2022-11-29 17:44:36 NSW Minecraft_Update_v1.19.50_NSW-SUXXORS
2022-11-29 17:44:53 MP3 Bucci_x_Pink_Elln--Badminton-(CYN013)-WEB-2004-BABAS
2022-11-29 17:45:00 X264 DC.League.of.Super-Pets.2022.iTALiAN.720p.BluRay.x264-CHEOPE
2022-11-29 17:45:15 MP3 Ernesto_Fereyra--Exodo_EP-WEB-2007-BABAS
2022-11-29 17:45:37 MP3 Mike_Shannon--Galactics_EP-(CYN085)-WEB-2022-BABAS
2022-11-29 17:46:21 X264 DC.League.of.Super-Pets.2022.iTALiAN.BDRip.x264-CHEOPE
2022-11-29 17:50:38 FLAC VA-Grand_12-Inches_19__Compiled_By_Ben_Liebrand-(19658704362)-4CD-FLAC-2022-WRE
2022-11-29 17:50:51 MP3 Psychobass--Psychedelic_Medicine-(DCREP304)-WEB-2022-BABAS
2022-11-29 18:01:26 EBOOK 451.Media.-.Exmortis.Vol.01.2021.Hybrid.Comic.eBook-BitBook
2022-11-29 18:04:48 EBOOK 451.Media.-.Nvrlnd.Vol.01.2021.Hybrid.Comic.eBook-BitBook
2022-11-29 18:10:14 MP3 Tony_Lionni--Lets_Get_Away-(SRR00119)-WEB-2022-YALLA
2022-11-29 18:11:06 EBOOK 451.Media.-.Self.Storage.2021.Hybrid.Comic.eBook-BitBook
2022-11-29 18:12:43 MP3 VA-Various_Artist_MAAI04-(MAAI04)-WEB-2022-BABAS
2022-11-29 18:13:51 MP3 Bob_Zopp_feat._Armita_Salimi-Raaz-(CDALAB041)-SINGLE-WEB-2022-PTC
2022-11-29 18:14:01 EBOOK Ablaze.-.Belit.And.Valeria.Swords.Vs.Sorcery.No.02.2022.Hybrid.Comic.eBook-BitBook
2022-11-29 18:14:14 MP3 Goda_Brother-Under_the_Stars-(CDALAB045)-SINGLE-WEB-2022-PTC
2022-11-29 18:14:24 MP3 Kiii_Rodriguez-Existence-(CDALAB005)-SINGLE-WEB-2022-PTC
2022-11-29 18:14:39 MP3 Lilova-Rodina-(CDALAB055)-WEB-2022-PTC
2022-11-29 18:14:56 MP3 Organic_Mood-Journey-(CDALAB047)-SINGLE-WEB-2022-PTC
2022-11-29 18:15:13 MP3 Syntonos-Dancing_in_the_Sky-(CDALAB046)-WEB-2022-PTC
2022-11-29 18:15:31 MP3 Tamer_ElDerini-Be_Alright-(CDALAB007)-WEB-2022-PTC
2022-11-29 18:16:14 MP3 VA-Medusozoa_Vol_II-(TARTALB019D)-WEB-2022-BABAS
2022-11-29 18:17:58 EBOOK Ablaze.-.Belit.And.Valeria.Swords.Vs.Sorcery.No.03.2022.Hybrid.Comic.eBook-BitBook
2022-11-29 18:18:09 MP3 Skandal_and_Billy_Esteban-Land-(CDALAB009)-WEB-2022-PTC
2022-11-29 18:18:15 TV-HD Boxing.2022.11.26.Bahdi.vs.Andrade.Chavez.Full.Card.720p.WEB.h264-VERUM
2022-11-29 18:19:11 EBOOK Ablaze.-.Belit.And.Valeria.Swords.Vs.Sorcery.No.04.2022.Hybrid.Comic.eBook-BitBook
2022-11-29 18:19:33 MP3 Marco_Hessler--Aufa-(DDR054)-WEB-2022-YALLA
2022-11-29 18:21:30 GAMES In_Nightmare-FLT
2022-11-29 18:23:07 MP3 Ascending_Divers-Watery_Domain-WEB-2022-AMOK
2022-11-29 18:25:40 MP3 Unformulas-Post_Mortem_Visionary-WEB-2022-BLEEDiNG
2022-11-29 18:26:07 TV-HD Boxing.2022.11.26.Whyte.vs.Franklin.Full.Card.720p.WEB.h264-VERUM
2022-11-29 18:27:26 TV-HD Troldspejlet.Special.S01E05.Truslen.Fra.Verdensrummet.DANiSH.720p.WEB.h264-JYSK
2022-11-29 18:28:17 TV-HD Troldspejlet.Special.S01E05.Truslen.Fra.Verdensrummet.DANiSH.1080p.WEB.h264-JYSK
2022-11-29 18:28:31 EBOOK Ablaze.-.Blitz.Vol.01.2022.Hybrid.Comic.eBook-BitBook
2022-11-29 18:29:56 TV-HD Temptation.Island.VIP.S03E09.GERMAN.720p.WEB.H264-RWP
2022-11-29 18:30:47 TV-HD Temptation.Island.VIP.S03E09.GERMAN.1080p.WEB.H264-RWP
2022-11-29 18:31:10 EBOOK Ablaze.-.Diary.Of.A.Nerd.Vol.02.2022.Hybrid.Comic.eBook-BitBook
2022-11-29 18:31:48 MP3 Jesse_Maas--Les_Yeux-(PIV053)-WEB-2022-BABAS
2022-11-29 18:32:46 EBOOK Ablaze.-.Elle.S.2022.Hybrid.Comic.eBook-BitBook
2022-11-29 18:36:43 MP3 ARANAVA_and_Luciana-Sunshine-(CDALAB034)-WEB-2022-PTC
2022-11-29 18:37:01 MP3 Ilija_Frapp_and_Atman_Electronic-Abu_Ramla-(CDALAB048)-WEB-2022-PTC
2022-11-29 18:37:33 TV-HD Le.Late.Avec.Alain.Chabat.S01E06.FRENCH.720p.WEB.H264-AMB3R
2022-11-29 18:37:39 TV-SD Le.Late.Avec.Alain.Chabat.S01E06.FRENCH.WEB.H264-AMB3R
2022-11-29 18:39:39 EBOOK Ablaze.-.Gung.Ho.Vol.01.2021.Hybrid.Comic.eBook-BitBook
2022-11-29 18:43:26 MP3 Wassim_Younes_and_Christina_Garcia-Vague_Nomade-(CDALAB021)-WEB-2022-PTC
2022-11-29 18:44:12 EBOOK Ablaze.-.Hendrix.Electric.Requiem.2022.Hybrid.Comic.eBook-BitBook
2022-11-29 18:45:41 MP3 Decades--Be_There-(SLWSPR003)-SINGLE-WEB-2022-BABAS
2022-11-29 18:46:03 MP3 Yesca--Set_Me_Free__MAD_GRX-(SLWSPR002)-WEB-2022-BABAS
2022-11-29 18:46:25 MP3 Dan_Be--Lingo__Puma-(SLWSPR001)-WEB-2022-BABAS
2022-11-29 18:51:39 EBOOK Ablaze.-.Jurrasik.Diaries.2022.Hybrid.Comic.eBook-BitBook
2022-11-29 18:52:57 EBOOK Ablaze.-.Life.Zero.No.05.2022.Hybrid.Comic.eBook-BitBook
2022-11-29 18:55:56 EBOOK Ablaze.-.Life.Zero.No.06.2022.Hybrid.Comic.eBook-BitBook
2022-11-29 18:56:52 EBOOK Ablaze.-.Lovecraft.Unknown.Kadath.No.01.2022.Hybrid.Comic.eBook-BitBook
2022-11-29 19:01:40 TV-HD Chainsaw.Man.E08.SUBFRENCH.1080p.WEB.x264-AMB3R
2022-11-29 19:02:37 EBOOK Ablaze.-.Lovecraft.Unknown.Kadath.No.02.2022.Hybrid.Comic.eBook-BitBook
2022-11-29 19:05:47 TV-HD Familie.S32E67.FLEMISH.1080p.WEB.h264-TRIPEL
2022-11-29 19:06:09 EBOOK Ablaze.-.Maria.Llovet.s.Porcelain.No.03.2021.Hybrid.Comic.eBook-BitBook
2022-11-29 19:06:27 MP3 Paperclip_Minimiser--Paperclip_Minimiser-(PEAK14)-WEB-2022-BABAS
2022-11-29 19:09:53 EBOOK Ablaze.-.Maria.Llovet.s.Porcelain.Vol.01.2022.Hybrid.Comic.eBook-BitBook
2022-11-29 19:11:08 EBOOK Ablaze.-.Promethee.1313.No.02.2022.Hybrid.Comic.eBook-BitBook
2022-11-29 19:12:33 TV-HD FIFA.World.Cup.2022.Group.Stage.Equador.Vs.Senegal.720p.WEB.H264-SPORTSNET
2022-11-29 19:12:48 FLAC Genghis_Tron-Dream_Weapon-JP_Retail-CD-FLAC-2021-FAiNT
2022-11-29 19:14:05 EBOOK Ablaze.-.Promethee.1313.No.03.2022.Hybrid.Comic.eBook-BitBook
2022-11-29 19:15:33 EBOOK Ablaze.-.The.Boogyman.No.02.2022.Hybrid.Comic.eBook-BitBook
2022-11-29 19:17:16 IMGSET ATKPremium.com_22.11.29.Natasha.Malkova.XXX.IMAGESET-FuGLi
2022-11-29 19:19:38 EBOOK Ablaze.-.The.Cimmerian.Beyond.The.Black.River.No.02.2021.Hybrid.Comic.eBook-BitBook
2022-11-29 19:20:50 EBOOK Ablaze.-.The.Cimmerian.Hour.Of.The.Dragon.No.04.2022.Hybrid.Comic.eBook-BitBook
2022-11-29 19:22:17 MP3 Alfrenk-Tribal_Heart-(DW275)-WEB-2022-PTC
2022-11-29 19:27:00 EBOOK Ablaze.-.The.Cimmerian.People.Of.The.Black.Circle.No.01.2021.Hybrid.Comic.eBook-BitBook
2022-11-29 19:27:26 MP3 Leech--Data_Horde-(PEAK10)-WEB-2019-BABAS
2022-11-29 19:27:48 MP3 Strategy--Pressure_Wassure-(PEAK06)-WEB-2014-BABAS
2022-11-29 19:29:57 TV-HD The.Kelly.Clarkson.Show.2022.11.22.Jonathan.Majors.1080p.WEB.h264-DiRT
2022-11-29 19:30:10 TV-HD The.Kelly.Clarkson.Show.2022.11.22.Jonathan.Majors.720p.WEB.h264-DiRT
2022-11-29 19:30:21 TV-HD The.Kelly.Clarkson.Show.2022.11.28.Sarah.Hyland.1080p.WEB.h264-DiRT
2022-11-29 19:30:21 EBOOK Ablaze.-.The.Cimmerian.People.Of.The.Black.Circle.No.02.2021.Hybrid.Comic.eBook-BitBook
2022-11-29 19:30:33 TV-HD The.Kelly.Clarkson.Show.2022.11.28.Sarah.Hyland.720p.WEB.h264-DiRT
2022-11-29 19:36:17 EBOOK Ablaze.-.The.Cimmerian.People.Of.The.Black.Circle.No.03.2021.Hybrid.Comic.eBook-BitBook
2022-11-29 19:38:10 MP3 DJ_Larry_Law--Black_Beats_(Planet_Radio)-DVBS-10-13-2022-OMA
2022-11-29 19:38:19 TV-HD Na.lovu.S02E68.1080p.WEB.X264.CZ-SDTV
2022-11-29 19:39:14 MP3 DJ_Mary-C--Black_Beats_(Planet_Radio)-DVBS-10-13-2022-OMA
2022-11-29 19:39:48 MP3 DJ_SA--Black_Beats_(Planet_Radio)-DVBS-10-20-2022-OMA
2022-11-29 19:40:00 MP3 William_Florelle--Vessel-(GRVNC07)-WEB-2022-YALLA
2022-11-29 19:40:43 MP3 DJ_White-T--Black_Beats_(Planet_Radio)-DVBS-10-20-2022-OMA
2022-11-29 19:42:09 MP3 DJ_Mighty_Mike--Black_Beats_(Planet_Radio)-DVBS-10-27-2022-OMA
2022-11-29 19:42:54 EBOOK Ablaze.-.The.Cimmerian.Red.Nails.No.01.2021.Hybrid.Comic.eBook-BitBook
2022-11-29 19:43:07 X264 River.City.2022.10.17.1080p.WEBRip.x264-FaiLED
2022-11-29 19:43:18 MP3 Crass-Stations_Of_The_Crass-The_Crassical_Collection-2CD-(Remastered)-2020-FNT
2022-11-29 19:43:29 X264 River.City.2022.10.17.720p.WEBRip.x264-FaiLED
2022-11-29 19:43:53 X264 River.City.2022.10.19.1080p.WEBRip.x264-FaiLED
2022-11-29 19:44:06 MP3 DJ_Morrison--Black_Beats_(Planet_Radio)-DVBS-10-27-2022-OMA
2022-11-29 19:44:15 X264 River.City.2022.10.19.720p.WEBRip.x264-FaiLED
2022-11-29 19:44:38 X264 River.City.2022.10.24.1080p.WEBRip.x264-FaiLED
2022-11-29 19:45:00 X264 River.City.2022.10.24.720p.WEBRip.x264-FaiLED
2022-11-29 19:45:23 X264 River.City.2022.10.26.1080p.WEBRip.x264-FaiLED
2022-11-29 19:45:28 MP3 DJ_Ray-D_and_DJ_Rapture--Black_Beats_(Planet_Radio)-DVBS-11-03-2022-OMA
2022-11-29 19:45:41 EBOOK Ablaze.-.The.Cimmerian.Red.Nails.No.02.2021.Hybrid.Comic.eBook-BitBook
2022-11-29 19:45:46 X264 River.City.2022.10.26.720p.WEBRip.x264-FaiLED
2022-11-29 19:46:08 X264 River.City.2022.10.31.1080p.WEBRip.x264-FaiLED
2022-11-29 19:46:10 TV-HD Juice.1992.DV.2160p.WEB.H265-RVKD
2022-11-29 19:46:23 MP3 DJ_Merto--Black_Beats_(Planet_Radio)-DVBS-11-03-2022-OMA
2022-11-29 19:46:31 X264 River.City.2022.10.31.720p.WEBRip.x264-FaiLED
2022-11-29 19:46:54 X264 River.City.2022.11.02.1080p.WEBRip.x264-FaiLED
2022-11-29 19:47:17 X264 River.City.2022.11.02.720p.WEBRip.x264-FaiLED
2022-11-29 19:47:40 X264 River.City.2022.11.07.1080p.WEBRip.x264-FaiLED
2022-11-29 19:48:02 X264 River.City.2022.11.07.720p.WEBRip.x264-FaiLED
2022-11-29 19:48:20 EBOOK Ablaze.-.The.Cimmerian.The.Frost.Giant.s.Daughter.No.01.2021.Hybrid.Comic.eBook-BitBook
2022-11-29 19:48:25 X264 River.City.2022.11.09.1080p.WEBRip.x264-FaiLED
2022-11-29 19:48:29 TV-HD Latem.Leven.S02E02.FLEMISH.1080p.WEB.h264-TRIPEL
2022-11-29 19:48:47 X264 River.City.2022.11.09.720p.WEBRip.x264-FaiLED
2022-11-29 19:49:10 X264 River.City.2022.11.14.1080p.WEBRip.x264-FaiLED
2022-11-29 19:49:32 X264 River.City.2022.11.14.720p.WEBRip.x264-FaiLED
2022-11-29 19:49:55 X264 River.City.2022.11.16.1080p.WEBRip.x264-FaiLED
2022-11-29 19:50:12 EBOOK Ablaze.-.The.Cimmerian.The.Frost.Giant.s.Daughter.No.02.2021.Hybrid.Comic.eBook-BitBook
2022-11-29 19:50:17 X264 River.City.2022.11.16.720p.WEBRip.x264-FaiLED
2022-11-29 19:50:32 MP3 Reabilitator-Mentally_Defected-WEB-2022-BLEEDiNG
2022-11-29 19:52:08 EBOOK Ablaze.-.The.Cimmerian.The.Frost.Giant.s.Daughter.No.03.2021.Hybrid.Comic.eBook-BitBook
2022-11-29 19:55:04 XXX NaughtyOffice.22.11.28.Cadence.Lux.XXX.VR180.4096p.MP4-VACCiNE
2022-11-29 19:56:36 EBOOK Ablaze.-.The.Cimmerian.Vol.04.2022.Hybrid.Comic.eBook-BitBook
2022-11-29 19:56:57 TV-HD Haul.out.the.Holly.2022.1080p.WEB.h264-FaiLED
2022-11-29 19:57:06 BLURAY Halo.S01D01.COMPLETE.BLURAY-HiBOU
2022-11-29 19:57:25 TV-HD Haul.out.the.Holly.2022.720p.WEB.h264-FaiLED
2022-11-29 19:58:10 EBOOK Ablaze.-.Traveling.To.Mars.No.01.2022.Hybrid.Comic.eBook-BitBook
2022-11-29 19:58:17 XXX MyNaughtyMassage.22.11.29.Rachel.Starr.REMASTERED.XXX.VR180.3072p.MP4-VACCiNE
2022-11-29 20:01:06 MP3 Second_to_Sun-Nocturnal_Philosophy-WEB-2022-BLEEDiNG
2022-11-29 20:01:28 TV-HD Alle.meine.Frauen.S07E02.German.1080p.WEB.h264-TVNATiON
2022-11-29 20:01:34 BLURAY Halo.S01D02.COMPLETE.BLURAY-HiBOU
2022-11-29 20:01:44 EBOOK Ablaze.-.Trese.Vol.05.Midnight.Tribunal.2022.Hybrid.Comic.eBook-BitBook
2022-11-29 20:02:04 TV-HD Alle.meine.Frauen.S07E02.German.720p.WEB.h264-TVNATiON
2022-11-29 20:02:39 TV-HD Alle.meine.Frauen.S07E03.German.1080p.WEB.h264-TVNATiON
2022-11-29 20:03:14 TV-HD Alle.meine.Frauen.S07E03.German.720p.WEB.h264-TVNATiON
2022-11-29 20:03:17 TV-HD Respect.2021.2160p.WEB.H265-RVKD
2022-11-29 20:03:49 TV-HD Alle.meine.Frauen.S07E04.German.1080p.WEB.h264-TVNATiON
2022-11-29 20:04:25 TV-HD Alle.meine.Frauen.S07E04.German.720p.WEB.h264-TVNATiON
2022-11-29 20:04:31 EBOOK Ablaze.-.Zombie.Makeout.Club.Vol.01.2022.Hybrid.Comic.eBook-BitBook
2022-11-29 20:04:59 TV-HD Alle.meine.Frauen.S07E05.German.1080p.WEB.h264-TVNATiON
2022-11-29 20:05:21 XXX DarkRoomVR.21.10.01.Anastasia.Ocean.Who.Did.This.to.You.XXX.VR180.3630p.MP4-VACCiNE
2022-11-29 20:05:35 TV-HD Alle.meine.Frauen.S07E05.German.720p.WEB.h264-TVNATiON
2022-11-29 20:05:42 BLURAY Halo.S01D03.COMPLETE.BLURAY-HiBOU
2022-11-29 20:06:10 TV-HD Alle.meine.Frauen.S07E06.German.1080p.WEB.h264-TVNATiON
2022-11-29 20:06:45 TV-HD Alle.meine.Frauen.S07E06.German.720p.WEB.h264-TVNATiON
2022-11-29 20:06:53 XXX DarkRoomVR.21.10.08.Leria.Glow.The.Student.XXX.VR180.3630p.MP4-VACCiNE
2022-11-29 20:07:20 TV-HD Alle.meine.Frauen.S07E07.German.1080p.WEB.h264-TVNATiON
2022-11-29 20:07:55 TV-HD Alle.meine.Frauen.S07E07.German.720p.WEB.h264-TVNATiON
2022-11-29 20:08:30 TV-HD Alle.meine.Frauen.S07E08.German.1080p.WEB.h264-TVNATiON
2022-11-29 20:09:05 TV-HD Alle.meine.Frauen.S07E08.German.720p.WEB.h264-TVNATiON
2022-11-29 20:09:06 BLURAY Halo.S01D04.COMPLETE.BLURAY-HiBOU
2022-11-29 20:09:19 EBOOK Arcana.-.Blade.Of.Kumori.Vol.01.No.01.2022.Hybrid.Comic.eBook-BitBook
2022-11-29 20:09:40 TV-HD Alle.meine.Frauen.S08E02.German.1080p.WEB.h264-TVNATiON
2022-11-29 20:10:15 TV-HD Alle.meine.Frauen.S08E02.German.720p.WEB.h264-TVNATiON
2022-11-29 20:10:22 EBOOK Asylum.Press.-.The.Vampire.Verses.No.01.2015.Hybrid.Comic.eBook-BitBook
2022-11-29 20:10:47 XXX DarkRoomVR.21.10.15.St.Martha.Special.Delivery.XXX.VR180.3630p.MP4-VACCiNE
2022-11-29 20:10:50 TV-HD Alle.meine.Frauen.S08E03.German.1080p.WEB.h264-TVNATiON
2022-11-29 20:11:03 FLAC Crass-Stations_Of_The_Crass-Crassical_Collection-2CD-REMASTERED-FLAC-2020-FAiNT
2022-11-29 20:11:25 TV-HD Alle.meine.Frauen.S08E03.German.720p.WEB.h264-TVNATiON
2022-11-29 20:11:35 TV-HD Sort.Of.S02E05.1080p.WEBRip.x264-BAE
2022-11-29 20:11:38 TV-HD Sort.Of.S02E05.720p.WEBRip.x264-BAE
2022-11-29 20:11:39 TV-HD Sort.Of.S02E06.1080p.WEBRip.x264-BAE
2022-11-29 20:11:41 TV-HD Sort.Of.S02E06.720p.WEBRip.x264-BAE
2022-11-29 20:11:54 MP3 Ink_and_Fire-Execution_of_Spirit-WEB-2022-BLEEDiNG
2022-11-29 20:12:00 TV-HD Alle.meine.Frauen.S08E04.German.1080p.WEB.h264-TVNATiON
2022-11-29 20:12:18 EBOOK Cave.Pictures.-.The.Light.Princess.No.01.2020.Hybrid.Comic.eBook-BitBook
2022-11-29 20:12:35 TV-HD Alle.meine.Frauen.S08E04.German.720p.WEB.h264-TVNATiON
2022-11-29 20:13:10 TV-HD Alle.meine.Frauen.S08E05.German.1080p.WEB.h264-TVNATiON
2022-11-29 20:13:20 ANIME How.a.Realist.Hero.Rebuilt.the.Kingdom.S01E23.German.ANiME.BDRip.x264-SUBARU
2022-11-29 20:13:22 ANIME How.a.Realist.Hero.Rebuilt.the.Kingdom.S01E24.German.ANiME.BDRip.x264-SUBARU
2022-11-29 20:13:23 ANIME How.a.Realist.Hero.Rebuilt.the.Kingdom.S01E25.German.ANiME.BDRip.x264-SUBARU
2022-11-29 20:13:24 ANIME How.a.Realist.Hero.Rebuilt.the.Kingdom.S01E26.German.ANiME.BDRip.x264-SUBARU
2022-11-29 20:13:35 BLURAY Halo.S01D05.COMPLETE.BLURAY-HiBOU
2022-11-29 20:13:46 TV-HD Alle.meine.Frauen.S08E05.German.720p.WEB.h264-TVNATiON
2022-11-29 20:14:21 TV-HD Alle.meine.Frauen.S08E06.German.1080p.WEB.h264-TVNATiON
2022-11-29 20:14:42 EBOOK Cave.Pictures.-.The.Light.Princess.No.02.2020.Hybrid.Comic.eBook-BitBook
2022-11-29 20:14:56 TV-HD Alle.meine.Frauen.S08E06.German.720p.WEB.h264-TVNATiON
2022-11-29 20:15:30 TV-HD Alle.meine.Frauen.S08E07.German.1080p.WEB.h264-TVNATiON
2022-11-29 20:15:58 EBOOK Cave.Pictures.-.The.Light.Princess.No.03.2020.Hybrid.Comic.eBook-BitBook
2022-11-29 20:16:05 TV-HD Alle.meine.Frauen.S08E07.German.720p.WEB.h264-TVNATiON
2022-11-29 20:16:06 ANIME How.a.Realist.Hero.Rebuilt.the.Kingdom.S01E23.German.DL.ANiME.720p.BluRay.x264-SUBARU
2022-11-29 20:16:07 ANIME How.a.Realist.Hero.Rebuilt.the.Kingdom.S01E24.German.DL.ANiME.720p.BluRay.x264-SUBARU
2022-11-29 20:16:09 ANIME How.a.Realist.Hero.Rebuilt.the.Kingdom.S01E25.German.DL.ANiME.720p.BluRay.x264-SUBARU
2022-11-29 20:16:10 ANIME How.a.Realist.Hero.Rebuilt.the.Kingdom.S01E26.German.DL.ANiME.720p.BluRay.x264-SUBARU
2022-11-29 20:16:40 TV-HD Alle.meine.Frauen.S08E08.German.1080p.WEB.h264-TVNATiON
2022-11-29 20:16:43 TV-HD Vier.Freunde.und.die.Geisterhand.S02E02.GERMAN.DUBBED.DL.HDR.2160p.WEB.h265-WiSHTV
2022-11-29 20:16:45 ANIME How.a.Realist.Hero.Rebuilt.the.Kingdom.S01E23.German.DL.ANiME.1080p.BluRay.x264-SUBARU
2022-11-29 20:16:46 ANIME How.a.Realist.Hero.Rebuilt.the.Kingdom.S01E26.German.DL.ANiME.1080p.BluRay.x264-SUBARU
2022-11-29 20:16:46 ANIME How.a.Realist.Hero.Rebuilt.the.Kingdom.S01E25.German.DL.ANiME.1080p.BluRay.x264-SUBARU
2022-11-29 20:16:46 ANIME How.a.Realist.Hero.Rebuilt.the.Kingdom.S01E24.German.DL.ANiME.1080p.BluRay.x264-SUBARU
2022-11-29 20:17:06 EBOOK Cave.Pictures.-.The.Light.Princess.No.04.2020.Hybrid.Comic.eBook-BitBook
2022-11-29 20:17:16 TV-HD Alle.meine.Frauen.S08E08.German.720p.WEB.h264-TVNATiON
2022-11-29 20:17:46 XXX DarkRoomVR.21.10.22.Lika.Star.What.is.Your.Excuse.XXX.VR180.3630p.MP4-VACCiNE
2022-11-29 20:17:51 TV-HD Alle.meine.Frauen.S09E02.German.1080p.WEB.h264-TVNATiON
2022-11-29 20:18:19 EBOOK Cave.Pictures.-.The.Light.Princess.No.05.2020.Hybrid.Comic.eBook-BitBook
2022-11-29 20:18:25 TV-HD Alle.meine.Frauen.S09E02.German.720p.WEB.h264-TVNATiON
2022-11-29 20:19:00 TV-HD Alle.meine.Frauen.S09E03.German.1080p.WEB.h264-TVNATiON
2022-11-29 20:19:24 TV-HD Vier.Freunde.und.die.Geisterhand.S02E03.GERMAN.DUBBED.DL.HDR.2160p.WEB.h265-WiSHTV
2022-11-29 20:19:36 TV-HD Alle.meine.Frauen.S09E04.German.720p.WEB.h264-TVNATiON
2022-11-29 20:20:03 TV-HD Resident.Alien.S02E13.FRENCH.720p.WEB.H264-FREAMON
2022-11-29 20:20:11 TV-HD Alle.meine.Frauen.S09E06.German.1080p.WEB.h264-TVNATiON
2022-11-29 20:20:13 MP3 DJ_Drew_-_Pitch_Control_Powered_by_Beatport-SAT-11-27-2022-TALiON
2022-11-29 20:20:46 XXX DarkRoomVR.21.10.29.Irina.Cage.Theres.Only.One.Way.Out.XXX.VR180.3630p.MP4-VACCiNE
2022-11-29 20:20:55 EBOOK Dark.Horse.-.Always.Never.2022.Hybrid.Comic.eBook-BitBook
2022-11-29 20:20:57 TV-HD Alle.meine.Frauen.S09E06.German.720p.WEB.h264-TVNATiON
2022-11-29 20:21:13 MP3 Purple_Disco_Machine_-_Purple_Disco_Tales-SAT-11-27-2022-TALiON
2022-11-29 20:21:25 TV-HD Vier.Freunde.und.die.Geisterhand.S02E04.GERMAN.DUBBED.DL.HDR.2160p.WEB.h265-WiSHTV
2022-11-29 20:21:32 TV-HD Alle.meine.Frauen.S09E07.German.1080p.WEB.h264-TVNATiON
2022-11-29 20:22:08 TV-HD Alle.meine.Frauen.S09E07.German.720p.WEB.h264-TVNATiON
2022-11-29 20:22:13 MP3 DJ_White_Shadow_-_The_Pool_House-SAT-11-27-2022-TALiON
2022-11-29 20:22:42 TV-HD Alle.meine.Frauen.S09E08.German.1080p.WEB.h264-TVNATiON
2022-11-29 20:23:14 MP3 Ben_Liebrand_-_In_The_Mix_(Radio10)-CABLE-11-26-2022-TALiON
2022-11-29 20:23:17 TV-HD Alle.meine.Frauen.S09E08.German.720p.WEB.h264-TVNATiON
2022-11-29 20:23:26 TV-HD Vier.Freunde.und.die.Geisterhand.S02E05.GERMAN.DUBBED.DL.HDR.2160p.WEB.h265-WiSHTV
2022-11-29 20:23:49 X264 Robin.Hood.Prince.of.Thieves.1991.THEATRiCAL.2160p.UHD.BluRay.x265-GUHZER
2022-11-29 20:23:51 TV-HD Alle.meine.Frauen.S09E09.German.1080p.WEB.h264-TVNATiON
2022-11-29 20:24:14 MP3 Kris_Kross_Amsterdam_-_In_The_Mix_(Q-Music)-CABLE-11-26-2022-TALiON
2022-11-29 20:24:26 TV-HD Alle.meine.Frauen.S09E09.German.720p.WEB.h264-TVNATiON
2022-11-29 20:25:02 TV-HD Alle.meine.Frauen.S09E10.German.1080p.WEB.h264-TVNATiON
2022-11-29 20:25:13 MP3 DJ_Wef_-_In_The_Mix_(FunX)-CABLE-11-26-2022-TALiON
2022-11-29 20:25:27 TV-HD Vier.Freunde.und.die.Geisterhand.S02E06.GERMAN.DUBBED.DL.HDR.2160p.WEB.h265-WiSHTV
2022-11-29 20:25:37 TV-HD Alle.meine.Frauen.S09E10.German.720p.WEB.h264-TVNATiON
2022-11-29 20:26:12 TV-HD Alle.meine.Frauen.S09E11.German.1080p.WEB.h264-TVNATiON
2022-11-29 20:26:13 MP3 Flava_-_Crossover_Radio_(FunX)-CABLE-11-26-2022-TALiON
2022-11-29 20:26:46 TV-HD Alle.meine.Frauen.S09E11.German.720p.WEB.h264-TVNATiON
2022-11-29 20:27:09 TV-HD The.Resort.S01E01.iTALiAN.1080p.WEBRip.x264-RAMSEiS
2022-11-29 20:27:13 MP3 Bijou_-_DND_Radio_014__Incl_Nostalgics_Guestmix-SAT-11-28-2022-TALiON
2022-11-29 20:27:22 TV-HD Alle.meine.Frauen.S09E12.German.1080p.WEB.h264-TVNATiON
2022-11-29 20:27:23 EBOOK Dark.Horse.-.Dragon.Age.Wraiths.Of.Tevinter.2022.Hybrid.Comic.eBook-BitBook
2022-11-29 20:27:30 TV-HD Vier.Freunde.und.die.Geisterhand.S02E07.GERMAN.DUBBED.DL.HDR.2160p.WEB.h265-WiSHTV
2022-11-29 20:27:57 TV-HD Alle.meine.Frauen.S09E12.German.720p.WEB.h264-TVNATiON
2022-11-29 20:28:13 MP3 MK_-_Area10_On_Air-SAT-11-28-2022-TALiON
2022-11-29 20:28:31 TV-HD 1899.S01E01.DV.2160p.WEB.H265-DONUTS
2022-11-29 20:28:34 TV-HD Alle.meine.Frauen.S10E02.German.1080p.WEB.h264-TVNATiON
2022-11-29 20:28:43 TV-HD The.Resort.S01E01.iTALiAN.720p.WEBRip.x264-RAMSEiS
2022-11-29 20:29:12 TV-HD Alle.meine.Frauen.S10E02.German.720p.WEB.h264-TVNATiON
2022-11-29 20:29:13 TV-HD 1899.S01E02.DV.2160p.WEB.H265-DONUTS
2022-11-29 20:29:14 MP3 DJ_Sliink_-_Global_Culture_Radio-SAT-11-28-2022-TALiON
2022-11-29 20:29:40 TV-HD 1899.S01E03.DV.2160p.WEB.H265-DONUTS
2022-11-29 20:29:50 TV-HD Alle.meine.Frauen.S10E03.German.1080p.WEB.h264-TVNATiON
2022-11-29 20:30:11 TV-HD 1899.S01E05.DV.2160p.WEB.H265-DONUTS
2022-11-29 20:30:13 MP3 Josh_Wink_-_Profound_Sounds-SAT-11-29-2022-TALiON
2022-11-29 20:30:21 TV-SD The.Resort.S01E01.iTALiAN.WEBRip.x264-RAMSEiS
2022-11-29 20:30:25 TV-HD Alle.meine.Frauen.S10E03.German.720p.WEB.h264-TVNATiON
2022-11-29 20:30:33 TV-HD 1899.S01E06.DV.2160p.WEB.H265-DONUTS
2022-11-29 20:30:59 TV-HD Alle.meine.Frauen.S10E04.German.1080p.WEB.h264-TVNATiON
2022-11-29 20:31:03 TV-HD Vier.Freunde.und.die.Geisterhand.S02E08.GERMAN.DUBBED.DL.HDR.2160p.WEB.h265-WiSHTV
2022-11-29 20:31:13 MP3 Claptone_-_Clapcast_384-CABLE-11-26-2022-TALiON
2022-11-29 20:31:17 TV-HD 1899.S01E07.DV.2160p.WEB.H265-DONUTS
2022-11-29 20:31:33 TV-HD Alle.meine.Frauen.S10E04.German.720p.WEB.h264-TVNATiON
2022-11-29 20:31:46 TV-HD 1899.S01E04.DV.2160p.WEB.H265-DONUTS
2022-11-29 20:31:57 TV-HD The.Resort.S01E02.iTALiAN.1080p.WEBRip.x264-RAMSEiS
2022-11-29 20:32:08 TV-HD Alle.meine.Frauen.S10E05.German.1080p.WEB.h264-TVNATiON
2022-11-29 20:32:09 TV-HD 1899.S01E08.DV.2160p.WEB.H265-DONUTS
2022-11-29 20:32:13 MP3 Don_Diablo_-_Hexagon_Radio_408-CABLE-11-26-2022-TALiON
2022-11-29 20:32:13 EBOOK Dark.Horse.-.Joy.Operations.2022.Hybrid.Comic.eBook-BitBook
2022-11-29 20:32:42 TV-HD Alle.meine.Frauen.S10E05.German.720p.WEB.h264-TVNATiON
2022-11-29 20:33:13 MP3 Alok_-_The_Controversia-CABLE-11-26-2022-TALiON
2022-11-29 20:33:17 TV-HD Alle.meine.Frauen.S10E06.German.1080p.WEB.h264-TVNATiON
2022-11-29 20:33:23 TV-HD The.Resort.S01E02.iTALiAN.720p.WEBRip.x264-RAMSEiS
2022-11-29 20:33:51 TV-HD Alle.meine.Frauen.S10E06.German.720p.WEB.h264-TVNATiON
2022-11-29 20:34:13 MP3 Fedde_Le_Grand_-_Darklight_Sessions-CABLE-11-26-2022-TALiON
2022-11-29 20:34:25 TV-HD Alle.meine.Frauen.S10E08.German.1080p.WEB.h264-TVNATiON
2022-11-29 20:34:36 TV-HD Vier.Freunde.und.die.Geisterhand.S02E09.GERMAN.DUBBED.DL.HDR.2160p.WEB.h265-WiSHTV
2022-11-29 20:34:50 TV-SD The.Resort.S01E02.iTALiAN.WEBRip.x264-RAMSEiS
2022-11-29 20:35:00 TV-HD Alle.meine.Frauen.S10E08.German.720p.WEB.h264-TVNATiON
2022-11-29 20:35:14 MP3 Afrojack_-_Jacked_Radio_579-CABLE-11-27-2022-TALiON
2022-11-29 20:35:34 TV-HD Alle.meine.Frauen.S10E09.German.1080p.WEB.h264-TVNATiON
2022-11-29 20:36:09 TV-HD Alle.meine.Frauen.S10E09.German.720p.WEB.h264-TVNATiON
2022-11-29 20:36:13 MP3 Dimitri_Vegas_and_Like_Mike_-_Smash_The_House-CABLE-11-27-2022-TALiON
2022-11-29 20:36:26 TV-HD The.Resort.S01E03.iTALiAN.1080p.WEBRip.x264-RAMSEiS
2022-11-29 20:36:44 TV-HD Alle.meine.Frauen.S10E10.German.1080p.WEB.h264-TVNATiON
2022-11-29 20:37:19 TV-HD Alle.meine.Frauen.S10E10.German.720p.WEB.h264-TVNATiON
2022-11-29 20:37:50 TV-HD Cobra.Kai.S04E01.HDR.2160p.WEB.H265-DONUTS
2022-11-29 20:37:55 TV-HD Alle.meine.Frauen.S10E12.German.1080p.WEB.h264-TVNATiON
2022-11-29 20:38:04 TV-HD The.Resort.S01E03.iTALiAN.720p.WEBRip.x264-RAMSEiS
2022-11-29 20:38:29 TV-HD Alle.meine.Frauen.S10E12.German.720p.WEB.h264-TVNATiON
2022-11-29 20:38:39 TV-HD Cobra.Kai.S04E02.HDR.2160p.WEB.H265-DONUTS
2022-11-29 20:38:55 EBOOK Le.Sang.Noir.Integrale.2007.FRENCH.HYBRiD.COMiC.CBZ.eBook-TONER
2022-11-29 20:39:03 TV-HD Alle.meine.Frauen.S11E02.German.1080p.WEB.h264-TVNATiON
2022-11-29 20:39:33 TV-SD The.Resort.S01E03.iTALiAN.WEBRip.x264-RAMSEiS
2022-11-29 20:39:35 EBOOK Le.Sang.Noir.Integrale.2007.FRENCH.HYBRiD.COMiC.iNTERNAL.eBook-TONER
2022-11-29 20:39:37 TV-HD Alle.meine.Frauen.S11E02.German.720p.WEB.h264-TVNATiON
2022-11-29 20:39:56 TV-HD Cobra.Kai.S04E03.HDR.2160p.WEB.H265-DONUTS
2022-11-29 20:40:11 TV-HD Alle.meine.Frauen.S11E03.German.1080p.WEB.h264-TVNATiON
2022-11-29 20:40:15 EBOOK Nahomi.Integrale.2009.FRENCH.HYBRiD.COMiC.CBZ.eBook-TONER
2022-11-29 20:40:26 TV-HD Cobra.Kai.S04E04.HDR.2160p.WEB.H265-DONUTS
2022-11-29 20:40:45 TV-HD Alle.meine.Frauen.S11E03.German.720p.WEB.h264-TVNATiON
2022-11-29 20:40:55 EBOOK Nahomi.Integrale.2009.FRENCH.HYBRiD.COMiC.iNTERNAL.eBook-TONER
2022-11-29 20:40:56 TV-HD Cobra.Kai.S04E05.HDR.2160p.WEB.H265-DONUTS
2022-11-29 20:41:00 TV-HD The.Resort.S01E04.iTALiAN.1080p.WEBRip.x264-RAMSEiS
2022-11-29 20:41:19 TV-HD Alle.meine.Frauen.S11E04.German.1080p.WEB.h264-TVNATiON
2022-11-29 20:41:23 TV-HD Cobra.Kai.S04E06.HDR.2160p.WEB.H265-DONUTS
2022-11-29 20:41:35 EBOOK Odilon.Verjus.Integrale.T01.2020.FRENCH.HYBRiD.COMiC.CBZ.eBook-TONER
2022-11-29 20:41:48 TV-HD Cobra.Kai.S04E07.HDR.2160p.WEB.H265-DONUTS
2022-11-29 20:41:53 TV-HD Alle.meine.Frauen.S11E04.German.720p.WEB.h264-TVNATiON
2022-11-29 20:42:15 EBOOK Odilon.Verjus.Integrale.T01.2020.FRENCH.HYBRiD.COMiC.iNTERNAL.eBook-TONER
2022-11-29 20:42:23 TV-HD The.Resort.S01E04.iTALiAN.720p.WEBRip.x264-RAMSEiS
2022-11-29 20:42:26 TV-HD Cobra.Kai.S04E08.HDR.2160p.WEB.H265-DONUTS
2022-11-29 20:42:27 TV-HD Alle.meine.Frauen.S11E05.German.1080p.WEB.h264-TVNATiON
2022-11-29 20:42:56 EBOOK Odilon.Verjus.Integrale.T02.2021.FRENCH.HYBRiD.COMiC.CBZ.eBook-TONER
2022-11-29 20:43:04 TV-HD Alle.meine.Frauen.S11E05.German.720p.WEB.h264-TVNATiON
2022-11-29 20:43:36 EBOOK Odilon.Verjus.Integrale.T02.2021.FRENCH.HYBRiD.COMiC.iNTERNAL.eBook-TONER
2022-11-29 20:43:40 TV-HD Alle.meine.Frauen.S11E06.German.1080p.WEB.h264-TVNATiON
2022-11-29 20:43:43 TV-HD Cobra.Kai.S04E09.HDR.2160p.WEB.H265-DONUTS
2022-11-29 20:43:55 TV-SD The.Resort.S01E04.iTALiAN.WEBRip.x264-RAMSEiS
2022-11-29 20:44:06 EBOOK Dark.Horse.-.Star.Wars.Rebels.2022.Hybrid.Comic.eBook-BitBook
2022-11-29 20:44:14 TV-HD Cobra.Kai.S04E10.HDR.2160p.WEB.H265-DONUTS
2022-11-29 20:44:14 TV-HD Alle.meine.Frauen.S11E06.German.720p.WEB.h264-TVNATiON
2022-11-29 20:44:16 EBOOK Ringo.Integrale.2022.FRENCH.HYBRiD.COMiC.CBZ.eBook-TONER
2022-11-29 20:44:50 TV-HD Alle.meine.Frauen.S11E07.German.1080p.WEB.h264-TVNATiON
2022-11-29 20:44:56 EBOOK Ringo.Integrale.2022.FRENCH.HYBRiD.COMiC.iNTERNAL.eBook-TONER
2022-11-29 20:45:17 TV-HD The.Resort.S01E05.iTALiAN.1080p.WEBRip.x264-RAMSEiS
2022-11-29 20:45:24 TV-HD Alle.meine.Frauen.S11E07.German.720p.WEB.h264-TVNATiON
2022-11-29 20:45:36 EBOOK Robin.Dubois.Best.of.T01.2010.FRENCH.HYBRiD.COMiC.CBZ.eBook-TONER
2022-11-29 20:45:59 TV-HD Alle.meine.Frauen.S11E08.German.1080p.WEB.h264-TVNATiON
2022-11-29 20:46:04 TV-HD Cobra.Kai.S05E01.HDR.2160p.WEB.H265-DONUTS
2022-11-29 20:46:16 EBOOK Robin.Dubois.Best.of.T01.2010.FRENCH.HYBRiD.COMiC.iNTERNAL.eBook-TONER
2022-11-29 20:46:32 TV-HD Cobra.Kai.S05E02.HDR.2160p.WEB.H265-DONUTS
2022-11-29 20:46:33 TV-HD Alle.meine.Frauen.S11E08.German.720p.WEB.h264-TVNATiON
2022-11-29 20:46:38 TV-HD The.Resort.S01E05.iTALiAN.720p.WEBRip.x264-RAMSEiS
2022-11-29 20:46:56 EBOOK Robin.Dubois.Best.of.T02.2010.FRENCH.HYBRiD.COMiC.CBZ.eBook-TONER
2022-11-29 20:47:04 TV-HD Cobra.Kai.S05E03.HDR.2160p.WEB.H265-DONUTS
2022-11-29 20:47:08 TV-HD Alle.meine.Frauen.S11E10.German.1080p.WEB.h264-TVNATiON
2022-11-29 20:47:36 EBOOK Robin.Dubois.Best.of.T02.2010.FRENCH.HYBRiD.COMiC.iNTERNAL.eBook-TONER
2022-11-29 20:47:39 TV-HD Cobra.Kai.S05E04.HDR.2160p.WEB.H265-DONUTS
2022-11-29 20:47:55 TV-HD Alle.meine.Frauen.S11E10.German.720p.WEB.h264-TVNATiON
2022-11-29 20:48:00 TV-SD The.Resort.S01E05.iTALiAN.WEBRip.x264-RAMSEiS
2022-11-29 20:48:01 TV-HD Cobra.Kai.S05E05.HDR.2160p.WEB.H265-DONUTS
2022-11-29 20:48:16 EBOOK Robin.Dubois.Best.of.T03.2010.FRENCH.HYBRiD.COMiC.CBZ.eBook-TONER
2022-11-29 20:48:28 TV-HD Cobra.Kai.S05E06.HDR.2160p.WEB.H265-DONUTS
2022-11-29 20:48:29 TV-HD Alle.meine.Frauen.S11E11.German.1080p.WEB.h264-TVNATiON
2022-11-29 20:48:57 EBOOK Robin.Dubois.Best.of.T03.2010.FRENCH.HYBRiD.COMiC.iNTERNAL.eBook-TONER
2022-11-29 20:48:58 TV-HD Cobra.Kai.S05E07.HDR.2160p.WEB.H265-DONUTS
2022-11-29 20:49:07 TV-HD Alle.meine.Frauen.S11E11.German.720p.WEB.h264-TVNATiON
2022-11-29 20:49:22 TV-HD The.Resort.S01E06.iTALiAN.1080p.WEBRip.x264-RAMSEiS
2022-11-29 20:49:23 TV-HD Cobra.Kai.S05E08.HDR.2160p.WEB.H265-DONUTS
2022-11-29 20:49:26 EBOOK Dark.Horse.-.Steeple.Vol.03.2022.Hybrid.Comic.eBook-BitBook
2022-11-29 20:49:37 EBOOK Robin.Dubois.Best.of.T04.2010.FRENCH.HYBRiD.COMiC.CBZ.eBook-TONER
2022-11-29 20:49:41 TV-HD Alle.meine.Frauen.S11E12.German.1080p.WEB.h264-TVNATiON
2022-11-29 20:49:46 TV-HD Cobra.Kai.S05E09.HDR.2160p.WEB.H265-DONUTS
2022-11-29 20:50:15 TV-HD Alle.meine.Frauen.S11E12.German.720p.WEB.h264-TVNATiON
2022-11-29 20:50:17 EBOOK Robin.Dubois.Best.of.T04.2010.FRENCH.HYBRiD.COMiC.iNTERNAL.eBook-TONER
2022-11-29 20:50:25 TV-HD Cobra.Kai.S05E10.HDR.2160p.WEB.H265-DONUTS
2022-11-29 20:50:45 TV-HD The.Resort.S01E06.iTALiAN.720p.WEBRip.x264-RAMSEiS
2022-11-29 20:50:49 TV-HD Alle.meine.Frauen.S11E13.German.1080p.WEB.h264-TVNATiON
2022-11-29 20:50:57 EBOOK Saga.Valta.Integrale.2019.FRENCH.HYBRiD.COMiC.CBZ.eBook-TONER
2022-11-29 20:51:22 TV-HD Alle.meine.Frauen.S11E13.German.720p.WEB.h264-TVNATiON
2022-11-29 20:51:37 EBOOK Saga.Valta.Integrale.2019.FRENCH.HYBRiD.COMiC.iNTERNAL.eBook-TONER
2022-11-29 20:51:56 TV-HD Alle.meine.Frauen.S11E14.German.1080p.WEB.h264-TVNATiON
2022-11-29 20:52:02 EBOOK Chinaman.Integrale.T01.2021.FRENCH.HYBRiD.COMiC.CBZ.eBook-TONER
2022-11-29 20:52:07 TV-SD The.Resort.S01E06.iTALiAN.WEBRip.x264-RAMSEiS
2022-11-29 20:52:17 EBOOK Chinaman.Integrale.T01.2021.FRENCH.HYBRiD.COMiC.iNTERNAL.eBook-TONER
2022-11-29 20:52:29 TV-HD Alle.meine.Frauen.S11E14.German.720p.WEB.h264-TVNATiON
2022-11-29 20:52:32 EBOOK Chinaman.Integrale.T02.2021.FRENCH.HYBRiD.COMiC.CBZ.eBook-TONER
2022-11-29 20:52:48 EBOOK Chinaman.Integrale.T02.2021.FRENCH.HYBRiD.COMiC.iNTERNAL.eBook-TONER
2022-11-29 20:53:03 EBOOK Chinaman.Integrale.T03.2021.FRENCH.HYBRiD.COMiC.CBZ.eBook-TONER
2022-11-29 20:53:10 EBOOK Dark.Horse.-.The.Art.Of.Battletoads.2022.Hybrid.Comic.eBook-BitBook
2022-11-29 20:53:18 EBOOK Chinaman.Integrale.T03.2021.FRENCH.HYBRiD.COMiC.iNTERNAL.eBook-TONER
2022-11-29 20:53:28 TV-HD The.Resort.S01E07.iTALiAN.1080p.WEBRip.x264-RAMSEiS
2022-11-29 20:53:33 EBOOK Chinaman.T01.La.montagne.d.or.2001.FRENCH.HYBRiD.COMiC.CBZ.eBook-TONER
2022-11-29 20:53:38 TV-HD Alle.meine.Frauen.S12E02.German.1080p.WEB.h264-TVNATiON
2022-11-29 20:53:48 EBOOK Chinaman.T01.La.montagne.d.or.2001.FRENCH.HYBRiD.COMiC.iNTERNAL.eBook-TONER
2022-11-29 20:54:04 EBOOK Chinaman.T02.A.armes.egales.2001.FRENCH.HYBRiD.COMiC.CBZ.eBook-TONER
2022-11-29 20:54:11 TV-HD Alle.meine.Frauen.S12E03.German.1080p.WEB.h264-TVNATiON
2022-11-29 20:54:19 EBOOK Chinaman.T02.A.armes.egales.2001.FRENCH.HYBRiD.COMiC.iNTERNAL.eBook-TONER
2022-11-29 20:54:27 TV-HD Resident.Alien.S02E13.MULTi.1080p.WEB.H264-FREAMON
2022-11-29 20:54:34 EBOOK Chinaman.T03.Pour.Rose.2001.FRENCH.HYBRiD.COMiC.CBZ.eBook-TONER
2022-11-29 20:54:45 TV-HD Alle.meine.Frauen.S12E03.German.720p.WEB.h264-TVNATiON
2022-11-29 20:54:50 EBOOK Chinaman.T03.Pour.Rose.2001.FRENCH.HYBRiD.COMiC.iNTERNAL.eBook-TONER
2022-11-29 20:55:04 EBOOK Chinaman.T04.Les.mangeurs.de.rouille.2001.FRENCH.HYBRiD.COMiC.CBZ.eBook-TONER
2022-11-29 20:55:04 TV-HD The.Resort.S01E07.iTALiAN.720p.WEBRip.x264-RAMSEiS
2022-11-29 20:55:18 TV-HD Alle.meine.Frauen.S12E04.German.1080p.WEB.h264-TVNATiON
2022-11-29 20:55:21 EBOOK Chinaman.T04.Les.mangeurs.de.rouille.2001.FRENCH.HYBRiD.COMiC.iNTERNAL.eBook-TONER
2022-11-29 20:55:35 EBOOK Chinaman.T05.Entre.deux.rives.2001.FRENCH.HYBRiD.COMiC.CBZ.eBook-TONER
2022-11-29 20:55:48 X264 Emily.the.Criminal.2022.720p.BluRay.x264-PiGNUS
2022-11-29 20:55:50 EBOOK Chinaman.T05.Entre.deux.rives.2001.FRENCH.HYBRiD.COMiC.iNTERNAL.eBook-TONER
2022-11-29 20:55:52 TV-HD Alle.meine.Frauen.S12E04.German.720p.WEB.h264-TVNATiON
2022-11-29 20:56:03 EBOOK Dark.Horse.-.The.EC.Archives.Crime.Patrol.Vol.01.2022.Hybrid.Comic.eBook-BitBook
2022-11-29 20:56:06 EBOOK Chinaman.T06.Freres.de.sang.2002.FRENCH.HYBRiD.COMiC.CBZ.eBook-TONER
2022-11-29 20:56:21 EBOOK Chinaman.T06.Freres.de.sang.2002.FRENCH.HYBRiD.COMiC.iNTERNAL.eBook-TONER
2022-11-29 20:56:35 TV-SD The.Resort.S01E07.iTALiAN.WEBRip.x264-RAMSEiS
2022-11-29 20:56:36 EBOOK Chinaman.T07.Affrontements.a.Blue.Hill.2004.FRENCH.HYBRiD.COMiC.CBZ.eBook-TONER
2022-11-29 20:56:41 TV-HD Alle.meine.Frauen.S12E05.German.1080p.WEB.h264-TVNATiON
2022-11-29 20:56:52 EBOOK Chinaman.T07.Affrontements.a.Blue.Hill.2004.FRENCH.HYBRiD.COMiC.iNTERNAL.eBook-TONER
2022-11-29 20:57:07 EBOOK Chinaman.T08.Les.pendus.2005.FRENCH.HYBRiD.COMiC.CBZ.eBook-TONER
2022-11-29 20:57:22 EBOOK Chinaman.T08.Les.pendus.2005.FRENCH.HYBRiD.COMiC.iNTERNAL.eBook-TONER
2022-11-29 20:57:26 TV-HD Alle.meine.Frauen.S12E05.German.720p.WEB.h264-TVNATiON
2022-11-29 20:57:37 EBOOK Chinaman.T09.Tucano.2007.FRENCH.HYBRiD.COMiC.CBZ.eBook-TONER
2022-11-29 20:57:52 EBOOK Chinaman.T09.Tucano.2007.FRENCH.HYBRiD.COMiC.iNTERNAL.eBook-TONER
2022-11-29 20:57:57 TV-HD Even.Goeie.Vrienden.S01E10.FLEMISH.1080p.WEB.h264-TRIPEL
2022-11-29 20:58:00 TV-HD Alle.meine.Frauen.S12E06.German.1080p.WEB.h264-TVNATiON
2022-11-29 20:58:00 TV-HD The.Resort.S01E08.iTALiAN.FiNAL.1080p.WEBRip.x264-RAMSEiS
2022-11-29 20:58:07 EBOOK Les.brigades.du.Temps.T01.1492.a.l.ouest.rien.de.nouveau.2012.FRENCH.HYBRiD.COMiC.CBZ.eBook-TONER
2022-11-29 20:58:23 TV-HD Pripady.1.oddeleni.S03E13.2022.720p.HDTV.x264.CZ-MAGiCBOX
2022-11-29 20:58:23 EBOOK Les.brigades.du.Temps.T01.1492.a.l.ouest.rien.de.nouveau.2012.FRENCH.HYBRiD.COMiC.iNTERNAL.eBook-TONER
2022-11-29 20:58:33 TV-HD Alle.meine.Frauen.S12E06.German.720p.WEB.h264-TVNATiON
2022-11-29 20:58:38 EBOOK Les.brigades.du.Temps.T02.La.grande.armada.2013.FRENCH.HYBRiD.COMiC.CBZ.eBook-TONER
2022-11-29 20:58:53 EBOOK Les.brigades.du.Temps.T02.La.grande.armada.2013.FRENCH.HYBRiD.COMiC.iNTERNAL.eBook-TONER
2022-11-29 20:59:06 TV-HD Alle.meine.Frauen.S12E07.German.1080p.WEB.h264-TVNATiON
2022-11-29 20:59:08 EBOOK Les.brigades.du.Temps.T03.Il.faut.sauver.l.USS.Enterprise.2014.FRENCH.HYBRiD.COMiC.CBZ.eBook-TONER
2022-11-29 20:59:23 TV-HD The.Resort.S01E08.iTALiAN.FiNAL.720p.WEBRip.x264-RAMSEiS
2022-11-29 20:59:23 EBOOK Les.brigades.du.Temps.T03.Il.faut.sauver.l.USS.Enterprise.2014.FRENCH.HYBRiD.COMiC.iNTERNAL.eBook-TONER
2022-11-29 20:59:39 TV-HD Alle.meine.Frauen.S12E07.German.720p.WEB.h264-TVNATiON
2022-11-29 21:00:12 TV-HD Alle.meine.Frauen.S12E08.German.1080p.WEB.h264-TVNATiON
2022-11-29 21:00:13 EBOOK Dark.Horse.-.Twelve.Percent.Dread.2022.Hybrid.Comic.eBook-BitBook
2022-11-29 21:00:44 TV-SD The.Resort.S01E08.iTALiAN.FiNAL.WEBRip.x264-RAMSEiS
2022-11-29 21:00:46 TV-HD Alle.meine.Frauen.S12E08.German.720p.WEB.h264-TVNATiON
2022-11-29 21:01:19 TV-HD Alle.meine.Frauen.S12E09.German.1080p.WEB.h264-TVNATiON
2022-11-29 21:01:52 TV-HD Alle.meine.Frauen.S12E09.German.720p.WEB.h264-TVNATiON
2022-11-29 21:02:06 EBOOK Digital.Manga.-.A.Night.Of.A.Thousand.Nights.2013.Hybrid.Comic.eBook-BitBook
2022-11-29 21:02:25 TV-HD Alle.meine.Frauen.S12E10.German.1080p.WEB.h264-TVNATiON
2022-11-29 21:02:58 TV-HD Alle.meine.Frauen.S12E10.German.720p.WEB.h264-TVNATiON
2022-11-29 21:03:16 X264 Emily.the.Criminal.2022.BDRip.x264-PiGNUS
2022-11-29 21:03:31 TV-HD Alle.meine.Frauen.S12E11.German.1080p.WEB.h264-TVNATiON
2022-11-29 21:04:04 TV-HD Alle.meine.Frauen.S12E11.German.720p.WEB.h264-TVNATiON
2022-11-29 21:04:38 TV-HD Alle.meine.Frauen.S12E12.German.1080p.WEB.h264-TVNATiON
2022-11-29 21:05:11 EBOOK Digital.Manga.-.A.Rose.Colored.Life.Vol.01.2013.Hybrid.Comic.eBook-BitBook
2022-11-29 21:05:12 TV-HD Alle.meine.Frauen.S12E12.German.720p.WEB.h264-TVNATiON
2022-11-29 21:05:44 TV-HD Alle.meine.Frauen.S12E13.German.1080p.WEB.h264-TVNATiON
2022-11-29 21:06:17 TV-HD Alle.meine.Frauen.S12E13.German.720p.WEB.h264-TVNATiON
2022-11-29 21:06:50 TV-HD Alle.meine.Frauen.S12E14.German.1080p.WEB.h264-TVNATiON
2022-11-29 21:06:56 EBOOK Digital.Manga.-.A.Rose.Colored.Life.Vol.02.2013.Hybrid.Comic.eBook-BitBook
2022-11-29 21:07:23 TV-HD Alle.meine.Frauen.S12E14.German.720p.WEB.h264-TVNATiON
2022-11-29 21:07:56 TV-HD Alle.meine.Frauen.S12E15.German.1080p.WEB.h264-TVNATiON
2022-11-29 21:08:29 TV-HD Alle.meine.Frauen.S12E15.German.720p.WEB.h264-TVNATiON
2022-11-29 21:09:01 TV-HD Alle.meine.Frauen.S12E16.German.1080p.WEB.h264-TVNATiON
2022-11-29 21:09:02 EBOOK Digital.Manga.-.A.Taste.Of.Honey.2013.Hybrid.Comic.eBook-BitBook
2022-11-29 21:09:34 TV-HD Alle.meine.Frauen.S12E16.German.720p.WEB.h264-TVNATiON
2022-11-29 21:10:06 TV-HD Alle.meine.Frauen.S12E17.German.1080p.WEB.h264-TVNATiON
2022-11-29 21:10:13 TV-HD Vier.Freunde.und.die.Geisterhand.S02E10.GERMAN.DUBBED.DL.HDR.2160p.WEB.h265-WiSHTV
2022-11-29 21:10:32 X264 Emily.the.Criminal.2022.1080p.BluRay.x264-PiGNUS
2022-11-29 21:10:40 TV-HD Alle.meine.Frauen.S12E17.German.720p.WEB.h264-TVNATiON
2022-11-29 21:11:15 TV-HD Alle.meine.Frauen.S12E18.German.1080p.WEB.h264-TVNATiON
2022-11-29 21:11:48 TV-HD Alle.meine.Frauen.S12E18.German.720p.WEB.h264-TVNATiON
2022-11-29 21:12:14 TV-HD Vier.Freunde.und.die.Geisterhand.S02E11.GERMAN.DUBBED.DL.HDR.2160p.WEB.h265-WiSHTV
2022-11-29 21:12:20 TV-HD Alle.meine.Frauen.S12E19.German.1080p.WEB.h264-TVNATiON
2022-11-29 21:12:55 TV-HD Alle.meine.Frauen.S12E19.German.720p.WEB.h264-TVNATiON
2022-11-29 21:13:28 TV-HD Alle.meine.Frauen.S12E20.German.1080p.WEB.h264-TVNATiON
2022-11-29 21:14:03 TV-HD Alle.meine.Frauen.S12E20.German.720p.WEB.h264-TVNATiON
2022-11-29 21:14:16 TV-HD Vier.Freunde.und.die.Geisterhand.S02E12.GERMAN.DUBBED.DL.HDR.2160p.WEB.h265-WiSHTV
2022-11-29 21:16:41 EBOOK Digital.Manga.-.Alabaster.Vol.02.2021.Hybrid.Comic.eBook-BitBook
2022-11-29 21:16:45 BLURAY Emily.the.Criminal.2022.COMPLETE.BLURAY-iNTEGRUM
2022-11-29 21:18:23 EBOOK Digital.Manga.-.An.Even.More.Beautiful.Lie.2012.Hybrid.Comic.eBook-BitBook
2022-11-29 21:20:15 EBOOK Digital.Manga.-.And.Love.2013.Hybrid.Comic.eBook-BitBook
2022-11-29 21:22:50 EBOOK Digital.Manga.-.Attacked.On.A.Tiger.s.Whim.2013.Hybrid.Comic.eBook-BitBook
2022-11-29 21:23:12 MP3 The_Musalini_and_Izzy_Hott-Game_Not_Sould-WEB-2022-UVU
2022-11-29 21:23:32 TV-HD Resident.Alien.S02E14.FRENCH.720p.WEB.H264-FREAMON
2022-11-29 21:23:38 TV-SD Resident.Alien.S02E14.FRENCH.WEB.H264-FREAMON
2022-11-29 21:24:03 EBOOK Digital.Manga.-.Awakened.Dreamer.2013.Hybrid.Comic.eBook-BitBook
2022-11-29 21:25:35 EBOOK Digital.Manga.-.Because.Isn.t.It.Love.2013.Hybrid.Comic.eBook-BitBook
2022-11-29 21:25:57 TV-HD Stranger.Things.S04E01.2160p.WEB.H265-DONUTS
2022-11-29 21:26:29 TV-HD Stranger.Things.S04E02.2160p.WEB.H265-DONUTS
2022-11-29 21:26:52 TV-HD Stranger.Things.S04E03.2160p.WEB.H265-DONUTS
2022-11-29 21:27:18 TV-HD Stranger.Things.S04E04.2160p.WEB.H265-DONUTS
2022-11-29 21:27:37 TV-HD Law.and.Order.SVU.S23E11.FRENCH.720p.WEB.H264-FREAMON
2022-11-29 21:27:41 TV-HD Stranger.Things.S04E05.2160p.WEB.H265-DONUTS
2022-11-29 21:28:07 TV-HD Stranger.Things.S04E06.2160p.WEB.H265-DONUTS
2022-11-29 21:28:36 EBOOK Digital.Manga.-.Beloved.Toy.2013.Hybrid.Comic.eBook-BitBook
2022-11-29 21:29:01 TV-HD Stranger.Things.S04E07.2160p.WEB.H265-DONUTS
2022-11-29 21:29:34 TV-HD Stranger.Things.S04E08.2160p.WEB.H265-DONUTS
2022-11-29 21:30:08 TV-HD Stranger.Things.S04E09.2160p.WEB.H265-DONUTS
2022-11-29 21:31:16 EBOOK Digital.Manga.-.Betting.My.Life.With.You.2013.Hybrid.Comic.eBook-BitBook
2022-11-29 21:32:12 TV-HD Stranger.Things.S04E01.DV.2160p.WEB.H265-DONUTS
2022-11-29 21:32:20 EBOOK Digital.Manga.-.Blooming.Darling.Vol.01.2013.Hybrid.Comic.eBook-BitBook
2022-11-29 21:32:36 TV-HD Stranger.Things.S04E01.HDR.2160p.WEB.H265-DONUTS
2022-11-29 21:33:01 TV-HD Stranger.Things.S04E02.DV.2160p.WEB.H265-DONUTS
2022-11-29 21:33:24 TV-HD Stranger.Things.S04E02.HDR.2160p.WEB.H265-DONUTS
2022-11-29 21:33:48 TV-HD Stranger.Things.S04E03.DV.2160p.WEB.H265-DONUTS
2022-11-29 21:34:27 EBOOK Digital.Manga.-.Blooming.Darling.Vol.02.2013.Hybrid.Comic.eBook-BitBook
2022-11-29 21:34:31 TV-HD Stranger.Things.S04E03.HDR.2160p.WEB.H265-DONUTS
2022-11-29 21:35:00 TV-HD Stranger.Things.S04E04.DV.2160p.WEB.H265-DONUTS
2022-11-29 21:35:25 TV-HD Stranger.Things.S04E04.HDR.2160p.WEB.H265-DONUTS
2022-11-29 21:35:48 TV-HD Stranger.Things.S04E05.DV.2160p.WEB.H265-DONUTS
2022-11-29 21:36:10 TV-HD Stranger.Things.S04E05.HDR.2160p.WEB.H265-DONUTS
2022-11-29 21:36:36 TV-HD Stranger.Things.S04E06.DV.2160p.WEB.H265-DONUTS
2022-11-29 21:36:52 EBOOK Digital.Manga.-.Blt.Burning.Love.Twin.2013.Hybrid.Comic.eBook-BitBook
2022-11-29 21:37:00 TV-HD Stranger.Things.S04E06.HDR.2160p.WEB.H265-DONUTS
2022-11-29 21:37:30 TV-HD Stranger.Things.S04E07.DV.2160p.WEB.H265-DONUTS
2022-11-29 21:37:53 TV-HD Stranger.Things.S04E07.HDR.2160p.WEB.H265-DONUTS
2022-11-29 21:38:00 TV-HD Law.and.Order.SVU.S23E11.FRENCH.1080p.WEB.H264-FREAMON
2022-11-29 21:38:22 TV-HD Stranger.Things.S04E08.DV.2160p.WEB.H265-DONUTS
2022-11-29 21:38:38 EBOOK Digital.Manga.-.Border.Control.Fate.2013.Hybrid.Comic.eBook-BitBook
2022-11-29 21:38:56 TV-HD Stranger.Things.S04E08.HDR.2160p.WEB.H265-DONUTS
2022-11-29 21:39:24 TV-HD Stranger.Things.S04E09.DV.2160p.WEB.H265-DONUTS
2022-11-29 21:39:28 TV-HD The.Action.Pack.Saves.Christmas.2022.GERMAN.DL.720p.WEB.H264-DMPD
2022-11-29 21:40:02 TV-HD Stranger.Things.S04E09.HDR.2160p.WEB.H265-DONUTS
2022-11-29 21:40:19 TV-HD The.Action.Pack.Saves.Christmas.2022.GERMAN.DL.1080p.WEB.H264-DMPD
2022-11-29 21:40:21 MP3 Jive_Bunny_and_The_Mastermixers-Gold-3CD-2021-DDS
2022-11-29 21:41:08 X264 Wer.die.Nachtigall.stoert.1962.German.DL.2160p.UHD.BluRay.x265-ENDSTATiON
2022-11-29 21:42:22 TV-HD Resident.Alien.S02E14.MULTi.1080p.WEB.H264-FREAMON
2022-11-29 21:42:29 EBOOK Digital.Manga.-.Career.Gate.2013.Hybrid.Comic.eBook-BitBook
2022-11-29 21:44:31 TV-HD Venner.Fra.Foer.S01E13.NORWEGiAN.720p.HDTV.x264-SKRiTT
2022-11-29 21:44:42 EBOOK Digital.Manga.-.Castle.Mango.Vol.01.2012.Hybrid.Comic.eBook-BitBook
2022-11-29 21:46:03 EBOOK Digital.Manga.-.Climb.On.To.My.Shoulders.2013.Hybrid.Comic.eBook-BitBook
2022-11-29 21:47:38 EBOOK Digital.Manga.-.Clumsy.Child.2013.Hybrid.Comic.eBook-BitBook
2022-11-29 21:47:43 TV-HD Chainsaw.Man.E05.MULTi.1080p.WEB.x264-AMB3R
2022-11-29 21:49:33 EBOOK Digital.Manga.-.Conditions.Of.Happiness.2013.Hybrid.Comic.eBook-BitBook
2022-11-29 21:51:21 EBOOK Digital.Manga.-.Crazy.About.You.2013.Hybrid.Comic.eBook-BitBook
2022-11-29 21:52:17 EBOOK Digital.Manga.-.Curve.2013.Hybrid.Comic.eBook-BitBook
2022-11-29 21:53:47 EBOOK Digital.Manga.-.Doki.Doki.Crush.2013.Hybrid.Comic.eBook-BitBook
2022-11-29 21:54:06 TV-HD Amsterdam.2022.GERMAN.DL.1080P.WEB.X264-WAYNE
2022-11-29 21:57:03 EBOOK Digital.Manga.-.Even.Say.I.Love.You.2013.Hybrid.Comic.eBook-BitBook
2022-11-29 21:57:47 TV-HD Trevor.Noah.I.Wish.You.Would.2022.2160p.WEB.H265-DONUTS
2022-11-29 21:58:25 TV-HD Trevor.Noah.I.Wish.You.Would.2022.DV.2160p.WEB.H265-DONUTS
2022-11-29 21:58:28 EBOOK Digital.Manga.-.Facing.The.Incoming.Wind.2013.Hybrid.Comic.eBook-BitBook
2022-11-29 21:59:08 TV-HD Trevor.Noah.I.Wish.You.Would.2022.HDR.2160p.WEB.H265-DONUTS
2022-11-29 22:01:22 EBOOK Digital.Manga.-.Fantasy.Paradise.2013.Hybrid.Comic.eBook-BitBook
2022-11-29 22:02:56 EBOOK Digital.Manga.-.Faraway.Places.2013.Hybrid.Comic.eBook-BitBook
2022-11-29 22:03:15 NSW FRONT_MISSION_1st_Remake_NSW-VENOM
2022-11-29 22:04:10 TV-HD Animal.Kingdom.US.S06E04.MULTi.1080p.WEB.H264-SHEEEIT
2022-11-29 22:04:12 X264 River.City.2022.11.21.1080p.WEBRip.x264-FaiLED
2022-11-29 22:04:36 X264 River.City.2022.11.21.720p.WEBRip.x264-FaiLED
2022-11-29 22:04:43 EBOOK Digital.Manga.-.Fever.2013.Hybrid.Comic.eBook-BitBook
2022-11-29 22:04:59 X264 River.City.2022.11.23.1080p.WEBRip.x264-FaiLED
2022-11-29 22:05:21 X264 River.City.2022.11.23.720p.WEBRip.x264-FaiLED
2022-11-29 22:05:43 X264 River.City.2022.11.28.1080p.WEBRip.x264-FaiLED
2022-11-29 22:06:05 X264 River.City.2022.11.28.720p.WEBRip.x264-FaiLED
2022-11-29 22:06:18 EBOOK Digital.Manga.-.Fingertip.Trompe.L.oeil.2013.Hybrid.Comic.eBook-BitBook
2022-11-29 22:07:47 BLURAY Attack.Of.The.Giant.Leeches.1959.MULTI.COMPLETE.BLURAY-PENTAGON
2022-11-29 22:08:07 EBOOK Digital.Manga.-.Flower.Shadow.s.Memory.2013.Hybrid.Comic.eBook-BitBook
2022-11-29 22:09:31 BLURAY Das.Grauen.kam.um.Mitternacht.Vintage.Kinofassung.1958.German.1080p.BluRay.AVC-SAVASTANOS
2022-11-29 22:09:40 EBOOK Digital.Manga.-.For.My.Cherry.Blossom.2013.Hybrid.Comic.eBook-BitBook
2022-11-29 22:10:32 X264 Das.Grauen.kam.um.Mitternacht.Vintage.Kinofassung.1958.German.1080p.BluRay.x264-SAVASTANOS
2022-11-29 22:11:32 X264 Das.Grauen.kam.um.Mitternacht.Vintage.Kinofassung.1958.German.720p.BluRay.x264-SAVASTANOS
2022-11-29 22:11:41 EBOOK Digital.Manga.-.He.s.Mine.2013.Hybrid.Comic.eBook-BitBook
2022-11-29 22:12:31 TV-HD Ermordet.Tatort.Texas.Killing.Fields.S01E01.GERMAN.DL.DOKU.720p.WEB.H264-ETM
2022-11-29 22:12:33 X264 Das.Grauen.kam.um.Mitternacht.Vintage.Kinofassung.German.1958.AC3.BDRiP.x264-SAVASTANOS
2022-11-29 22:13:14 EBOOK Digital.Manga.-.Healing.Music.2013.Hybrid.Comic.eBook-BitBook
2022-11-29 22:13:33 X264 Katakomben.des.Grauens.1959.German.720p.BluRay.x264-SAVASTANOS
2022-11-29 22:13:38 TV-HD Ermordet.Tatort.Texas.Killing.Fields.S01E01.GERMAN.DL.DOKU.1080p.WEB.H264-ETM
2022-11-29 22:14:18 EBOOK Digital.Manga.-.Help.Me.Reach.The.Top.Shelf.The.Little.Book.Shop.2013.Hybrid.Comic.eBook-BitBook
2022-11-29 22:14:34 BLURAY Katakomben.des.Grauens.1959.German.DL.1080p.BluRay.AVC-SAVASTANOS
2022-11-29 22:14:47 TV-HD Ermordet.Tatort.Texas.Killing.Fields.S01E02.GERMAN.DL.DOKU.720p.WEB.H264-ETM
2022-11-29 22:15:35 X264 Katakomben.des.Grauens.1959.German.DL.1080p.BluRay.x264-SAVASTANOS
2022-11-29 22:15:54 TV-HD Ermordet.Tatort.Texas.Killing.Fields.S01E02.GERMAN.DL.DOKU.1080p.WEB.H264-ETM
2022-11-29 22:15:55 EBOOK Digital.Manga.-.Hide.And.Seek.2013.Hybrid.Comic.eBook-BitBook
2022-11-29 22:16:35 X264 Katakomben.des.Grauens.German.1959.AC3.BDRiP.x264-SAVASTANOS
2022-11-29 22:17:00 TV-HD Ermordet.Tatort.Texas.Killing.Fields.S01E03.GERMAN.DL.DOKU.720p.WEB.H264-ETM
2022-11-29 22:17:58 EBOOK Europe.Comics.-.A.Tale.Of.Two.Arthurs.Book.2.2022.Hybrid.Comic.eBook-BitBook
2022-11-29 22:18:07 TV-HD Ermordet.Tatort.Texas.Killing.Fields.S01E03.GERMAN.DL.DOKU.1080p.WEB.H264-ETM
2022-11-29 22:19:20 EBOOK Europe.Comics.-.Arthus.Trivium.4.The.Invisible.Army.2022.Hybrid.Comic.eBook-BitBook
2022-11-29 22:20:41 EBOOK Europe.Comics.-.Bootblack.Vol.01.2022.Hybrid.Comic.eBook-BitBook
2022-11-29 22:21:22 TV-HD Echoes.2022.S01E01.DV.2160p.WEB.H265-DONUTS
2022-11-29 22:21:49 FLAC Depeche_Mode-Violator_(The_12inch_Singles)-16BIT-WEB-FLAC-2022-ENRiCH
2022-11-29 22:22:25 EBOOK Europe.Comics.-.Chinaman.5.Between.Two.Shores.2022.Hybrid.Comic.eBook-BitBook
2022-11-29 22:22:53 TV-HD Echoes.2022.S01E01.HDR.2160p.WEB.H265-DONUTS
2022-11-29 22:24:28 EBOOK Europe.Comics.-.Comanche.2.Warriors.Of.Despair.2022.Hybrid.Comic.eBook-BitBook
2022-11-29 22:24:29 TV-HD Echoes.2022.S01E02.DV.2160p.WEB.H265-DONUTS
2022-11-29 22:25:20 TV-HD Echoes.2022.S01E02.HDR.2160p.WEB.H265-DONUTS
2022-11-29 22:26:12 EBOOK Europe.Comics.-.Drones.2.Ptsd.2022.Hybrid.Comic.eBook-BitBook
2022-11-29 22:26:40 TV-HD Echoes.2022.S01E03.DV.2160p.WEB.H265-DONUTS
2022-11-29 22:28:03 TV-HD Ranma.Un.Demi.E082.UNCENSORED.CUSTOM.MULTi.1080p.WEB.H264-AMB3R
2022-11-29 22:28:10 TV-HD Law.and.Order.SVU.S23E12.FRENCH.720p.WEB.H264-FREAMON
2022-11-29 22:29:51 EBOOK Europe.Comics.-.Eden.2022.Hybrid.Comic.eBook-BitBook
2022-11-29 22:29:54 TV-HD Echoes.2022.S01E03.HDR.2160p.WEB.H265-DONUTS
2022-11-29 22:31:19 EBOOK Europe.Comics.-.Hubert.Reeves.Explains.1.Biodiversity.2022.Hybrid.Comic.eBook-BitBook
2022-11-29 22:31:48 TV-HD Family.Feud.Canada.S04E46.1080p.WEB.h264-BAE
2022-11-29 22:31:50 TV-HD Family.Feud.Canada.S04E46.720p.WEB.h264-BAE
2022-11-29 22:32:12 EBOOK Europe.Comics.-.The.World.According.To.Francois.1.The.Writers.Secret.2022.Hybrid.Comic.eBook-BitBook
2022-11-29 22:32:51 TV-HD Law.and.Order.SVU.S23E12.FRENCH.1080p.WEB.H264-FREAMON
2022-11-29 22:33:13 TV-HD Echoes.2022.S01E04.DV.2160p.WEB.H265-DONUTS
2022-11-29 22:33:52 EBOOK Exhibit.A.Press.-.Supernatural.Law.Grandfathered.In.2021.Hybrid.Comic.eBook-BitBook
2022-11-29 22:34:12 TV-HD Echoes.2022.S01E04.HDR.2160p.WEB.H265-DONUTS
2022-11-29 22:34:57 TV-HD Echoes.2022.S01E05.DV.2160p.WEB.H265-DONUTS
2022-11-29 22:35:49 TV-HD Echoes.2022.S01E05.HDR.2160p.WEB.H265-DONUTS
2022-11-29 22:36:03 EBOOK Exhibit.A.Press.-.The.Monsters.Meet.On.Court.Street.And.Other.Tales.Of.Supernatural.Law.2021.Hybrid.Comic.eBook-BitBook
2022-11-29 22:36:20 FLAC Depeche_Mode-Exciter_(The_12inch_Singles)-16BIT-WEB-FLAC-2022-ENRiCH
2022-11-29 22:36:54 TV-HD Echoes.2022.S01E06.DV.2160p.WEB.H265-DONUTS
2022-11-29 22:37:47 TV-HD Echoes.2022.S01E06.HDR.2160p.WEB.H265-DONUTS
2022-11-29 22:38:35 EBOOK Exhibit.A.Press.-.The.Werewolf.Of.New.York.2021.Hybrid.Comic.eBook-BitBook
2022-11-29 22:38:40 TV-HD Echoes.2022.S01E07.DV.2160p.WEB.H265-DONUTS
2022-11-29 22:39:59 TV-HD Echoes.2022.S01E07.HDR.2160p.WEB.H265-DONUTS
2022-11-29 22:40:35 EBOOK Exhibit.A.Press.-.Zombie.Wife.And.Other.Tales.Of.Supernatural.Law.2021.Hybrid.Comic.eBook-BitBook
2022-11-29 22:44:08 EBOOK Fantagraphics.-.Alberto.Breccia.s.Dracula.2022.Hybrid.Comic.eBook-BitBook
2022-11-29 22:44:11 FLAC Depeche_Mode-Ultra_(The_12inch_Singles)-16BIT-WEB-FLAC-2022-ENRiCH
2022-11-29 22:46:34 BLURAY The.Australian.Job.2002.DUAL.COMPLETE.BLURAY.iNTERNAL-FiSSiON
2022-11-29 22:49:44 EBOOK Fantagraphics.-.Amor.Y.Cohetes.A.Love.And.Rockets.Book.2022.Hybrid.Comic.eBook-BitBook
2022-11-29 22:54:18 EBOOK Fantagraphics.-.Below.Ambition.2022.Hybrid.Comic.eBook-BitBook
2022-11-29 22:56:22 FLAC Depeche_Mode-Songs_Of_Faith_And_Devotion_(The_12inch_Singles)-16BIT-WEB-FLAC-2022-ENRiCH
2022-11-29 22:58:33 MP3 Marsh-Blue-(ANJDEE741D)-WEB-2022-PTC_INT
2022-11-29 22:58:58 EBOOK Fantagraphics.-.Beyond.Palomar.A.Love.And.Rockets.Book.2022.Hybrid.Comic.eBook-BitBook
2022-11-29 22:59:33 FLAC Shuko-The_Awakening_EP-10INCH_VINYL-FLAC-2013-FrB
2022-11-29 23:01:14 FLAC Depeche_Mode-Some_Great_Reward_(The_12inch_Singles)-16BIT-WEB-FLAC-2022-ENRiCH
2022-11-29 23:02:42 TV-SD Pripady.1.oddeleni.S03E13.2022.HDTV.x264.CZ-MAGiCBOX
2022-11-29 23:03:12 TV-HD Specialiste.S07E16.Posledni.splatka.1080p.WEB.X264.CZ-SDTV
2022-11-29 23:03:16 EBOOK Fantagraphics.-.Comics.Dementia.A.Love.And.Rockets.Book.2022.Hybrid.Comic.eBook-BitBook
2022-11-29 23:03:23 TV-HD Vem.Tror.Du.Att.Du.Ar.S11E13.SWEDiSH.720p.WEB.h264-NORUSH
2022-11-29 23:03:58 TV-HD Vem.Tror.Du.Att.Du.Ar.S11E13.SWEDiSH.1080p.WEB.h264-NORUSH
2022-11-29 23:04:34 TV-HD Specialiste.S07E16.Posledni.splatka.720p.WEB.X264.CZ-SDTV
2022-11-29 23:05:55 TV-HD Handen.Pa.Hjartat.S01E03.SWEDiSH.720p.WEB.h264-NORUSH
2022-11-29 23:06:19 TV-HD Handen.Pa.Hjartat.S01E03.SWEDiSH.1080p.WEB.h264-NORUSH
2022-11-29 23:06:40 TV-HD Vagens.Hjaltar.S13E13.SWEDiSH.720p.WEB.h264-NORUSH
2022-11-29 23:06:54 FLAC Depeche_Mode-Construction_Time_Again_(The_12inch_Singles)-16BIT-WEB-FLAC-2022-ENRiCH
2022-11-29 23:07:52 TV-HD Vagens.Hjaltar.S13E13.SWEDiSH.1080p.WEB.h264-NORUSH
2022-11-29 23:08:52 MP3 Spinline-Ka-(SSSPINLP001S)-SINGLE-WEB-2022-PTC
2022-11-29 23:09:02 TV-HD Wednesday.S01E01.DV.2160p.WEB.H265-DONUTS
2022-11-29 23:09:32 TV-HD Wednesday.S01E02.DV.2160p.WEB.H265-DONUTS
2022-11-29 23:10:02 TV-HD Wednesday.S01E03.DV.2160p.WEB.H265-DONUTS
2022-11-29 23:10:32 TV-HD Wednesday.S01E04.DV.2160p.WEB.H265-DONUTS
2022-11-29 23:11:02 TV-HD Wednesday.S01E05.DV.2160p.WEB.H265-DONUTS
2022-11-29 23:11:23 FLAC Depeche_Mode-Black_Celebration_(The_12inch_Singles)-16BIT-WEB-FLAC-2022-ENRiCH
2022-11-29 23:11:32 TV-HD Wednesday.S01E06.DV.2160p.WEB.H265-DONUTS
2022-11-29 23:12:02 TV-HD Wednesday.S01E07.DV.2160p.WEB.H265-DONUTS
2022-11-29 23:12:13 MP3 One_Mindz-Another_Dimension__Just_a_Game-(LSA006)-WEB-2022-PTC
2022-11-29 23:12:32 TV-HD Wednesday.S01E08.DV.2160p.WEB.H265-DONUTS
2022-11-29 23:13:25 EBOOK Fantagraphics.-.Crisis.Zone.2022.Hybrid.Comic.eBook-BitBook
2022-11-29 23:16:09 FLAC Depeche_Mode-Music_For_The_Masses_(The_12inch_Singles)-16BIT-WEB-FLAC-2022-ENRiCH
2022-11-29 23:17:34 EBOOK Fantagraphics.-.Dementia.21.Vol.02.2022.Hybrid.Comic.eBook-BitBook
2022-11-29 23:17:46 TV-HD Julekveld.Hos.Proeysen.S05E02.NORWEGiAN.1080p.WEB.h264-BAKFYLLA
2022-11-29 23:18:22 TV-HD Julekveld.Hos.Proeysen.S05E02.NORWEGiAN.720p.WEB.h264-BAKFYLLA
2022-11-29 23:20:19 EBOOK Fantagraphics.-.Esperanza.A.Love.And.Rockets.Book.2022.Hybrid.Comic.eBook-BitBook
2022-11-29 23:21:06 TV-HD Kids.in.Crime.S01E01.NORWEGiAN.720p.HDTV.x264-NORPiLT
2022-11-29 23:21:08 EBOOK Le.Monde.30.Novembre.2022.FRENCH.HYBRiD.eBook-TONER
2022-11-29 23:22:43 TV-HD Sweet.Tooth.S01E01.2160p.WEB.H265-DONUTS
2022-11-29 23:23:13 TV-HD Sweet.Tooth.S01E01.DV.2160p.WEB.H265-DONUTS
2022-11-29 23:23:43 TV-HD Sweet.Tooth.S01E01.HDR.2160p.WEB.H265-DONUTS
2022-11-29 23:24:13 TV-HD Sweet.Tooth.S01E02.2160p.WEB.H265-DONUTS
2022-11-29 23:24:43 TV-HD Sweet.Tooth.S01E02.DV.2160p.WEB.H265-DONUTS
2022-11-29 23:25:13 TV-HD Sweet.Tooth.S01E02.HDR.2160p.WEB.H265-DONUTS
2022-11-29 23:25:23 FLAC Depeche_Mode-Speak_and_Spell_(The_12inch_Singles)-16BIT-WEB-FLAC-2022-ENRiCH
2022-11-29 23:25:25 EBOOK Fantagraphics.-.Heartbreak.Soup.2022.Hybrid.Comic.eBook-BitBook
2022-11-29 23:25:43 TV-HD Sweet.Tooth.S01E03.2160p.WEB.H265-DONUTS
2022-11-29 23:26:08 MP3 VA-XYZ_Quatre_Ans-(XYZC003)-WEB-2022-PTC
2022-11-29 23:26:13 TV-HD Sweet.Tooth.S01E03.DV.2160p.WEB.H265-DONUTS
2022-11-29 23:26:43 TV-HD Sweet.Tooth.S01E03.HDR.2160p.WEB.H265-DONUTS
2022-11-29 23:27:14 TV-HD Sweet.Tooth.S01E04.2160p.WEB.H265-DONUTS
2022-11-29 23:27:44 TV-HD Sweet.Tooth.S01E04.DV.2160p.WEB.H265-DONUTS
2022-11-29 23:28:14 TV-HD Sweet.Tooth.S01E04.HDR.2160p.WEB.H265-DONUTS
2022-11-29 23:28:15 FLAC Depeche_Mode-A_Broken_Frame_(The_12inch_Singles)-16BIT-WEB-FLAC-2022-ENRiCH
2022-11-29 23:28:44 TV-HD Sweet.Tooth.S01E05.2160p.WEB.H265-DONUTS
2022-11-29 23:29:14 TV-HD Sweet.Tooth.S01E05.DV.2160p.WEB.H265-DONUTS
2022-11-29 23:29:44 TV-HD Sweet.Tooth.S01E05.HDR.2160p.WEB.H265-DONUTS
2022-11-29 23:30:14 TV-HD Sweet.Tooth.S01E06.2160p.WEB.H265-DONUTS
2022-11-29 23:30:44 TV-HD Sweet.Tooth.S01E06.DV.2160p.WEB.H265-DONUTS
2022-11-29 23:31:14 TV-HD Sweet.Tooth.S01E06.HDR.2160p.WEB.H265-DONUTS
2022-11-29 23:31:33 EBOOK Fantagraphics.-.Home.To.Stay.The.Complete.Ray.Bradbury.Ec.Stories.2022.Hybrid.Comic.eBook-BitBook
2022-11-29 23:31:44 TV-HD Sweet.Tooth.S01E07.2160p.WEB.H265-DONUTS
2022-11-29 23:31:45 TV-HD Kids.in.Crime.S01E02.NORWEGiAN.720p.HDTV.x264-NORPiLT
2022-11-29 23:32:14 TV-HD Sweet.Tooth.S01E07.DV.2160p.WEB.H265-DONUTS
2022-11-29 23:32:44 TV-HD Sweet.Tooth.S01E07.HDR.2160p.WEB.H265-DONUTS
2022-11-29 23:33:08 TV-HD The.Great.Game.S01E03.GERMAN.DL.1080P.WEB.H264-WAYNE
2022-11-29 23:33:10 TV-HD Sweet.Tooth.S01E08.2160p.WEB.H265-DONUTS
2022-11-29 23:33:44 TV-HD Sweet.Tooth.S01E08.DV.2160p.WEB.H265-DONUTS
2022-11-29 23:33:52 TV-HD The.Great.Game.S01E04.GERMAN.DL.1080P.WEB.H264-WAYNE
2022-11-29 23:34:14 TV-HD Sweet.Tooth.S01E08.HDR.2160p.WEB.H265-DONUTS
2022-11-29 23:35:39 MP3 Erdi_Irmak-Driftwood-(XYZ050)-PROPER-WEB-2022-PTC
2022-11-29 23:36:08 EBOOK Fantagraphics.-.Human.Diastrophism.2022.Hybrid.Comic.eBook-BitBook
2022-11-29 23:39:19 EBOOK Fantagraphics.-.Invisible.Wounds.Graphic.Journalism.2022.Hybrid.Comic.eBook-BitBook
2022-11-29 23:44:30 EBOOK Fantagraphics.-.Keeping.Two.2022.Hybrid.Comic.eBook-BitBook
2022-11-29 23:45:03 TV-HD Guillermo.del.Toros.Cabinet.of.Curiosities.S01E01.DV.2160p.WEB.H265-DONUTS
2022-11-29 23:45:18 TV-HD Martine.S01E03.NORWEGiAN.720p.HDTV.x264-NORPiLT
2022-11-29 23:45:33 TV-HD Guillermo.del.Toros.Cabinet.of.Curiosities.S01E02.DV.2160p.WEB.H265-DONUTS
2022-11-29 23:46:03 TV-HD Guillermo.del.Toros.Cabinet.of.Curiosities.S01E03.DV.2160p.WEB.H265-DONUTS
2022-11-29 23:46:33 TV-HD Guillermo.del.Toros.Cabinet.of.Curiosities.S01E04.DV.2160p.WEB.H265-DONUTS
2022-11-29 23:47:03 TV-HD Guillermo.del.Toros.Cabinet.of.Curiosities.S01E05.DV.2160p.WEB.H265-DONUTS
2022-11-29 23:47:23 MP3 Zuma_Dionys_and_Daniel_Hokum-Serafim-(TMR014)-WEB-2022-PTC
2022-11-29 23:47:33 TV-HD Guillermo.del.Toros.Cabinet.of.Curiosities.S01E06.DV.2160p.WEB.H265-DONUTS
2022-11-29 23:48:03 TV-HD Guillermo.del.Toros.Cabinet.of.Curiosities.S01E07.DV.2160p.WEB.H265-DONUTS
2022-11-29 23:48:34 TV-HD Guillermo.del.Toros.Cabinet.of.Curiosities.S01E08.DV.2160p.WEB.H265-DONUTS
2022-11-29 23:48:46 EBOOK Fantagraphics.-.King.The.Complete.Edition.2022.Hybrid.Comic.eBook-BitBook
2022-11-29 23:51:49 EBOOK Fantagraphics.-.Life.Of.Che.An.Impressionistic.Biography.2022.Hybrid.Comic.eBook-BitBook
2022-11-29 23:55:49 EBOOK Fantagraphics.-.Luba.And.Her.Family.2022.Hybrid.Comic.eBook-BitBook
2022-11-29 23:56:59 MP3 Baltra-Tell_Me-(NSFR007A)-WEB-2022-PTC
2022-11-29 23:57:06 TV-HD The.Brokenwood.Mysteries.S05E04.The.Dark.Angel.1080p.WEB.X264.CZ-SDTV
2022-11-29 23:57:24 MP3 Baltra-Where_I_End-(NSFR007B)-WEB-2022-PTC
2022-11-29 23:57:38 MP3 Baltra-Luv-N-Me-(NSFR007C)-WEB-2022-PTC
2022-11-29 23:58:04 MP3 Baltra-Brush_Strokes-(NSFR007D)-WEB-2022-PTC